<?xml version="1.0" encoding="UTF-8" standalone="no" ?>
<gpx xmlns="http://www.topografix.com/GPX/1/1" xmlns:xsi="http://www.w3.org/2001/XMLSchema-instance" xsi:schemaLocation="http://www.topografix.com/GPX/1/1 http://www.topografix.com/GPX/1/1/gpx.xsd" version="1.1" creator="VisuGPX - https://www.visugpx.com">
  <metadata>
    <name>Raf Vanade</name>
    <desc><![CDATA[sortie classique Vtt a la vanade !
retour par la route]]></desc>
  </metadata>
  <trk>
    <name><![CDATA[Mountain Biking 9/3/15 6:08 pm]]></name>
    <trkseg>
      <trkpt lat="43.66089" lon="7.09605">
        <ele>44</ele>
        <time>2015-09-03T16:08:04Z</time>
      </trkpt>
      <trkpt lat="43.66093" lon="7.09594">
        <ele>44.1</ele>
        <time>2015-09-03T16:09:20Z</time>
      </trkpt>
      <trkpt lat="43.66098" lon="7.09585">
        <ele>44.2</ele>
        <time>2015-09-03T16:10:33Z</time>
      </trkpt>
      <trkpt lat="43.66108" lon="7.09582">
        <ele>44.3</ele>
        <time>2015-09-03T16:10:52Z</time>
      </trkpt>
      <trkpt lat="43.66117" lon="7.09578">
        <ele>44.4</ele>
        <time>2015-09-03T16:10:56Z</time>
      </trkpt>
      <trkpt lat="43.66126" lon="7.09574">
        <ele>44.5</ele>
        <time>2015-09-03T16:11:01Z</time>
      </trkpt>
      <trkpt lat="43.66135" lon="7.09568">
        <ele>45.2</ele>
        <time>2015-09-03T16:11:07Z</time>
      </trkpt>
      <trkpt lat="43.66143" lon="7.09561">
        <ele>45.9</ele>
        <time>2015-09-03T16:11:12Z</time>
      </trkpt>
      <trkpt lat="43.66151" lon="7.09557">
        <ele>46.6</ele>
        <time>2015-09-03T16:11:15Z</time>
      </trkpt>
      <trkpt lat="43.66159" lon="7.09549">
        <ele>47.4</ele>
        <time>2015-09-03T16:11:19Z</time>
      </trkpt>
      <trkpt lat="43.66169" lon="7.09544">
        <ele>48.1</ele>
        <time>2015-09-03T16:11:23Z</time>
      </trkpt>
      <trkpt lat="43.66177" lon="7.09541">
        <ele>48.8</ele>
        <time>2015-09-03T16:11:27Z</time>
      </trkpt>
      <trkpt lat="43.66185" lon="7.09537">
        <ele>49.5</ele>
        <time>2015-09-03T16:11:33Z</time>
      </trkpt>
      <trkpt lat="43.66193" lon="7.09531">
        <ele>50.1</ele>
        <time>2015-09-03T16:11:37Z</time>
      </trkpt>
      <trkpt lat="43.66202" lon="7.09526">
        <ele>50.7</ele>
        <time>2015-09-03T16:11:41Z</time>
      </trkpt>
      <trkpt lat="43.66205" lon="7.09513">
        <ele>51.4</ele>
        <time>2015-09-03T16:11:46Z</time>
      </trkpt>
      <trkpt lat="43.66206" lon="7.095">
        <ele>52</ele>
        <time>2015-09-03T16:11:50Z</time>
      </trkpt>
      <trkpt lat="43.6621" lon="7.0949">
        <ele>52.5</ele>
        <time>2015-09-03T16:11:55Z</time>
      </trkpt>
      <trkpt lat="43.66219" lon="7.09486">
        <ele>53.1</ele>
        <time>2015-09-03T16:11:59Z</time>
      </trkpt>
      <trkpt lat="43.66226" lon="7.0948">
        <ele>53.6</ele>
        <time>2015-09-03T16:12:02Z</time>
      </trkpt>
      <trkpt lat="43.66234" lon="7.09473">
        <ele>54.2</ele>
        <time>2015-09-03T16:12:05Z</time>
      </trkpt>
      <trkpt lat="43.66243" lon="7.09466">
        <ele>54.7</ele>
        <time>2015-09-03T16:12:09Z</time>
      </trkpt>
      <trkpt lat="43.66251" lon="7.09459">
        <ele>55.3</ele>
        <time>2015-09-03T16:12:13Z</time>
      </trkpt>
      <trkpt lat="43.6626" lon="7.09455">
        <ele>56.2</ele>
        <time>2015-09-03T16:12:16Z</time>
      </trkpt>
      <trkpt lat="43.66268" lon="7.09452">
        <ele>57.1</ele>
        <time>2015-09-03T16:12:19Z</time>
      </trkpt>
      <trkpt lat="43.66277" lon="7.09447">
        <ele>58</ele>
        <time>2015-09-03T16:12:23Z</time>
      </trkpt>
      <trkpt lat="43.66285" lon="7.09441">
        <ele>58.6</ele>
        <time>2015-09-03T16:12:27Z</time>
      </trkpt>
      <trkpt lat="43.66294" lon="7.09436">
        <ele>59.3</ele>
        <time>2015-09-03T16:12:31Z</time>
      </trkpt>
      <trkpt lat="43.66303" lon="7.09433">
        <ele>59.4</ele>
        <time>2015-09-03T16:12:35Z</time>
      </trkpt>
      <trkpt lat="43.66308" lon="7.09443">
        <ele>59.5</ele>
        <time>2015-09-03T16:12:41Z</time>
      </trkpt>
      <trkpt lat="43.66309" lon="7.09457">
        <ele>59.5</ele>
        <time>2015-09-03T16:12:45Z</time>
      </trkpt>
      <trkpt lat="43.6631" lon="7.0947">
        <ele>59.6</ele>
        <time>2015-09-03T16:12:48Z</time>
      </trkpt>
      <trkpt lat="43.66311" lon="7.09483">
        <ele>59.7</ele>
        <time>2015-09-03T16:12:51Z</time>
      </trkpt>
      <trkpt lat="43.66314" lon="7.09498">
        <ele>59.8</ele>
        <time>2015-09-03T16:12:54Z</time>
      </trkpt>
      <trkpt lat="43.66319" lon="7.09509">
        <ele>59.5</ele>
        <time>2015-09-03T16:12:57Z</time>
      </trkpt>
      <trkpt lat="43.66324" lon="7.09523">
        <ele>59.3</ele>
        <time>2015-09-03T16:13:01Z</time>
      </trkpt>
      <trkpt lat="43.66326" lon="7.09535">
        <ele>59</ele>
        <time>2015-09-03T16:13:04Z</time>
      </trkpt>
      <trkpt lat="43.66327" lon="7.09548">
        <ele>59</ele>
        <time>2015-09-03T16:13:07Z</time>
      </trkpt>
      <trkpt lat="43.66328" lon="7.0956">
        <ele>59</ele>
        <time>2015-09-03T16:13:10Z</time>
      </trkpt>
      <trkpt lat="43.66326" lon="7.09572">
        <ele>59</ele>
        <time>2015-09-03T16:13:13Z</time>
      </trkpt>
      <trkpt lat="43.66325" lon="7.09585">
        <ele>59</ele>
        <time>2015-09-03T16:13:16Z</time>
      </trkpt>
      <trkpt lat="43.66327" lon="7.09596">
        <ele>59</ele>
        <time>2015-09-03T16:13:19Z</time>
      </trkpt>
      <trkpt lat="43.66335" lon="7.09599">
        <ele>59</ele>
        <time>2015-09-03T16:13:22Z</time>
      </trkpt>
      <trkpt lat="43.66344" lon="7.09594">
        <ele>59.7</ele>
        <time>2015-09-03T16:13:26Z</time>
      </trkpt>
      <trkpt lat="43.66352" lon="7.09585">
        <ele>60.5</ele>
        <time>2015-09-03T16:13:31Z</time>
      </trkpt>
      <trkpt lat="43.6636" lon="7.09581">
        <ele>61.2</ele>
        <time>2015-09-03T16:13:35Z</time>
      </trkpt>
      <trkpt lat="43.66368" lon="7.09583">
        <ele>61.9</ele>
        <time>2015-09-03T16:13:39Z</time>
      </trkpt>
      <trkpt lat="43.66376" lon="7.09589">
        <ele>62.6</ele>
        <time>2015-09-03T16:13:43Z</time>
      </trkpt>
      <trkpt lat="43.66386" lon="7.09593">
        <ele>63.4</ele>
        <time>2015-09-03T16:13:48Z</time>
      </trkpt>
      <trkpt lat="43.66395" lon="7.09592">
        <ele>64.1</ele>
        <time>2015-09-03T16:13:54Z</time>
      </trkpt>
      <trkpt lat="43.66402" lon="7.09584">
        <ele>64.8</ele>
        <time>2015-09-03T16:13:59Z</time>
      </trkpt>
      <trkpt lat="43.6641" lon="7.09575">
        <ele>65.6</ele>
        <time>2015-09-03T16:14:04Z</time>
      </trkpt>
      <trkpt lat="43.66417" lon="7.0957">
        <ele>66.5</ele>
        <time>2015-09-03T16:14:08Z</time>
      </trkpt>
      <trkpt lat="43.66425" lon="7.09562">
        <ele>67.3</ele>
        <time>2015-09-03T16:14:12Z</time>
      </trkpt>
      <trkpt lat="43.66432" lon="7.09553">
        <ele>67.4</ele>
        <time>2015-09-03T16:14:16Z</time>
      </trkpt>
      <trkpt lat="43.66438" lon="7.09543">
        <ele>67.5</ele>
        <time>2015-09-03T16:14:20Z</time>
      </trkpt>
      <trkpt lat="43.66443" lon="7.09531">
        <ele>67.5</ele>
        <time>2015-09-03T16:14:24Z</time>
      </trkpt>
      <trkpt lat="43.66446" lon="7.0952">
        <ele>67.6</ele>
        <time>2015-09-03T16:14:28Z</time>
      </trkpt>
      <trkpt lat="43.66447" lon="7.09507">
        <ele>67.7</ele>
        <time>2015-09-03T16:14:32Z</time>
      </trkpt>
      <trkpt lat="43.66446" lon="7.09495">
        <ele>67.8</ele>
        <time>2015-09-03T16:14:36Z</time>
      </trkpt>
      <trkpt lat="43.66443" lon="7.09483">
        <ele>67.9</ele>
        <time>2015-09-03T16:14:40Z</time>
      </trkpt>
      <trkpt lat="43.66442" lon="7.09469">
        <ele>68</ele>
        <time>2015-09-03T16:14:44Z</time>
      </trkpt>
      <trkpt lat="43.66442" lon="7.09457">
        <ele>68</ele>
        <time>2015-09-03T16:14:48Z</time>
      </trkpt>
      <trkpt lat="43.66444" lon="7.09443">
        <ele>69.4</ele>
        <time>2015-09-03T16:14:52Z</time>
      </trkpt>
      <trkpt lat="43.66453" lon="7.09445">
        <ele>70.7</ele>
        <time>2015-09-03T16:14:57Z</time>
      </trkpt>
      <trkpt lat="43.66454" lon="7.09456">
        <ele>72.1</ele>
        <time>2015-09-03T16:15:01Z</time>
      </trkpt>
      <trkpt lat="43.66458" lon="7.09467">
        <ele>73.5</ele>
        <time>2015-09-03T16:15:05Z</time>
      </trkpt>
      <trkpt lat="43.66462" lon="7.09479">
        <ele>74.8</ele>
        <time>2015-09-03T16:15:10Z</time>
      </trkpt>
      <trkpt lat="43.66469" lon="7.09489">
        <ele>75.6</ele>
        <time>2015-09-03T16:15:15Z</time>
      </trkpt>
      <trkpt lat="43.66474" lon="7.09498">
        <ele>76.5</ele>
        <time>2015-09-03T16:15:19Z</time>
      </trkpt>
      <trkpt lat="43.66479" lon="7.09509">
        <ele>77.3</ele>
        <time>2015-09-03T16:15:23Z</time>
      </trkpt>
      <trkpt lat="43.66484" lon="7.0952">
        <ele>78.1</ele>
        <time>2015-09-03T16:15:27Z</time>
      </trkpt>
      <trkpt lat="43.6649" lon="7.09532">
        <ele>78.9</ele>
        <time>2015-09-03T16:15:32Z</time>
      </trkpt>
      <trkpt lat="43.66493" lon="7.09544">
        <ele>79.7</ele>
        <time>2015-09-03T16:15:36Z</time>
      </trkpt>
      <trkpt lat="43.66497" lon="7.09556">
        <ele>79.2</ele>
        <time>2015-09-03T16:15:40Z</time>
      </trkpt>
      <trkpt lat="43.66502" lon="7.09566">
        <ele>78.6</ele>
        <time>2015-09-03T16:15:44Z</time>
      </trkpt>
      <trkpt lat="43.6651" lon="7.09574">
        <ele>78.9</ele>
        <time>2015-09-03T16:15:48Z</time>
      </trkpt>
      <trkpt lat="43.66519" lon="7.09574">
        <ele>79.8</ele>
        <time>2015-09-03T16:15:52Z</time>
      </trkpt>
      <trkpt lat="43.66526" lon="7.09569">
        <ele>80.7</ele>
        <time>2015-09-03T16:15:56Z</time>
      </trkpt>
      <trkpt lat="43.66533" lon="7.09562">
        <ele>82.2</ele>
        <time>2015-09-03T16:16:00Z</time>
      </trkpt>
      <trkpt lat="43.66541" lon="7.09556">
        <ele>83.6</ele>
        <time>2015-09-03T16:16:05Z</time>
      </trkpt>
      <trkpt lat="43.66547" lon="7.09546">
        <ele>85.1</ele>
        <time>2015-09-03T16:16:10Z</time>
      </trkpt>
      <trkpt lat="43.6655" lon="7.09535">
        <ele>86.5</ele>
        <time>2015-09-03T16:16:15Z</time>
      </trkpt>
      <trkpt lat="43.66557" lon="7.09528">
        <ele>88</ele>
        <time>2015-09-03T16:16:20Z</time>
      </trkpt>
      <trkpt lat="43.66564" lon="7.09524">
        <ele>89.5</ele>
        <time>2015-09-03T16:16:24Z</time>
      </trkpt>
      <trkpt lat="43.66573" lon="7.09523">
        <ele>90.9</ele>
        <time>2015-09-03T16:16:28Z</time>
      </trkpt>
      <trkpt lat="43.66581" lon="7.09524">
        <ele>92.4</ele>
        <time>2015-09-03T16:16:32Z</time>
      </trkpt>
      <trkpt lat="43.6659" lon="7.09524">
        <ele>93</ele>
        <time>2015-09-03T16:16:36Z</time>
      </trkpt>
      <trkpt lat="43.66599" lon="7.09526">
        <ele>93</ele>
        <time>2015-09-03T16:16:40Z</time>
      </trkpt>
      <trkpt lat="43.66607" lon="7.09527">
        <ele>93</ele>
        <time>2015-09-03T16:16:44Z</time>
      </trkpt>
      <trkpt lat="43.66614" lon="7.09519">
        <ele>93</ele>
        <time>2015-09-03T16:16:49Z</time>
      </trkpt>
      <trkpt lat="43.66615" lon="7.09507">
        <ele>93.3</ele>
        <time>2015-09-03T16:16:54Z</time>
      </trkpt>
      <trkpt lat="43.66611" lon="7.09497">
        <ele>93.5</ele>
        <time>2015-09-03T16:16:59Z</time>
      </trkpt>
      <trkpt lat="43.66606" lon="7.09487">
        <ele>93.8</ele>
        <time>2015-09-03T16:17:04Z</time>
      </trkpt>
      <trkpt lat="43.66603" lon="7.09476">
        <ele>94.1</ele>
        <time>2015-09-03T16:17:09Z</time>
      </trkpt>
      <trkpt lat="43.66601" lon="7.09464">
        <ele>94.4</ele>
        <time>2015-09-03T16:17:14Z</time>
      </trkpt>
      <trkpt lat="43.666" lon="7.09452">
        <ele>94.6</ele>
        <time>2015-09-03T16:17:19Z</time>
      </trkpt>
      <trkpt lat="43.666" lon="7.09439">
        <ele>95.3</ele>
        <time>2015-09-03T16:17:24Z</time>
      </trkpt>
      <trkpt lat="43.66601" lon="7.09425">
        <ele>95.9</ele>
        <time>2015-09-03T16:17:29Z</time>
      </trkpt>
      <trkpt lat="43.66603" lon="7.09413">
        <ele>96.5</ele>
        <time>2015-09-03T16:17:34Z</time>
      </trkpt>
      <trkpt lat="43.66603" lon="7.09401">
        <ele>97.2</ele>
        <time>2015-09-03T16:17:39Z</time>
      </trkpt>
      <trkpt lat="43.66604" lon="7.09389">
        <ele>97.8</ele>
        <time>2015-09-03T16:17:44Z</time>
      </trkpt>
      <trkpt lat="43.66606" lon="7.09376">
        <ele>98.2</ele>
        <time>2015-09-03T16:17:49Z</time>
      </trkpt>
      <trkpt lat="43.66608" lon="7.09363">
        <ele>98.5</ele>
        <time>2015-09-03T16:17:54Z</time>
      </trkpt>
      <trkpt lat="43.66609" lon="7.09349">
        <ele>99.3</ele>
        <time>2015-09-03T16:17:59Z</time>
      </trkpt>
      <trkpt lat="43.66611" lon="7.09338">
        <ele>100.7</ele>
        <time>2015-09-03T16:18:03Z</time>
      </trkpt>
      <trkpt lat="43.66615" lon="7.09327">
        <ele>102.2</ele>
        <time>2015-09-03T16:18:07Z</time>
      </trkpt>
      <trkpt lat="43.66619" lon="7.09317">
        <ele>103.6</ele>
        <time>2015-09-03T16:18:11Z</time>
      </trkpt>
      <trkpt lat="43.66624" lon="7.09308">
        <ele>104.7</ele>
        <time>2015-09-03T16:18:15Z</time>
      </trkpt>
      <trkpt lat="43.6663" lon="7.09299">
        <ele>105.8</ele>
        <time>2015-09-03T16:18:19Z</time>
      </trkpt>
      <trkpt lat="43.66637" lon="7.09289">
        <ele>106.9</ele>
        <time>2015-09-03T16:18:24Z</time>
      </trkpt>
      <trkpt lat="43.66644" lon="7.0928">
        <ele>108</ele>
        <time>2015-09-03T16:18:28Z</time>
      </trkpt>
      <trkpt lat="43.66649" lon="7.0927">
        <ele>109.1</ele>
        <time>2015-09-03T16:18:32Z</time>
      </trkpt>
      <trkpt lat="43.66654" lon="7.0926">
        <ele>110.6</ele>
        <time>2015-09-03T16:18:36Z</time>
      </trkpt>
      <trkpt lat="43.66657" lon="7.09248">
        <ele>112.2</ele>
        <time>2015-09-03T16:18:40Z</time>
      </trkpt>
      <trkpt lat="43.6666" lon="7.09237">
        <ele>113.4</ele>
        <time>2015-09-03T16:18:44Z</time>
      </trkpt>
      <trkpt lat="43.66664" lon="7.09226">
        <ele>113.8</ele>
        <time>2015-09-03T16:18:48Z</time>
      </trkpt>
      <trkpt lat="43.66667" lon="7.09215">
        <ele>114.3</ele>
        <time>2015-09-03T16:18:52Z</time>
      </trkpt>
      <trkpt lat="43.66672" lon="7.09204">
        <ele>114.7</ele>
        <time>2015-09-03T16:18:56Z</time>
      </trkpt>
      <trkpt lat="43.66676" lon="7.09194">
        <ele>116.5</ele>
        <time>2015-09-03T16:19:00Z</time>
      </trkpt>
      <trkpt lat="43.66683" lon="7.09184">
        <ele>118.2</ele>
        <time>2015-09-03T16:19:04Z</time>
      </trkpt>
      <trkpt lat="43.66689" lon="7.09177">
        <ele>119.9</ele>
        <time>2015-09-03T16:19:08Z</time>
      </trkpt>
      <trkpt lat="43.66696" lon="7.0917">
        <ele>121.7</ele>
        <time>2015-09-03T16:19:12Z</time>
      </trkpt>
      <trkpt lat="43.66704" lon="7.09164">
        <ele>123.5</ele>
        <time>2015-09-03T16:19:16Z</time>
      </trkpt>
      <trkpt lat="43.6671" lon="7.09157">
        <ele>124.9</ele>
        <time>2015-09-03T16:19:21Z</time>
      </trkpt>
      <trkpt lat="43.66716" lon="7.09147">
        <ele>126.3</ele>
        <time>2015-09-03T16:19:25Z</time>
      </trkpt>
      <trkpt lat="43.66721" lon="7.09136">
        <ele>127.6</ele>
        <time>2015-09-03T16:19:29Z</time>
      </trkpt>
      <trkpt lat="43.66724" lon="7.09124">
        <ele>129</ele>
        <time>2015-09-03T16:19:33Z</time>
      </trkpt>
      <trkpt lat="43.66726" lon="7.09112">
        <ele>130.4</ele>
        <time>2015-09-03T16:19:37Z</time>
      </trkpt>
      <trkpt lat="43.66725" lon="7.09098">
        <ele>131.5</ele>
        <time>2015-09-03T16:19:42Z</time>
      </trkpt>
      <trkpt lat="43.66726" lon="7.09085">
        <ele>131.5</ele>
        <time>2015-09-03T16:19:47Z</time>
      </trkpt>
      <trkpt lat="43.66729" lon="7.09074">
        <ele>131.4</ele>
        <time>2015-09-03T16:19:51Z</time>
      </trkpt>
      <trkpt lat="43.66733" lon="7.09063">
        <ele>131.3</ele>
        <time>2015-09-03T16:19:55Z</time>
      </trkpt>
      <trkpt lat="43.66738" lon="7.09053">
        <ele>131.1</ele>
        <time>2015-09-03T16:19:59Z</time>
      </trkpt>
      <trkpt lat="43.66743" lon="7.09043">
        <ele>130.9</ele>
        <time>2015-09-03T16:20:03Z</time>
      </trkpt>
      <trkpt lat="43.66748" lon="7.09032">
        <ele>130.7</ele>
        <time>2015-09-03T16:20:07Z</time>
      </trkpt>
      <trkpt lat="43.66755" lon="7.09022">
        <ele>130.5</ele>
        <time>2015-09-03T16:20:11Z</time>
      </trkpt>
      <trkpt lat="43.66763" lon="7.09016">
        <ele>131.2</ele>
        <time>2015-09-03T16:20:16Z</time>
      </trkpt>
      <trkpt lat="43.66771" lon="7.0901">
        <ele>131.8</ele>
        <time>2015-09-03T16:20:21Z</time>
      </trkpt>
      <trkpt lat="43.66778" lon="7.09006">
        <ele>132.5</ele>
        <time>2015-09-03T16:20:25Z</time>
      </trkpt>
      <trkpt lat="43.66787" lon="7.09">
        <ele>133.3</ele>
        <time>2015-09-03T16:20:29Z</time>
      </trkpt>
      <trkpt lat="43.66796" lon="7.08996">
        <ele>134.1</ele>
        <time>2015-09-03T16:20:33Z</time>
      </trkpt>
      <trkpt lat="43.66805" lon="7.08991">
        <ele>134.9</ele>
        <time>2015-09-03T16:20:38Z</time>
      </trkpt>
      <trkpt lat="43.66813" lon="7.08987">
        <ele>135.7</ele>
        <time>2015-09-03T16:20:42Z</time>
      </trkpt>
      <trkpt lat="43.66822" lon="7.08983">
        <ele>136.5</ele>
        <time>2015-09-03T16:20:47Z</time>
      </trkpt>
      <trkpt lat="43.6683" lon="7.08981">
        <ele>137.4</ele>
        <time>2015-09-03T16:20:51Z</time>
      </trkpt>
      <trkpt lat="43.66839" lon="7.08978">
        <ele>138.2</ele>
        <time>2015-09-03T16:20:56Z</time>
      </trkpt>
      <trkpt lat="43.66846" lon="7.0897">
        <ele>139</ele>
        <time>2015-09-03T16:21:01Z</time>
      </trkpt>
      <trkpt lat="43.66853" lon="7.0896">
        <ele>139</ele>
        <time>2015-09-03T16:21:07Z</time>
      </trkpt>
      <trkpt lat="43.66858" lon="7.08951">
        <ele>139.4</ele>
        <time>2015-09-03T16:21:13Z</time>
      </trkpt>
      <trkpt lat="43.66862" lon="7.08941">
        <ele>139.7</ele>
        <time>2015-09-03T16:21:19Z</time>
      </trkpt>
      <trkpt lat="43.66869" lon="7.08935">
        <ele>140.8</ele>
        <time>2015-09-03T16:21:24Z</time>
      </trkpt>
      <trkpt lat="43.66874" lon="7.08922">
        <ele>141.9</ele>
        <time>2015-09-03T16:21:29Z</time>
      </trkpt>
      <trkpt lat="43.66878" lon="7.0891">
        <ele>143</ele>
        <time>2015-09-03T16:21:34Z</time>
      </trkpt>
      <trkpt lat="43.66881" lon="7.08897">
        <ele>144.1</ele>
        <time>2015-09-03T16:21:39Z</time>
      </trkpt>
      <trkpt lat="43.66885" lon="7.08885">
        <ele>145.2</ele>
        <time>2015-09-03T16:21:44Z</time>
      </trkpt>
      <trkpt lat="43.66888" lon="7.08874">
        <ele>146.3</ele>
        <time>2015-09-03T16:21:49Z</time>
      </trkpt>
      <trkpt lat="43.66891" lon="7.08862">
        <ele>147.4</ele>
        <time>2015-09-03T16:21:54Z</time>
      </trkpt>
      <trkpt lat="43.66893" lon="7.08851">
        <ele>149.2</ele>
        <time>2015-09-03T16:21:59Z</time>
      </trkpt>
      <trkpt lat="43.66897" lon="7.08839">
        <ele>151</ele>
        <time>2015-09-03T16:22:04Z</time>
      </trkpt>
      <trkpt lat="43.669" lon="7.08828">
        <ele>152.5</ele>
        <time>2015-09-03T16:22:09Z</time>
      </trkpt>
      <trkpt lat="43.66902" lon="7.08817">
        <ele>153.9</ele>
        <time>2015-09-03T16:22:13Z</time>
      </trkpt>
      <trkpt lat="43.66905" lon="7.08806">
        <ele>154.6</ele>
        <time>2015-09-03T16:22:18Z</time>
      </trkpt>
      <trkpt lat="43.66905" lon="7.08794">
        <ele>155.4</ele>
        <time>2015-09-03T16:22:23Z</time>
      </trkpt>
      <trkpt lat="43.66905" lon="7.08781">
        <ele>156.5</ele>
        <time>2015-09-03T16:22:29Z</time>
      </trkpt>
      <trkpt lat="43.66903" lon="7.08769">
        <ele>157.7</ele>
        <time>2015-09-03T16:22:35Z</time>
      </trkpt>
      <trkpt lat="43.66901" lon="7.08756">
        <ele>158.9</ele>
        <time>2015-09-03T16:22:43Z</time>
      </trkpt>
      <trkpt lat="43.66899" lon="7.08744">
        <ele>160.1</ele>
        <time>2015-09-03T16:22:49Z</time>
      </trkpt>
      <trkpt lat="43.66899" lon="7.0873">
        <ele>161.3</ele>
        <time>2015-09-03T16:22:55Z</time>
      </trkpt>
      <trkpt lat="43.66899" lon="7.08718">
        <ele>161.7</ele>
        <time>2015-09-03T16:22:59Z</time>
      </trkpt>
      <trkpt lat="43.66898" lon="7.08706">
        <ele>162.2</ele>
        <time>2015-09-03T16:23:04Z</time>
      </trkpt>
      <trkpt lat="43.66897" lon="7.08693">
        <ele>162.6</ele>
        <time>2015-09-03T16:23:10Z</time>
      </trkpt>
      <trkpt lat="43.66899" lon="7.08706">
        <ele>163.1</ele>
        <time>2015-09-03T16:23:30Z</time>
      </trkpt>
      <trkpt lat="43.66898" lon="7.08719">
        <ele>163.5</ele>
        <time>2015-09-03T16:23:35Z</time>
      </trkpt>
      <trkpt lat="43.66897" lon="7.08708">
        <ele>164</ele>
        <time>2015-09-03T16:23:47Z</time>
      </trkpt>
      <trkpt lat="43.66897" lon="7.08694">
        <ele>164.3</ele>
        <time>2015-09-03T16:23:52Z</time>
      </trkpt>
      <trkpt lat="43.66898" lon="7.08683">
        <ele>164.5</ele>
        <time>2015-09-03T16:23:56Z</time>
      </trkpt>
      <trkpt lat="43.66898" lon="7.08672">
        <ele>164.8</ele>
        <time>2015-09-03T16:24:00Z</time>
      </trkpt>
      <trkpt lat="43.66899" lon="7.08658">
        <ele>165.1</ele>
        <time>2015-09-03T16:24:04Z</time>
      </trkpt>
      <trkpt lat="43.66901" lon="7.08647">
        <ele>165.4</ele>
        <time>2015-09-03T16:24:12Z</time>
      </trkpt>
      <trkpt lat="43.66902" lon="7.08634">
        <ele>165.6</ele>
        <time>2015-09-03T16:24:21Z</time>
      </trkpt>
      <trkpt lat="43.66904" lon="7.08623">
        <ele>165.9</ele>
        <time>2015-09-03T16:24:51Z</time>
      </trkpt>
      <trkpt lat="43.66906" lon="7.08611">
        <ele>166.2</ele>
        <time>2015-09-03T16:25:21Z</time>
      </trkpt>
      <trkpt lat="43.66906" lon="7.08597">
        <ele>166.8</ele>
        <time>2015-09-03T16:25:26Z</time>
      </trkpt>
      <trkpt lat="43.66906" lon="7.08585">
        <ele>167.5</ele>
        <time>2015-09-03T16:25:30Z</time>
      </trkpt>
      <trkpt lat="43.66906" lon="7.08572">
        <ele>168.1</ele>
        <time>2015-09-03T16:25:34Z</time>
      </trkpt>
      <trkpt lat="43.66903" lon="7.0856">
        <ele>168.5</ele>
        <time>2015-09-03T16:25:37Z</time>
      </trkpt>
      <trkpt lat="43.669" lon="7.08546">
        <ele>168.8</ele>
        <time>2015-09-03T16:25:40Z</time>
      </trkpt>
      <trkpt lat="43.66896" lon="7.08532">
        <ele>169.2</ele>
        <time>2015-09-03T16:25:43Z</time>
      </trkpt>
      <trkpt lat="43.66893" lon="7.0852">
        <ele>170.2</ele>
        <time>2015-09-03T16:25:46Z</time>
      </trkpt>
      <trkpt lat="43.6689" lon="7.08508">
        <ele>171.2</ele>
        <time>2015-09-03T16:25:49Z</time>
      </trkpt>
      <trkpt lat="43.66889" lon="7.08493">
        <ele>172.8</ele>
        <time>2015-09-03T16:25:53Z</time>
      </trkpt>
      <trkpt lat="43.66891" lon="7.08479">
        <ele>174.5</ele>
        <time>2015-09-03T16:25:57Z</time>
      </trkpt>
      <trkpt lat="43.66892" lon="7.08464">
        <ele>176.1</ele>
        <time>2015-09-03T16:26:01Z</time>
      </trkpt>
      <trkpt lat="43.66888" lon="7.08451">
        <ele>177.4</ele>
        <time>2015-09-03T16:26:05Z</time>
      </trkpt>
      <trkpt lat="43.66883" lon="7.08439">
        <ele>178.6</ele>
        <time>2015-09-03T16:26:09Z</time>
      </trkpt>
      <trkpt lat="43.66879" lon="7.08429">
        <ele>179.7</ele>
        <time>2015-09-03T16:26:13Z</time>
      </trkpt>
      <trkpt lat="43.66875" lon="7.08417">
        <ele>180.8</ele>
        <time>2015-09-03T16:26:17Z</time>
      </trkpt>
      <trkpt lat="43.66871" lon="7.08405">
        <ele>181.9</ele>
        <time>2015-09-03T16:26:22Z</time>
      </trkpt>
      <trkpt lat="43.66867" lon="7.08393">
        <ele>183</ele>
        <time>2015-09-03T16:26:27Z</time>
      </trkpt>
      <trkpt lat="43.66865" lon="7.08381">
        <ele>183.5</ele>
        <time>2015-09-03T16:26:35Z</time>
      </trkpt>
      <trkpt lat="43.66859" lon="7.08371">
        <ele>183.9</ele>
        <time>2015-09-03T16:26:42Z</time>
      </trkpt>
      <trkpt lat="43.66856" lon="7.08359">
        <ele>183.7</ele>
        <time>2015-09-03T16:26:48Z</time>
      </trkpt>
      <trkpt lat="43.66854" lon="7.08348">
        <ele>183.6</ele>
        <time>2015-09-03T16:26:53Z</time>
      </trkpt>
      <trkpt lat="43.66853" lon="7.08336">
        <ele>183.5</ele>
        <time>2015-09-03T16:26:59Z</time>
      </trkpt>
      <trkpt lat="43.66853" lon="7.08323">
        <ele>183.5</ele>
        <time>2015-09-03T16:27:06Z</time>
      </trkpt>
      <trkpt lat="43.66852" lon="7.08311">
        <ele>183.3</ele>
        <time>2015-09-03T16:27:14Z</time>
      </trkpt>
      <trkpt lat="43.66851" lon="7.083">
        <ele>183.4</ele>
        <time>2015-09-03T16:27:21Z</time>
      </trkpt>
      <trkpt lat="43.66851" lon="7.08288">
        <ele>183.5</ele>
        <time>2015-09-03T16:27:26Z</time>
      </trkpt>
      <trkpt lat="43.66852" lon="7.08276">
        <ele>183.5</ele>
        <time>2015-09-03T16:27:31Z</time>
      </trkpt>
      <trkpt lat="43.66851" lon="7.08288">
        <ele>183.6</ele>
        <time>2015-09-03T16:27:53Z</time>
      </trkpt>
      <trkpt lat="43.6685" lon="7.08299">
        <ele>183.7</ele>
        <time>2015-09-03T16:28:00Z</time>
      </trkpt>
      <trkpt lat="43.66851" lon="7.08288">
        <ele>183.8</ele>
        <time>2015-09-03T16:28:15Z</time>
      </trkpt>
      <trkpt lat="43.6685" lon="7.08275">
        <ele>183.6</ele>
        <time>2015-09-03T16:28:52Z</time>
      </trkpt>
      <trkpt lat="43.66847" lon="7.08264">
        <ele>183.4</ele>
        <time>2015-09-03T16:28:54Z</time>
      </trkpt>
      <trkpt lat="43.66842" lon="7.08251">
        <ele>183.1</ele>
        <time>2015-09-03T16:28:56Z</time>
      </trkpt>
      <trkpt lat="43.66838" lon="7.08236">
        <ele>182.8</ele>
        <time>2015-09-03T16:28:58Z</time>
      </trkpt>
      <trkpt lat="43.66835" lon="7.08219">
        <ele>182.5</ele>
        <time>2015-09-03T16:29:00Z</time>
      </trkpt>
      <trkpt lat="43.66834" lon="7.082">
        <ele>182.2</ele>
        <time>2015-09-03T16:29:02Z</time>
      </trkpt>
      <trkpt lat="43.66833" lon="7.08181">
        <ele>181.8</ele>
        <time>2015-09-03T16:29:04Z</time>
      </trkpt>
      <trkpt lat="43.66831" lon="7.08163">
        <ele>181.5</ele>
        <time>2015-09-03T16:29:06Z</time>
      </trkpt>
      <trkpt lat="43.6683" lon="7.08145">
        <ele>181.1</ele>
        <time>2015-09-03T16:29:08Z</time>
      </trkpt>
      <trkpt lat="43.66828" lon="7.08128">
        <ele>181</ele>
        <time>2015-09-03T16:29:10Z</time>
      </trkpt>
      <trkpt lat="43.66825" lon="7.08109">
        <ele>180.9</ele>
        <time>2015-09-03T16:29:12Z</time>
      </trkpt>
      <trkpt lat="43.66824" lon="7.0809">
        <ele>181.1</ele>
        <time>2015-09-03T16:29:14Z</time>
      </trkpt>
      <trkpt lat="43.66821" lon="7.08073">
        <ele>181.3</ele>
        <time>2015-09-03T16:29:16Z</time>
      </trkpt>
      <trkpt lat="43.66817" lon="7.08058">
        <ele>181.5</ele>
        <time>2015-09-03T16:29:18Z</time>
      </trkpt>
      <trkpt lat="43.66812" lon="7.08045">
        <ele>181.6</ele>
        <time>2015-09-03T16:29:20Z</time>
      </trkpt>
      <trkpt lat="43.6681" lon="7.08032">
        <ele>182.5</ele>
        <time>2015-09-03T16:29:22Z</time>
      </trkpt>
      <trkpt lat="43.66808" lon="7.08017">
        <ele>183.5</ele>
        <time>2015-09-03T16:29:25Z</time>
      </trkpt>
      <trkpt lat="43.66805" lon="7.08003">
        <ele>184.5</ele>
        <time>2015-09-03T16:29:28Z</time>
      </trkpt>
      <trkpt lat="43.66802" lon="7.0799">
        <ele>185.5</ele>
        <time>2015-09-03T16:29:31Z</time>
      </trkpt>
      <trkpt lat="43.66799" lon="7.07979">
        <ele>186.5</ele>
        <time>2015-09-03T16:29:34Z</time>
      </trkpt>
      <trkpt lat="43.66796" lon="7.07968">
        <ele>187.2</ele>
        <time>2015-09-03T16:29:37Z</time>
      </trkpt>
      <trkpt lat="43.66795" lon="7.07954">
        <ele>187.5</ele>
        <time>2015-09-03T16:29:40Z</time>
      </trkpt>
      <trkpt lat="43.66793" lon="7.07941">
        <ele>187.9</ele>
        <time>2015-09-03T16:29:43Z</time>
      </trkpt>
      <trkpt lat="43.66793" lon="7.07926">
        <ele>188.3</ele>
        <time>2015-09-03T16:29:46Z</time>
      </trkpt>
      <trkpt lat="43.66795" lon="7.07912">
        <ele>188.6</ele>
        <time>2015-09-03T16:29:49Z</time>
      </trkpt>
      <trkpt lat="43.66797" lon="7.07898">
        <ele>189</ele>
        <time>2015-09-03T16:29:52Z</time>
      </trkpt>
      <trkpt lat="43.668" lon="7.07884">
        <ele>188.8</ele>
        <time>2015-09-03T16:29:55Z</time>
      </trkpt>
      <trkpt lat="43.66804" lon="7.0787">
        <ele>188.5</ele>
        <time>2015-09-03T16:29:58Z</time>
      </trkpt>
      <trkpt lat="43.66809" lon="7.07858">
        <ele>188.8</ele>
        <time>2015-09-03T16:30:01Z</time>
      </trkpt>
      <trkpt lat="43.66814" lon="7.07845">
        <ele>189.2</ele>
        <time>2015-09-03T16:30:04Z</time>
      </trkpt>
      <trkpt lat="43.66819" lon="7.07832">
        <ele>189.5</ele>
        <time>2015-09-03T16:30:07Z</time>
      </trkpt>
      <trkpt lat="43.66825" lon="7.07818">
        <ele>189.9</ele>
        <time>2015-09-03T16:30:10Z</time>
      </trkpt>
      <trkpt lat="43.6683" lon="7.07805">
        <ele>190.6</ele>
        <time>2015-09-03T16:30:13Z</time>
      </trkpt>
      <trkpt lat="43.66834" lon="7.07795">
        <ele>191.4</ele>
        <time>2015-09-03T16:30:16Z</time>
      </trkpt>
      <trkpt lat="43.6684" lon="7.07784">
        <ele>192.1</ele>
        <time>2015-09-03T16:30:20Z</time>
      </trkpt>
      <trkpt lat="43.66844" lon="7.07774">
        <ele>192.8</ele>
        <time>2015-09-03T16:30:23Z</time>
      </trkpt>
      <trkpt lat="43.66849" lon="7.07761">
        <ele>194.3</ele>
        <time>2015-09-03T16:30:27Z</time>
      </trkpt>
      <trkpt lat="43.66852" lon="7.0775">
        <ele>195.8</ele>
        <time>2015-09-03T16:30:31Z</time>
      </trkpt>
      <trkpt lat="43.66858" lon="7.0774">
        <ele>197.4</ele>
        <time>2015-09-03T16:30:36Z</time>
      </trkpt>
      <trkpt lat="43.66864" lon="7.07732">
        <ele>198.2</ele>
        <time>2015-09-03T16:30:40Z</time>
      </trkpt>
      <trkpt lat="43.6687" lon="7.07723">
        <ele>198.9</ele>
        <time>2015-09-03T16:30:44Z</time>
      </trkpt>
      <trkpt lat="43.66877" lon="7.07714">
        <ele>199.6</ele>
        <time>2015-09-03T16:30:48Z</time>
      </trkpt>
      <trkpt lat="43.66881" lon="7.07703">
        <ele>200.4</ele>
        <time>2015-09-03T16:30:52Z</time>
      </trkpt>
      <trkpt lat="43.66882" lon="7.0769">
        <ele>201.4</ele>
        <time>2015-09-03T16:30:56Z</time>
      </trkpt>
      <trkpt lat="43.66882" lon="7.07677">
        <ele>202.4</ele>
        <time>2015-09-03T16:31:00Z</time>
      </trkpt>
      <trkpt lat="43.66879" lon="7.07665">
        <ele>203.6</ele>
        <time>2015-09-03T16:31:04Z</time>
      </trkpt>
      <trkpt lat="43.66877" lon="7.07652">
        <ele>204.9</ele>
        <time>2015-09-03T16:31:08Z</time>
      </trkpt>
      <trkpt lat="43.66875" lon="7.0764">
        <ele>205.5</ele>
        <time>2015-09-03T16:31:12Z</time>
      </trkpt>
      <trkpt lat="43.66876" lon="7.07628">
        <ele>205.9</ele>
        <time>2015-09-03T16:31:16Z</time>
      </trkpt>
      <trkpt lat="43.6688" lon="7.07615">
        <ele>206.4</ele>
        <time>2015-09-03T16:31:20Z</time>
      </trkpt>
      <trkpt lat="43.66885" lon="7.07605">
        <ele>206.8</ele>
        <time>2015-09-03T16:31:24Z</time>
      </trkpt>
      <trkpt lat="43.66891" lon="7.07595">
        <ele>207.4</ele>
        <time>2015-09-03T16:31:28Z</time>
      </trkpt>
      <trkpt lat="43.66897" lon="7.07585">
        <ele>208.1</ele>
        <time>2015-09-03T16:31:32Z</time>
      </trkpt>
      <trkpt lat="43.66903" lon="7.07578">
        <ele>208.8</ele>
        <time>2015-09-03T16:31:36Z</time>
      </trkpt>
      <trkpt lat="43.66909" lon="7.07568">
        <ele>209.3</ele>
        <time>2015-09-03T16:31:40Z</time>
      </trkpt>
      <trkpt lat="43.66913" lon="7.07558">
        <ele>209.7</ele>
        <time>2015-09-03T16:31:45Z</time>
      </trkpt>
      <trkpt lat="43.66914" lon="7.07545">
        <ele>209.9</ele>
        <time>2015-09-03T16:31:51Z</time>
      </trkpt>
      <trkpt lat="43.66911" lon="7.07532">
        <ele>210.1</ele>
        <time>2015-09-03T16:31:56Z</time>
      </trkpt>
      <trkpt lat="43.66908" lon="7.07519">
        <ele>209.5</ele>
        <time>2015-09-03T16:32:01Z</time>
      </trkpt>
      <trkpt lat="43.66906" lon="7.07506">
        <ele>209</ele>
        <time>2015-09-03T16:32:05Z</time>
      </trkpt>
      <trkpt lat="43.66905" lon="7.07495">
        <ele>208.5</ele>
        <time>2015-09-03T16:32:08Z</time>
      </trkpt>
      <trkpt lat="43.66906" lon="7.07481">
        <ele>207.3</ele>
        <time>2015-09-03T16:32:11Z</time>
      </trkpt>
      <trkpt lat="43.66905" lon="7.07468">
        <ele>206.1</ele>
        <time>2015-09-03T16:32:13Z</time>
      </trkpt>
      <trkpt lat="43.66901" lon="7.07457">
        <ele>204.7</ele>
        <time>2015-09-03T16:32:15Z</time>
      </trkpt>
      <trkpt lat="43.66894" lon="7.07448">
        <ele>203.4</ele>
        <time>2015-09-03T16:32:17Z</time>
      </trkpt>
      <trkpt lat="43.66887" lon="7.07439">
        <ele>202</ele>
        <time>2015-09-03T16:32:19Z</time>
      </trkpt>
      <trkpt lat="43.6688" lon="7.0743">
        <ele>200.5</ele>
        <time>2015-09-03T16:32:21Z</time>
      </trkpt>
      <trkpt lat="43.66873" lon="7.0742">
        <ele>198.9</ele>
        <time>2015-09-03T16:32:23Z</time>
      </trkpt>
      <trkpt lat="43.66865" lon="7.0741">
        <ele>197.4</ele>
        <time>2015-09-03T16:32:25Z</time>
      </trkpt>
      <trkpt lat="43.66855" lon="7.07398">
        <ele>196.5</ele>
        <time>2015-09-03T16:32:27Z</time>
      </trkpt>
      <trkpt lat="43.66845" lon="7.07386">
        <ele>195.2</ele>
        <time>2015-09-03T16:32:29Z</time>
      </trkpt>
      <trkpt lat="43.66835" lon="7.07372">
        <ele>193.8</ele>
        <time>2015-09-03T16:32:31Z</time>
      </trkpt>
      <trkpt lat="43.66824" lon="7.07358">
        <ele>193.1</ele>
        <time>2015-09-03T16:32:33Z</time>
      </trkpt>
      <trkpt lat="43.66813" lon="7.07345">
        <ele>192.4</ele>
        <time>2015-09-03T16:32:35Z</time>
      </trkpt>
      <trkpt lat="43.66802" lon="7.07332">
        <ele>191.6</ele>
        <time>2015-09-03T16:32:37Z</time>
      </trkpt>
      <trkpt lat="43.6679" lon="7.07319">
        <ele>190.9</ele>
        <time>2015-09-03T16:32:39Z</time>
      </trkpt>
      <trkpt lat="43.6678" lon="7.07305">
        <ele>190.2</ele>
        <time>2015-09-03T16:32:41Z</time>
      </trkpt>
      <trkpt lat="43.66769" lon="7.07292">
        <ele>189.6</ele>
        <time>2015-09-03T16:32:43Z</time>
      </trkpt>
      <trkpt lat="43.66758" lon="7.07279">
        <ele>189.1</ele>
        <time>2015-09-03T16:32:45Z</time>
      </trkpt>
      <trkpt lat="43.66747" lon="7.07266">
        <ele>188.4</ele>
        <time>2015-09-03T16:32:47Z</time>
      </trkpt>
      <trkpt lat="43.66738" lon="7.07254">
        <ele>187.6</ele>
        <time>2015-09-03T16:32:49Z</time>
      </trkpt>
      <trkpt lat="43.66729" lon="7.07241">
        <ele>188.1</ele>
        <time>2015-09-03T16:32:51Z</time>
      </trkpt>
      <trkpt lat="43.66721" lon="7.0723">
        <ele>188.5</ele>
        <time>2015-09-03T16:32:53Z</time>
      </trkpt>
      <trkpt lat="43.66716" lon="7.07218">
        <ele>189</ele>
        <time>2015-09-03T16:32:55Z</time>
      </trkpt>
      <trkpt lat="43.66712" lon="7.07206">
        <ele>189.2</ele>
        <time>2015-09-03T16:32:57Z</time>
      </trkpt>
      <trkpt lat="43.66709" lon="7.07193">
        <ele>189.4</ele>
        <time>2015-09-03T16:32:59Z</time>
      </trkpt>
      <trkpt lat="43.66708" lon="7.07178">
        <ele>189.5</ele>
        <time>2015-09-03T16:33:01Z</time>
      </trkpt>
      <trkpt lat="43.66707" lon="7.07162">
        <ele>189.7</ele>
        <time>2015-09-03T16:33:03Z</time>
      </trkpt>
      <trkpt lat="43.66706" lon="7.07145">
        <ele>189.9</ele>
        <time>2015-09-03T16:33:05Z</time>
      </trkpt>
      <trkpt lat="43.66705" lon="7.07128">
        <ele>190.1</ele>
        <time>2015-09-03T16:33:07Z</time>
      </trkpt>
      <trkpt lat="43.66703" lon="7.0711">
        <ele>190.5</ele>
        <time>2015-09-03T16:33:09Z</time>
      </trkpt>
      <trkpt lat="43.66701" lon="7.07093">
        <ele>191</ele>
        <time>2015-09-03T16:33:11Z</time>
      </trkpt>
      <trkpt lat="43.66698" lon="7.07079">
        <ele>190.5</ele>
        <time>2015-09-03T16:33:13Z</time>
      </trkpt>
      <trkpt lat="43.66695" lon="7.07065">
        <ele>189.7</ele>
        <time>2015-09-03T16:33:15Z</time>
      </trkpt>
      <trkpt lat="43.66694" lon="7.07053">
        <ele>189</ele>
        <time>2015-09-03T16:33:17Z</time>
      </trkpt>
      <trkpt lat="43.66693" lon="7.07042">
        <ele>188.5</ele>
        <time>2015-09-03T16:33:20Z</time>
      </trkpt>
      <trkpt lat="43.66703" lon="7.07046">
        <ele>188.1</ele>
        <time>2015-09-03T16:33:23Z</time>
      </trkpt>
      <trkpt lat="43.66713" lon="7.07048">
        <ele>187.6</ele>
        <time>2015-09-03T16:33:25Z</time>
      </trkpt>
      <trkpt lat="43.66723" lon="7.07052">
        <ele>187.2</ele>
        <time>2015-09-03T16:33:27Z</time>
      </trkpt>
      <trkpt lat="43.66734" lon="7.07057">
        <ele>186.7</ele>
        <time>2015-09-03T16:33:29Z</time>
      </trkpt>
      <trkpt lat="43.66744" lon="7.07063">
        <ele>186.3</ele>
        <time>2015-09-03T16:33:31Z</time>
      </trkpt>
      <trkpt lat="43.66756" lon="7.07067">
        <ele>185.1</ele>
        <time>2015-09-03T16:33:33Z</time>
      </trkpt>
      <trkpt lat="43.66766" lon="7.07072">
        <ele>184</ele>
        <time>2015-09-03T16:33:35Z</time>
      </trkpt>
      <trkpt lat="43.66775" lon="7.07076">
        <ele>183.3</ele>
        <time>2015-09-03T16:33:37Z</time>
      </trkpt>
      <trkpt lat="43.66783" lon="7.07072">
        <ele>182.7</ele>
        <time>2015-09-03T16:33:39Z</time>
      </trkpt>
      <trkpt lat="43.6679" lon="7.07064">
        <ele>182.2</ele>
        <time>2015-09-03T16:33:41Z</time>
      </trkpt>
      <trkpt lat="43.66799" lon="7.07053">
        <ele>181.6</ele>
        <time>2015-09-03T16:33:44Z</time>
      </trkpt>
      <trkpt lat="43.66805" lon="7.07045">
        <ele>181.1</ele>
        <time>2015-09-03T16:33:46Z</time>
      </trkpt>
      <trkpt lat="43.66811" lon="7.07036">
        <ele>180.5</ele>
        <time>2015-09-03T16:33:48Z</time>
      </trkpt>
      <trkpt lat="43.66819" lon="7.07027">
        <ele>180</ele>
        <time>2015-09-03T16:33:50Z</time>
      </trkpt>
      <trkpt lat="43.66827" lon="7.07017">
        <ele>179.5</ele>
        <time>2015-09-03T16:33:52Z</time>
      </trkpt>
      <trkpt lat="43.66836" lon="7.07008">
        <ele>178.9</ele>
        <time>2015-09-03T16:33:54Z</time>
      </trkpt>
      <trkpt lat="43.66845" lon="7.06998">
        <ele>178.7</ele>
        <time>2015-09-03T16:33:56Z</time>
      </trkpt>
      <trkpt lat="43.66853" lon="7.0699">
        <ele>178.5</ele>
        <time>2015-09-03T16:33:58Z</time>
      </trkpt>
      <trkpt lat="43.66861" lon="7.06982">
        <ele>178.2</ele>
        <time>2015-09-03T16:34:00Z</time>
      </trkpt>
      <trkpt lat="43.66868" lon="7.06974">
        <ele>177.9</ele>
        <time>2015-09-03T16:34:02Z</time>
      </trkpt>
      <trkpt lat="43.66875" lon="7.06966">
        <ele>177.6</ele>
        <time>2015-09-03T16:34:04Z</time>
      </trkpt>
      <trkpt lat="43.66885" lon="7.06956">
        <ele>177.4</ele>
        <time>2015-09-03T16:34:07Z</time>
      </trkpt>
      <trkpt lat="43.6689" lon="7.06944">
        <ele>177</ele>
        <time>2015-09-03T16:34:10Z</time>
      </trkpt>
      <trkpt lat="43.66894" lon="7.06933">
        <ele>176.6</ele>
        <time>2015-09-03T16:34:13Z</time>
      </trkpt>
      <trkpt lat="43.66899" lon="7.06921">
        <ele>176.3</ele>
        <time>2015-09-03T16:34:16Z</time>
      </trkpt>
      <trkpt lat="43.66901" lon="7.06907">
        <ele>175.9</ele>
        <time>2015-09-03T16:34:19Z</time>
      </trkpt>
      <trkpt lat="43.669" lon="7.06892">
        <ele>175.5</ele>
        <time>2015-09-03T16:34:22Z</time>
      </trkpt>
      <trkpt lat="43.66897" lon="7.06878">
        <ele>175.5</ele>
        <time>2015-09-03T16:34:25Z</time>
      </trkpt>
      <trkpt lat="43.66899" lon="7.06862">
        <ele>175.4</ele>
        <time>2015-09-03T16:34:28Z</time>
      </trkpt>
      <trkpt lat="43.66906" lon="7.06854">
        <ele>175.3</ele>
        <time>2015-09-03T16:34:30Z</time>
      </trkpt>
      <trkpt lat="43.66915" lon="7.06854">
        <ele>175.2</ele>
        <time>2015-09-03T16:34:32Z</time>
      </trkpt>
      <trkpt lat="43.66923" lon="7.06854">
        <ele>174.8</ele>
        <time>2015-09-03T16:34:34Z</time>
      </trkpt>
      <trkpt lat="43.66932" lon="7.06855">
        <ele>174.5</ele>
        <time>2015-09-03T16:34:36Z</time>
      </trkpt>
      <trkpt lat="43.66941" lon="7.06855">
        <ele>174.2</ele>
        <time>2015-09-03T16:34:38Z</time>
      </trkpt>
      <trkpt lat="43.6695" lon="7.06848">
        <ele>174</ele>
        <time>2015-09-03T16:34:40Z</time>
      </trkpt>
      <trkpt lat="43.6696" lon="7.06837">
        <ele>173.8</ele>
        <time>2015-09-03T16:34:42Z</time>
      </trkpt>
      <trkpt lat="43.66971" lon="7.0683">
        <ele>173.6</ele>
        <time>2015-09-03T16:34:44Z</time>
      </trkpt>
      <trkpt lat="43.6698" lon="7.06821">
        <ele>173.5</ele>
        <time>2015-09-03T16:34:46Z</time>
      </trkpt>
      <trkpt lat="43.66982" lon="7.06809">
        <ele>173.3</ele>
        <time>2015-09-03T16:34:48Z</time>
      </trkpt>
      <trkpt lat="43.66981" lon="7.06798">
        <ele>173.1</ele>
        <time>2015-09-03T16:34:50Z</time>
      </trkpt>
      <trkpt lat="43.66981" lon="7.06786">
        <ele>172.9</ele>
        <time>2015-09-03T16:34:52Z</time>
      </trkpt>
      <trkpt lat="43.66985" lon="7.06774">
        <ele>172.7</ele>
        <time>2015-09-03T16:34:55Z</time>
      </trkpt>
      <trkpt lat="43.66994" lon="7.06773">
        <ele>172.7</ele>
        <time>2015-09-03T16:34:58Z</time>
      </trkpt>
      <trkpt lat="43.67005" lon="7.06772">
        <ele>172.7</ele>
        <time>2015-09-03T16:35:01Z</time>
      </trkpt>
      <trkpt lat="43.67016" lon="7.06771">
        <ele>172.7</ele>
        <time>2015-09-03T16:35:04Z</time>
      </trkpt>
      <trkpt lat="43.67026" lon="7.06772">
        <ele>172.6</ele>
        <time>2015-09-03T16:35:07Z</time>
      </trkpt>
      <trkpt lat="43.67035" lon="7.06771">
        <ele>172.5</ele>
        <time>2015-09-03T16:35:10Z</time>
      </trkpt>
      <trkpt lat="43.67045" lon="7.06769">
        <ele>172.5</ele>
        <time>2015-09-03T16:35:13Z</time>
      </trkpt>
      <trkpt lat="43.67056" lon="7.0677">
        <ele>172.4</ele>
        <time>2015-09-03T16:35:16Z</time>
      </trkpt>
      <trkpt lat="43.67068" lon="7.0677">
        <ele>172.5</ele>
        <time>2015-09-03T16:35:19Z</time>
      </trkpt>
      <trkpt lat="43.67078" lon="7.0677">
        <ele>172.5</ele>
        <time>2015-09-03T16:35:21Z</time>
      </trkpt>
      <trkpt lat="43.67088" lon="7.06769">
        <ele>172.6</ele>
        <time>2015-09-03T16:35:23Z</time>
      </trkpt>
      <trkpt lat="43.671" lon="7.06771">
        <ele>172.7</ele>
        <time>2015-09-03T16:35:25Z</time>
      </trkpt>
      <trkpt lat="43.67114" lon="7.06774">
        <ele>172.9</ele>
        <time>2015-09-03T16:35:27Z</time>
      </trkpt>
      <trkpt lat="43.67128" lon="7.06775">
        <ele>173.1</ele>
        <time>2015-09-03T16:35:29Z</time>
      </trkpt>
      <trkpt lat="43.6714" lon="7.06775">
        <ele>173.3</ele>
        <time>2015-09-03T16:35:31Z</time>
      </trkpt>
      <trkpt lat="43.6715" lon="7.06772">
        <ele>173.5</ele>
        <time>2015-09-03T16:35:33Z</time>
      </trkpt>
      <trkpt lat="43.67159" lon="7.06769">
        <ele>173.6</ele>
        <time>2015-09-03T16:35:35Z</time>
      </trkpt>
      <trkpt lat="43.67168" lon="7.06765">
        <ele>174.8</ele>
        <time>2015-09-03T16:35:38Z</time>
      </trkpt>
      <trkpt lat="43.67177" lon="7.06761">
        <ele>176</ele>
        <time>2015-09-03T16:35:42Z</time>
      </trkpt>
      <trkpt lat="43.67187" lon="7.06761">
        <ele>177</ele>
        <time>2015-09-03T16:35:46Z</time>
      </trkpt>
      <trkpt lat="43.67196" lon="7.0676">
        <ele>178</ele>
        <time>2015-09-03T16:35:50Z</time>
      </trkpt>
      <trkpt lat="43.67204" lon="7.06758">
        <ele>179</ele>
        <time>2015-09-03T16:35:54Z</time>
      </trkpt>
      <trkpt lat="43.67213" lon="7.06756">
        <ele>180</ele>
        <time>2015-09-03T16:35:58Z</time>
      </trkpt>
      <trkpt lat="43.67221" lon="7.06758">
        <ele>181</ele>
        <time>2015-09-03T16:36:02Z</time>
      </trkpt>
      <trkpt lat="43.67231" lon="7.06759">
        <ele>182</ele>
        <time>2015-09-03T16:36:07Z</time>
      </trkpt>
      <trkpt lat="43.67239" lon="7.06758">
        <ele>183</ele>
        <time>2015-09-03T16:36:13Z</time>
      </trkpt>
      <trkpt lat="43.67248" lon="7.06759">
        <ele>184</ele>
        <time>2015-09-03T16:36:19Z</time>
      </trkpt>
      <trkpt lat="43.67257" lon="7.06762">
        <ele>185.6</ele>
        <time>2015-09-03T16:36:25Z</time>
      </trkpt>
      <trkpt lat="43.67266" lon="7.06764">
        <ele>186.3</ele>
        <time>2015-09-03T16:36:31Z</time>
      </trkpt>
      <trkpt lat="43.67274" lon="7.06768">
        <ele>186.9</ele>
        <time>2015-09-03T16:36:37Z</time>
      </trkpt>
      <trkpt lat="43.67282" lon="7.06774">
        <ele>187.5</ele>
        <time>2015-09-03T16:36:42Z</time>
      </trkpt>
      <trkpt lat="43.6729" lon="7.06777">
        <ele>188.2</ele>
        <time>2015-09-03T16:36:47Z</time>
      </trkpt>
      <trkpt lat="43.67299" lon="7.06779">
        <ele>188.8</ele>
        <time>2015-09-03T16:36:52Z</time>
      </trkpt>
      <trkpt lat="43.67309" lon="7.06781">
        <ele>189.5</ele>
        <time>2015-09-03T16:36:57Z</time>
      </trkpt>
      <trkpt lat="43.67318" lon="7.06777">
        <ele>190.1</ele>
        <time>2015-09-03T16:37:02Z</time>
      </trkpt>
      <trkpt lat="43.67327" lon="7.06775">
        <ele>190.7</ele>
        <time>2015-09-03T16:37:06Z</time>
      </trkpt>
      <trkpt lat="43.67335" lon="7.06772">
        <ele>191.4</ele>
        <time>2015-09-03T16:37:10Z</time>
      </trkpt>
      <trkpt lat="43.67343" lon="7.06767">
        <ele>191.7</ele>
        <time>2015-09-03T16:37:14Z</time>
      </trkpt>
      <trkpt lat="43.6735" lon="7.06761">
        <ele>191.5</ele>
        <time>2015-09-03T16:37:18Z</time>
      </trkpt>
      <trkpt lat="43.67358" lon="7.06756">
        <ele>192.3</ele>
        <time>2015-09-03T16:37:22Z</time>
      </trkpt>
      <trkpt lat="43.67366" lon="7.06749">
        <ele>193.1</ele>
        <time>2015-09-03T16:37:26Z</time>
      </trkpt>
      <trkpt lat="43.67374" lon="7.06743">
        <ele>193.9</ele>
        <time>2015-09-03T16:37:30Z</time>
      </trkpt>
      <trkpt lat="43.67381" lon="7.06735">
        <ele>194.7</ele>
        <time>2015-09-03T16:37:34Z</time>
      </trkpt>
      <trkpt lat="43.67389" lon="7.06727">
        <ele>195.5</ele>
        <time>2015-09-03T16:37:38Z</time>
      </trkpt>
      <trkpt lat="43.67397" lon="7.0672">
        <ele>196.4</ele>
        <time>2015-09-03T16:37:42Z</time>
      </trkpt>
      <trkpt lat="43.67404" lon="7.06711">
        <ele>197.2</ele>
        <time>2015-09-03T16:37:45Z</time>
      </trkpt>
      <trkpt lat="43.67411" lon="7.06703">
        <ele>198</ele>
        <time>2015-09-03T16:37:48Z</time>
      </trkpt>
      <trkpt lat="43.67418" lon="7.06695">
        <ele>198.8</ele>
        <time>2015-09-03T16:37:51Z</time>
      </trkpt>
      <trkpt lat="43.67424" lon="7.06687">
        <ele>199.9</ele>
        <time>2015-09-03T16:37:54Z</time>
      </trkpt>
      <trkpt lat="43.67431" lon="7.0668">
        <ele>200.9</ele>
        <time>2015-09-03T16:37:57Z</time>
      </trkpt>
      <trkpt lat="43.67438" lon="7.06672">
        <ele>200.8</ele>
        <time>2015-09-03T16:38:00Z</time>
      </trkpt>
      <trkpt lat="43.67444" lon="7.06664">
        <ele>201.1</ele>
        <time>2015-09-03T16:38:03Z</time>
      </trkpt>
      <trkpt lat="43.67452" lon="7.06658">
        <ele>201.4</ele>
        <time>2015-09-03T16:38:07Z</time>
      </trkpt>
      <trkpt lat="43.6746" lon="7.06654">
        <ele>201.6</ele>
        <time>2015-09-03T16:38:39Z</time>
      </trkpt>
      <trkpt lat="43.67468" lon="7.06648">
        <ele>201.9</ele>
        <time>2015-09-03T16:38:43Z</time>
      </trkpt>
      <trkpt lat="43.67477" lon="7.06641">
        <ele>202.2</ele>
        <time>2015-09-03T16:38:47Z</time>
      </trkpt>
      <trkpt lat="43.67485" lon="7.06637">
        <ele>202.5</ele>
        <time>2015-09-03T16:38:51Z</time>
      </trkpt>
      <trkpt lat="43.67495" lon="7.06634">
        <ele>202.7</ele>
        <time>2015-09-03T16:38:56Z</time>
      </trkpt>
      <trkpt lat="43.67503" lon="7.06628">
        <ele>203.8</ele>
        <time>2015-09-03T16:39:01Z</time>
      </trkpt>
      <trkpt lat="43.67512" lon="7.06625">
        <ele>204.9</ele>
        <time>2015-09-03T16:39:06Z</time>
      </trkpt>
      <trkpt lat="43.67521" lon="7.06619">
        <ele>206.1</ele>
        <time>2015-09-03T16:39:12Z</time>
      </trkpt>
      <trkpt lat="43.6753" lon="7.06619">
        <ele>207.3</ele>
        <time>2015-09-03T16:39:18Z</time>
      </trkpt>
      <trkpt lat="43.67538" lon="7.0662">
        <ele>208.1</ele>
        <time>2015-09-03T16:39:24Z</time>
      </trkpt>
      <trkpt lat="43.67546" lon="7.06617">
        <ele>208.9</ele>
        <time>2015-09-03T16:39:30Z</time>
      </trkpt>
      <trkpt lat="43.67554" lon="7.06615">
        <ele>209.7</ele>
        <time>2015-09-03T16:39:36Z</time>
      </trkpt>
      <trkpt lat="43.67563" lon="7.06612">
        <ele>210.5</ele>
        <time>2015-09-03T16:39:43Z</time>
      </trkpt>
      <trkpt lat="43.67571" lon="7.06612">
        <ele>211.4</ele>
        <time>2015-09-03T16:39:59Z</time>
      </trkpt>
      <trkpt lat="43.6758" lon="7.06608">
        <ele>212.2</ele>
        <time>2015-09-03T16:40:14Z</time>
      </trkpt>
      <trkpt lat="43.67589" lon="7.06607">
        <ele>213</ele>
        <time>2015-09-03T16:40:21Z</time>
      </trkpt>
      <trkpt lat="43.67597" lon="7.06601">
        <ele>213</ele>
        <time>2015-09-03T16:40:27Z</time>
      </trkpt>
      <trkpt lat="43.67603" lon="7.06591">
        <ele>213.2</ele>
        <time>2015-09-03T16:40:32Z</time>
      </trkpt>
      <trkpt lat="43.67607" lon="7.06581">
        <ele>213.4</ele>
        <time>2015-09-03T16:40:37Z</time>
      </trkpt>
      <trkpt lat="43.67611" lon="7.06571">
        <ele>214.5</ele>
        <time>2015-09-03T16:40:44Z</time>
      </trkpt>
      <trkpt lat="43.67615" lon="7.06561">
        <ele>215.5</ele>
        <time>2015-09-03T16:40:49Z</time>
      </trkpt>
      <trkpt lat="43.67619" lon="7.06549">
        <ele>216.6</ele>
        <time>2015-09-03T16:40:55Z</time>
      </trkpt>
      <trkpt lat="43.67622" lon="7.06539">
        <ele>217.7</ele>
        <time>2015-09-03T16:41:00Z</time>
      </trkpt>
      <trkpt lat="43.67626" lon="7.06527">
        <ele>217.9</ele>
        <time>2015-09-03T16:41:06Z</time>
      </trkpt>
      <trkpt lat="43.67628" lon="7.06516">
        <ele>219.5</ele>
        <time>2015-09-03T16:41:11Z</time>
      </trkpt>
      <trkpt lat="43.67629" lon="7.06503">
        <ele>221.2</ele>
        <time>2015-09-03T16:41:17Z</time>
      </trkpt>
      <trkpt lat="43.67628" lon="7.0649">
        <ele>222.8</ele>
        <time>2015-09-03T16:41:23Z</time>
      </trkpt>
      <trkpt lat="43.67627" lon="7.06477">
        <ele>224.5</ele>
        <time>2015-09-03T16:41:27Z</time>
      </trkpt>
      <trkpt lat="43.67627" lon="7.06463">
        <ele>225.9</ele>
        <time>2015-09-03T16:41:31Z</time>
      </trkpt>
      <trkpt lat="43.67629" lon="7.06449">
        <ele>227.4</ele>
        <time>2015-09-03T16:41:35Z</time>
      </trkpt>
      <trkpt lat="43.67633" lon="7.06439">
        <ele>227.9</ele>
        <time>2015-09-03T16:41:38Z</time>
      </trkpt>
      <trkpt lat="43.67637" lon="7.06428">
        <ele>229</ele>
        <time>2015-09-03T16:41:42Z</time>
      </trkpt>
      <trkpt lat="43.6764" lon="7.06416">
        <ele>230.1</ele>
        <time>2015-09-03T16:41:46Z</time>
      </trkpt>
      <trkpt lat="43.67642" lon="7.06405">
        <ele>231.2</ele>
        <time>2015-09-03T16:41:50Z</time>
      </trkpt>
      <trkpt lat="43.67643" lon="7.06392">
        <ele>233.2</ele>
        <time>2015-09-03T16:41:54Z</time>
      </trkpt>
      <trkpt lat="43.67643" lon="7.0638">
        <ele>233.7</ele>
        <time>2015-09-03T16:41:58Z</time>
      </trkpt>
      <trkpt lat="43.67642" lon="7.06366">
        <ele>234.3</ele>
        <time>2015-09-03T16:42:02Z</time>
      </trkpt>
      <trkpt lat="43.6764" lon="7.06352">
        <ele>234.9</ele>
        <time>2015-09-03T16:42:06Z</time>
      </trkpt>
      <trkpt lat="43.67639" lon="7.0634">
        <ele>235.5</ele>
        <time>2015-09-03T16:42:09Z</time>
      </trkpt>
      <trkpt lat="43.67637" lon="7.06327">
        <ele>236.2</ele>
        <time>2015-09-03T16:42:12Z</time>
      </trkpt>
      <trkpt lat="43.67635" lon="7.06316">
        <ele>236.8</ele>
        <time>2015-09-03T16:42:15Z</time>
      </trkpt>
      <trkpt lat="43.67634" lon="7.06304">
        <ele>237.5</ele>
        <time>2015-09-03T16:42:18Z</time>
      </trkpt>
      <trkpt lat="43.67632" lon="7.0629">
        <ele>237.5</ele>
        <time>2015-09-03T16:42:22Z</time>
      </trkpt>
      <trkpt lat="43.67629" lon="7.06279">
        <ele>237.6</ele>
        <time>2015-09-03T16:42:27Z</time>
      </trkpt>
      <trkpt lat="43.6763" lon="7.06268">
        <ele>237.7</ele>
        <time>2015-09-03T16:43:08Z</time>
      </trkpt>
      <trkpt lat="43.67632" lon="7.06255">
        <ele>237.7</ele>
        <time>2015-09-03T16:43:14Z</time>
      </trkpt>
      <trkpt lat="43.67638" lon="7.06248">
        <ele>237.7</ele>
        <time>2015-09-03T16:43:19Z</time>
      </trkpt>
      <trkpt lat="43.67643" lon="7.06239">
        <ele>237.7</ele>
        <time>2015-09-03T16:43:23Z</time>
      </trkpt>
      <trkpt lat="43.67649" lon="7.06227">
        <ele>237.6</ele>
        <time>2015-09-03T16:43:29Z</time>
      </trkpt>
      <trkpt lat="43.67653" lon="7.06216">
        <ele>237.5</ele>
        <time>2015-09-03T16:43:33Z</time>
      </trkpt>
      <trkpt lat="43.67658" lon="7.06204">
        <ele>237.5</ele>
        <time>2015-09-03T16:43:37Z</time>
      </trkpt>
      <trkpt lat="43.67661" lon="7.06192">
        <ele>237.4</ele>
        <time>2015-09-03T16:43:40Z</time>
      </trkpt>
      <trkpt lat="43.67663" lon="7.06179">
        <ele>237.3</ele>
        <time>2015-09-03T16:43:43Z</time>
      </trkpt>
      <trkpt lat="43.67666" lon="7.06167">
        <ele>237.2</ele>
        <time>2015-09-03T16:43:46Z</time>
      </trkpt>
      <trkpt lat="43.67672" lon="7.06155">
        <ele>237.1</ele>
        <time>2015-09-03T16:43:49Z</time>
      </trkpt>
      <trkpt lat="43.67676" lon="7.06143">
        <ele>237</ele>
        <time>2015-09-03T16:43:52Z</time>
      </trkpt>
      <trkpt lat="43.67679" lon="7.06128">
        <ele>237</ele>
        <time>2015-09-03T16:43:55Z</time>
      </trkpt>
      <trkpt lat="43.67682" lon="7.06117">
        <ele>237</ele>
        <time>2015-09-03T16:43:57Z</time>
      </trkpt>
      <trkpt lat="43.67685" lon="7.06103">
        <ele>237.4</ele>
        <time>2015-09-03T16:44:00Z</time>
      </trkpt>
      <trkpt lat="43.67688" lon="7.06087">
        <ele>237.7</ele>
        <time>2015-09-03T16:44:03Z</time>
      </trkpt>
      <trkpt lat="43.67691" lon="7.06076">
        <ele>238.1</ele>
        <time>2015-09-03T16:44:05Z</time>
      </trkpt>
      <trkpt lat="43.67694" lon="7.06065">
        <ele>238.5</ele>
        <time>2015-09-03T16:44:07Z</time>
      </trkpt>
      <trkpt lat="43.67698" lon="7.06054">
        <ele>238.4</ele>
        <time>2015-09-03T16:44:09Z</time>
      </trkpt>
      <trkpt lat="43.677" lon="7.06043">
        <ele>238.3</ele>
        <time>2015-09-03T16:44:11Z</time>
      </trkpt>
      <trkpt lat="43.67703" lon="7.06032">
        <ele>238.2</ele>
        <time>2015-09-03T16:44:13Z</time>
      </trkpt>
      <trkpt lat="43.67705" lon="7.06021">
        <ele>238.1</ele>
        <time>2015-09-03T16:44:15Z</time>
      </trkpt>
      <trkpt lat="43.67706" lon="7.06007">
        <ele>238</ele>
        <time>2015-09-03T16:44:18Z</time>
      </trkpt>
      <trkpt lat="43.67712" lon="7.05999">
        <ele>237.9</ele>
        <time>2015-09-03T16:44:22Z</time>
      </trkpt>
      <trkpt lat="43.6772" lon="7.05991">
        <ele>237.8</ele>
        <time>2015-09-03T16:44:25Z</time>
      </trkpt>
      <trkpt lat="43.67729" lon="7.0599">
        <ele>237.4</ele>
        <time>2015-09-03T16:44:28Z</time>
      </trkpt>
      <trkpt lat="43.67739" lon="7.05992">
        <ele>236.9</ele>
        <time>2015-09-03T16:44:32Z</time>
      </trkpt>
      <trkpt lat="43.67749" lon="7.05988">
        <ele>236.5</ele>
        <time>2015-09-03T16:44:53Z</time>
      </trkpt>
      <trkpt lat="43.67759" lon="7.05986">
        <ele>235.7</ele>
        <time>2015-09-03T16:44:56Z</time>
      </trkpt>
      <trkpt lat="43.67771" lon="7.05987">
        <ele>235.5</ele>
        <time>2015-09-03T16:44:59Z</time>
      </trkpt>
      <trkpt lat="43.67778" lon="7.0598">
        <ele>235.2</ele>
        <time>2015-09-03T16:45:01Z</time>
      </trkpt>
      <trkpt lat="43.67786" lon="7.05974">
        <ele>234.9</ele>
        <time>2015-09-03T16:45:03Z</time>
      </trkpt>
      <trkpt lat="43.67793" lon="7.05969">
        <ele>234.6</ele>
        <time>2015-09-03T16:45:05Z</time>
      </trkpt>
      <trkpt lat="43.67801" lon="7.05966">
        <ele>234.4</ele>
        <time>2015-09-03T16:45:07Z</time>
      </trkpt>
      <trkpt lat="43.6781" lon="7.05961">
        <ele>234.1</ele>
        <time>2015-09-03T16:45:09Z</time>
      </trkpt>
      <trkpt lat="43.67819" lon="7.05955">
        <ele>233.8</ele>
        <time>2015-09-03T16:45:12Z</time>
      </trkpt>
      <trkpt lat="43.67829" lon="7.05948">
        <ele>233.5</ele>
        <time>2015-09-03T16:45:15Z</time>
      </trkpt>
      <trkpt lat="43.67838" lon="7.05948">
        <ele>232.8</ele>
        <time>2015-09-03T16:45:18Z</time>
      </trkpt>
      <trkpt lat="43.67847" lon="7.05951">
        <ele>232.1</ele>
        <time>2015-09-03T16:45:21Z</time>
      </trkpt>
      <trkpt lat="43.67855" lon="7.05954">
        <ele>231.6</ele>
        <time>2015-09-03T16:45:25Z</time>
      </trkpt>
      <trkpt lat="43.67864" lon="7.05954">
        <ele>231.2</ele>
        <time>2015-09-03T16:45:28Z</time>
      </trkpt>
      <trkpt lat="43.67875" lon="7.05947">
        <ele>230.7</ele>
        <time>2015-09-03T16:45:31Z</time>
      </trkpt>
      <trkpt lat="43.67882" lon="7.05939">
        <ele>230.3</ele>
        <time>2015-09-03T16:45:33Z</time>
      </trkpt>
      <trkpt lat="43.6789" lon="7.05932">
        <ele>229.8</ele>
        <time>2015-09-03T16:45:35Z</time>
      </trkpt>
      <trkpt lat="43.67897" lon="7.05923">
        <ele>229.4</ele>
        <time>2015-09-03T16:45:37Z</time>
      </trkpt>
      <trkpt lat="43.67905" lon="7.05916">
        <ele>228.9</ele>
        <time>2015-09-03T16:45:39Z</time>
      </trkpt>
      <trkpt lat="43.67915" lon="7.05909">
        <ele>228.5</ele>
        <time>2015-09-03T16:45:41Z</time>
      </trkpt>
      <trkpt lat="43.67923" lon="7.05903">
        <ele>228</ele>
        <time>2015-09-03T16:45:43Z</time>
      </trkpt>
      <trkpt lat="43.67931" lon="7.05903">
        <ele>228</ele>
        <time>2015-09-03T16:45:52Z</time>
      </trkpt>
      <trkpt lat="43.67934" lon="7.05916">
        <ele>228.5</ele>
        <time>2015-09-03T16:45:56Z</time>
      </trkpt>
      <trkpt lat="43.67939" lon="7.05926">
        <ele>228.9</ele>
        <time>2015-09-03T16:45:59Z</time>
      </trkpt>
      <trkpt lat="43.67941" lon="7.05938">
        <ele>229.4</ele>
        <time>2015-09-03T16:46:02Z</time>
      </trkpt>
      <trkpt lat="43.67943" lon="7.05949">
        <ele>229.8</ele>
        <time>2015-09-03T16:46:05Z</time>
      </trkpt>
      <trkpt lat="43.67947" lon="7.0596">
        <ele>230.3</ele>
        <time>2015-09-03T16:46:08Z</time>
      </trkpt>
      <trkpt lat="43.6795" lon="7.05971">
        <ele>230.7</ele>
        <time>2015-09-03T16:46:11Z</time>
      </trkpt>
      <trkpt lat="43.6795" lon="7.05983">
        <ele>230.6</ele>
        <time>2015-09-03T16:46:16Z</time>
      </trkpt>
      <trkpt lat="43.67949" lon="7.05995">
        <ele>231.2</ele>
        <time>2015-09-03T16:46:23Z</time>
      </trkpt>
      <trkpt lat="43.67949" lon="7.06007">
        <ele>231.7</ele>
        <time>2015-09-03T16:46:32Z</time>
      </trkpt>
      <trkpt lat="43.67953" lon="7.06019">
        <ele>232.3</ele>
        <time>2015-09-03T16:47:17Z</time>
      </trkpt>
      <trkpt lat="43.67957" lon="7.06031">
        <ele>232.8</ele>
        <time>2015-09-03T16:47:22Z</time>
      </trkpt>
      <trkpt lat="43.67964" lon="7.0604">
        <ele>232.9</ele>
        <time>2015-09-03T16:47:25Z</time>
      </trkpt>
      <trkpt lat="43.6797" lon="7.06052">
        <ele>233</ele>
        <time>2015-09-03T16:47:28Z</time>
      </trkpt>
      <trkpt lat="43.67974" lon="7.06063">
        <ele>233.1</ele>
        <time>2015-09-03T16:47:31Z</time>
      </trkpt>
      <trkpt lat="43.6798" lon="7.06077">
        <ele>234</ele>
        <time>2015-09-03T16:47:34Z</time>
      </trkpt>
      <trkpt lat="43.67984" lon="7.06088">
        <ele>234.9</ele>
        <time>2015-09-03T16:47:36Z</time>
      </trkpt>
      <trkpt lat="43.67987" lon="7.061">
        <ele>235.8</ele>
        <time>2015-09-03T16:47:39Z</time>
      </trkpt>
      <trkpt lat="43.6799" lon="7.06111">
        <ele>237.3</ele>
        <time>2015-09-03T16:47:42Z</time>
      </trkpt>
      <trkpt lat="43.67995" lon="7.06122">
        <ele>238.1</ele>
        <time>2015-09-03T16:47:45Z</time>
      </trkpt>
      <trkpt lat="43.68" lon="7.06134">
        <ele>238.9</ele>
        <time>2015-09-03T16:47:48Z</time>
      </trkpt>
      <trkpt lat="43.68005" lon="7.06145">
        <ele>239.7</ele>
        <time>2015-09-03T16:47:51Z</time>
      </trkpt>
      <trkpt lat="43.68009" lon="7.06155">
        <ele>240.5</ele>
        <time>2015-09-03T16:47:54Z</time>
      </trkpt>
      <trkpt lat="43.68014" lon="7.06165">
        <ele>240.9</ele>
        <time>2015-09-03T16:47:57Z</time>
      </trkpt>
      <trkpt lat="43.68021" lon="7.06172">
        <ele>241.9</ele>
        <time>2015-09-03T16:48:00Z</time>
      </trkpt>
      <trkpt lat="43.68027" lon="7.06182">
        <ele>242.9</ele>
        <time>2015-09-03T16:48:04Z</time>
      </trkpt>
      <trkpt lat="43.68035" lon="7.06189">
        <ele>243.1</ele>
        <time>2015-09-03T16:48:08Z</time>
      </trkpt>
      <trkpt lat="43.6804" lon="7.06198">
        <ele>243.3</ele>
        <time>2015-09-03T16:48:12Z</time>
      </trkpt>
      <trkpt lat="43.68045" lon="7.06207">
        <ele>243.5</ele>
        <time>2015-09-03T16:48:17Z</time>
      </trkpt>
      <trkpt lat="43.68048" lon="7.06218">
        <ele>243.6</ele>
        <time>2015-09-03T16:48:23Z</time>
      </trkpt>
      <trkpt lat="43.6805" lon="7.06231">
        <ele>243.8</ele>
        <time>2015-09-03T16:48:30Z</time>
      </trkpt>
      <trkpt lat="43.6805" lon="7.06244">
        <ele>244</ele>
        <time>2015-09-03T16:48:36Z</time>
      </trkpt>
      <trkpt lat="43.68054" lon="7.06255">
        <ele>244.6</ele>
        <time>2015-09-03T16:48:42Z</time>
      </trkpt>
      <trkpt lat="43.68061" lon="7.06263">
        <ele>245.3</ele>
        <time>2015-09-03T16:48:48Z</time>
      </trkpt>
      <trkpt lat="43.68068" lon="7.0627">
        <ele>246.4</ele>
        <time>2015-09-03T16:48:53Z</time>
      </trkpt>
      <trkpt lat="43.68075" lon="7.06278">
        <ele>246.8</ele>
        <time>2015-09-03T16:48:57Z</time>
      </trkpt>
      <trkpt lat="43.68082" lon="7.06287">
        <ele>247.3</ele>
        <time>2015-09-03T16:49:02Z</time>
      </trkpt>
      <trkpt lat="43.68087" lon="7.06297">
        <ele>247.7</ele>
        <time>2015-09-03T16:49:06Z</time>
      </trkpt>
      <trkpt lat="43.68094" lon="7.06303">
        <ele>248.2</ele>
        <time>2015-09-03T16:49:09Z</time>
      </trkpt>
      <trkpt lat="43.68104" lon="7.06307">
        <ele>248.6</ele>
        <time>2015-09-03T16:49:12Z</time>
      </trkpt>
      <trkpt lat="43.68113" lon="7.06313">
        <ele>249.1</ele>
        <time>2015-09-03T16:49:15Z</time>
      </trkpt>
      <trkpt lat="43.6812" lon="7.0632">
        <ele>249.7</ele>
        <time>2015-09-03T16:49:18Z</time>
      </trkpt>
      <trkpt lat="43.68126" lon="7.0633">
        <ele>250.4</ele>
        <time>2015-09-03T16:49:22Z</time>
      </trkpt>
      <trkpt lat="43.68121" lon="7.06341">
        <ele>250.5</ele>
        <time>2015-09-03T16:49:29Z</time>
      </trkpt>
      <trkpt lat="43.68114" lon="7.06349">
        <ele>250.7</ele>
        <time>2015-09-03T16:49:32Z</time>
      </trkpt>
      <trkpt lat="43.6811" lon="7.06364">
        <ele>250.9</ele>
        <time>2015-09-03T16:49:35Z</time>
      </trkpt>
      <trkpt lat="43.68111" lon="7.06378">
        <ele>251.1</ele>
        <time>2015-09-03T16:49:38Z</time>
      </trkpt>
      <trkpt lat="43.68112" lon="7.06391">
        <ele>251.3</ele>
        <time>2015-09-03T16:49:41Z</time>
      </trkpt>
      <trkpt lat="43.68111" lon="7.06403">
        <ele>251.3</ele>
        <time>2015-09-03T16:49:44Z</time>
      </trkpt>
      <trkpt lat="43.68107" lon="7.06415">
        <ele>251.3</ele>
        <time>2015-09-03T16:49:47Z</time>
      </trkpt>
      <trkpt lat="43.68103" lon="7.06426">
        <ele>251.3</ele>
        <time>2015-09-03T16:49:50Z</time>
      </trkpt>
      <trkpt lat="43.681" lon="7.06436">
        <ele>251.3</ele>
        <time>2015-09-03T16:49:53Z</time>
      </trkpt>
      <trkpt lat="43.68094" lon="7.06448">
        <ele>251.1</ele>
        <time>2015-09-03T16:49:57Z</time>
      </trkpt>
      <trkpt lat="43.68094" lon="7.0646">
        <ele>250.9</ele>
        <time>2015-09-03T16:50:00Z</time>
      </trkpt>
      <trkpt lat="43.68093" lon="7.06472">
        <ele>250.7</ele>
        <time>2015-09-03T16:50:04Z</time>
      </trkpt>
      <trkpt lat="43.68092" lon="7.06483">
        <ele>250.5</ele>
        <time>2015-09-03T16:50:07Z</time>
      </trkpt>
      <trkpt lat="43.68087" lon="7.06494">
        <ele>249.8</ele>
        <time>2015-09-03T16:50:10Z</time>
      </trkpt>
      <trkpt lat="43.68081" lon="7.06505">
        <ele>249.1</ele>
        <time>2015-09-03T16:50:13Z</time>
      </trkpt>
      <trkpt lat="43.68073" lon="7.06516">
        <ele>248.4</ele>
        <time>2015-09-03T16:50:16Z</time>
      </trkpt>
      <trkpt lat="43.6807" lon="7.06526">
        <ele>248.4</ele>
        <time>2015-09-03T16:50:18Z</time>
      </trkpt>
      <trkpt lat="43.68065" lon="7.06537">
        <ele>248.4</ele>
        <time>2015-09-03T16:50:20Z</time>
      </trkpt>
      <trkpt lat="43.6806" lon="7.06549">
        <ele>248.4</ele>
        <time>2015-09-03T16:50:22Z</time>
      </trkpt>
      <trkpt lat="43.68054" lon="7.0656">
        <ele>248.4</ele>
        <time>2015-09-03T16:50:24Z</time>
      </trkpt>
      <trkpt lat="43.68049" lon="7.06572">
        <ele>248.4</ele>
        <time>2015-09-03T16:50:26Z</time>
      </trkpt>
      <trkpt lat="43.68043" lon="7.06585">
        <ele>248.4</ele>
        <time>2015-09-03T16:50:28Z</time>
      </trkpt>
      <trkpt lat="43.68037" lon="7.06599">
        <ele>247.5</ele>
        <time>2015-09-03T16:50:30Z</time>
      </trkpt>
      <trkpt lat="43.68031" lon="7.06612">
        <ele>246.5</ele>
        <time>2015-09-03T16:50:32Z</time>
      </trkpt>
      <trkpt lat="43.68023" lon="7.06619">
        <ele>246.2</ele>
        <time>2015-09-03T16:50:34Z</time>
      </trkpt>
      <trkpt lat="43.68016" lon="7.06624">
        <ele>245.8</ele>
        <time>2015-09-03T16:50:37Z</time>
      </trkpt>
      <trkpt lat="43.68017" lon="7.06637">
        <ele>245.5</ele>
        <time>2015-09-03T16:51:27Z</time>
      </trkpt>
      <trkpt lat="43.68021" lon="7.06649">
        <ele>244.4</ele>
        <time>2015-09-03T16:51:30Z</time>
      </trkpt>
      <trkpt lat="43.68025" lon="7.06661">
        <ele>243.3</ele>
        <time>2015-09-03T16:51:34Z</time>
      </trkpt>
      <trkpt lat="43.6803" lon="7.0667">
        <ele>242.2</ele>
        <time>2015-09-03T16:51:36Z</time>
      </trkpt>
      <trkpt lat="43.68035" lon="7.06685">
        <ele>241.1</ele>
        <time>2015-09-03T16:51:39Z</time>
      </trkpt>
      <trkpt lat="43.68043" lon="7.06691">
        <ele>240</ele>
        <time>2015-09-03T16:51:42Z</time>
      </trkpt>
      <trkpt lat="43.68054" lon="7.06689">
        <ele>238.9</ele>
        <time>2015-09-03T16:51:46Z</time>
      </trkpt>
      <trkpt lat="43.68063" lon="7.06691">
        <ele>238.7</ele>
        <time>2015-09-03T16:51:48Z</time>
      </trkpt>
      <trkpt lat="43.68071" lon="7.06694">
        <ele>238.5</ele>
        <time>2015-09-03T16:51:50Z</time>
      </trkpt>
      <trkpt lat="43.68079" lon="7.06701">
        <ele>237.6</ele>
        <time>2015-09-03T16:51:52Z</time>
      </trkpt>
      <trkpt lat="43.68087" lon="7.06708">
        <ele>236.7</ele>
        <time>2015-09-03T16:51:54Z</time>
      </trkpt>
      <trkpt lat="43.68097" lon="7.06709">
        <ele>235.8</ele>
        <time>2015-09-03T16:51:56Z</time>
      </trkpt>
      <trkpt lat="43.68109" lon="7.06713">
        <ele>234.5</ele>
        <time>2015-09-03T16:51:58Z</time>
      </trkpt>
      <trkpt lat="43.6812" lon="7.06715">
        <ele>233.3</ele>
        <time>2015-09-03T16:52:00Z</time>
      </trkpt>
      <trkpt lat="43.68129" lon="7.06714">
        <ele>232</ele>
        <time>2015-09-03T16:52:02Z</time>
      </trkpt>
      <trkpt lat="43.6814" lon="7.06715">
        <ele>230.7</ele>
        <time>2015-09-03T16:52:05Z</time>
      </trkpt>
      <trkpt lat="43.68149" lon="7.06719">
        <ele>229.5</ele>
        <time>2015-09-03T16:52:08Z</time>
      </trkpt>
      <trkpt lat="43.68149" lon="7.06734">
        <ele>228.2</ele>
        <time>2015-09-03T16:52:11Z</time>
      </trkpt>
      <trkpt lat="43.6815" lon="7.06747">
        <ele>226.1</ele>
        <time>2015-09-03T16:52:14Z</time>
      </trkpt>
      <trkpt lat="43.68152" lon="7.0676">
        <ele>224</ele>
        <time>2015-09-03T16:52:17Z</time>
      </trkpt>
      <trkpt lat="43.68154" lon="7.06773">
        <ele>222.6</ele>
        <time>2015-09-03T16:52:19Z</time>
      </trkpt>
      <trkpt lat="43.68153" lon="7.0679">
        <ele>221.3</ele>
        <time>2015-09-03T16:52:21Z</time>
      </trkpt>
      <trkpt lat="43.6815" lon="7.06802">
        <ele>219.9</ele>
        <time>2015-09-03T16:52:23Z</time>
      </trkpt>
      <trkpt lat="43.68147" lon="7.06816">
        <ele>219.1</ele>
        <time>2015-09-03T16:52:25Z</time>
      </trkpt>
      <trkpt lat="43.68143" lon="7.06828">
        <ele>218.3</ele>
        <time>2015-09-03T16:52:27Z</time>
      </trkpt>
      <trkpt lat="43.68144" lon="7.06844">
        <ele>217.5</ele>
        <time>2015-09-03T16:52:30Z</time>
      </trkpt>
      <trkpt lat="43.6815" lon="7.06852">
        <ele>216.6</ele>
        <time>2015-09-03T16:52:32Z</time>
      </trkpt>
      <trkpt lat="43.68157" lon="7.06861">
        <ele>214.7</ele>
        <time>2015-09-03T16:52:34Z</time>
      </trkpt>
      <trkpt lat="43.68166" lon="7.06868">
        <ele>212.8</ele>
        <time>2015-09-03T16:52:36Z</time>
      </trkpt>
      <trkpt lat="43.68177" lon="7.06873">
        <ele>211.7</ele>
        <time>2015-09-03T16:52:38Z</time>
      </trkpt>
      <trkpt lat="43.6819" lon="7.06878">
        <ele>210.6</ele>
        <time>2015-09-03T16:52:40Z</time>
      </trkpt>
      <trkpt lat="43.68204" lon="7.06879">
        <ele>209.5</ele>
        <time>2015-09-03T16:52:42Z</time>
      </trkpt>
      <trkpt lat="43.68218" lon="7.06878">
        <ele>208.5</ele>
        <time>2015-09-03T16:52:44Z</time>
      </trkpt>
      <trkpt lat="43.68231" lon="7.06878">
        <ele>206.5</ele>
        <time>2015-09-03T16:52:46Z</time>
      </trkpt>
      <trkpt lat="43.6824" lon="7.06877">
        <ele>204.6</ele>
        <time>2015-09-03T16:52:48Z</time>
      </trkpt>
      <trkpt lat="43.68251" lon="7.06872">
        <ele>201.4</ele>
        <time>2015-09-03T16:52:51Z</time>
      </trkpt>
      <trkpt lat="43.6826" lon="7.06878">
        <ele>198.1</ele>
        <time>2015-09-03T16:52:55Z</time>
      </trkpt>
      <trkpt lat="43.68272" lon="7.06881">
        <ele>194.8</ele>
        <time>2015-09-03T16:52:58Z</time>
      </trkpt>
      <trkpt lat="43.68281" lon="7.06885">
        <ele>192.6</ele>
        <time>2015-09-03T16:53:00Z</time>
      </trkpt>
      <trkpt lat="43.6829" lon="7.06887">
        <ele>190.5</ele>
        <time>2015-09-03T16:53:02Z</time>
      </trkpt>
      <trkpt lat="43.68301" lon="7.06888">
        <ele>189.6</ele>
        <time>2015-09-03T16:53:05Z</time>
      </trkpt>
      <trkpt lat="43.68308" lon="7.06897">
        <ele>188.8</ele>
        <time>2015-09-03T16:53:08Z</time>
      </trkpt>
      <trkpt lat="43.68312" lon="7.06912">
        <ele>188</ele>
        <time>2015-09-03T16:53:11Z</time>
      </trkpt>
      <trkpt lat="43.68313" lon="7.06925">
        <ele>187.2</ele>
        <time>2015-09-03T16:53:14Z</time>
      </trkpt>
      <trkpt lat="43.68304" lon="7.06929">
        <ele>187.2</ele>
        <time>2015-09-03T16:57:59Z</time>
      </trkpt>
      <trkpt lat="43.68296" lon="7.06933">
        <ele>187.2</ele>
        <time>2015-09-03T16:58:03Z</time>
      </trkpt>
      <trkpt lat="43.68286" lon="7.06936">
        <ele>188.5</ele>
        <time>2015-09-03T16:58:07Z</time>
      </trkpt>
      <trkpt lat="43.68278" lon="7.06938">
        <ele>189.9</ele>
        <time>2015-09-03T16:58:10Z</time>
      </trkpt>
      <trkpt lat="43.68267" lon="7.06942">
        <ele>191.3</ele>
        <time>2015-09-03T16:58:14Z</time>
      </trkpt>
      <trkpt lat="43.68257" lon="7.06945">
        <ele>192.6</ele>
        <time>2015-09-03T16:58:18Z</time>
      </trkpt>
      <trkpt lat="43.68249" lon="7.06948">
        <ele>194.6</ele>
        <time>2015-09-03T16:58:21Z</time>
      </trkpt>
      <trkpt lat="43.68241" lon="7.06951">
        <ele>195.3</ele>
        <time>2015-09-03T16:58:24Z</time>
      </trkpt>
      <trkpt lat="43.68232" lon="7.06954">
        <ele>195.9</ele>
        <time>2015-09-03T16:58:27Z</time>
      </trkpt>
      <trkpt lat="43.68224" lon="7.06956">
        <ele>196.5</ele>
        <time>2015-09-03T16:58:30Z</time>
      </trkpt>
      <trkpt lat="43.68215" lon="7.06958">
        <ele>197.2</ele>
        <time>2015-09-03T16:58:33Z</time>
      </trkpt>
      <trkpt lat="43.68204" lon="7.06957">
        <ele>197.8</ele>
        <time>2015-09-03T16:58:37Z</time>
      </trkpt>
      <trkpt lat="43.68196" lon="7.06959">
        <ele>198.5</ele>
        <time>2015-09-03T16:58:40Z</time>
      </trkpt>
      <trkpt lat="43.68188" lon="7.06958">
        <ele>199.1</ele>
        <time>2015-09-03T16:58:43Z</time>
      </trkpt>
      <trkpt lat="43.68178" lon="7.06959">
        <ele>199.7</ele>
        <time>2015-09-03T16:58:46Z</time>
      </trkpt>
      <trkpt lat="43.6817" lon="7.0696">
        <ele>200.4</ele>
        <time>2015-09-03T16:58:50Z</time>
      </trkpt>
      <trkpt lat="43.6816" lon="7.0696">
        <ele>201</ele>
        <time>2015-09-03T16:58:54Z</time>
      </trkpt>
      <trkpt lat="43.68151" lon="7.06959">
        <ele>201</ele>
        <time>2015-09-03T16:58:57Z</time>
      </trkpt>
      <trkpt lat="43.68142" lon="7.06959">
        <ele>201</ele>
        <time>2015-09-03T16:59:00Z</time>
      </trkpt>
      <trkpt lat="43.68132" lon="7.06957">
        <ele>201</ele>
        <time>2015-09-03T16:59:03Z</time>
      </trkpt>
      <trkpt lat="43.68121" lon="7.06955">
        <ele>201</ele>
        <time>2015-09-03T16:59:06Z</time>
      </trkpt>
      <trkpt lat="43.68111" lon="7.06954">
        <ele>201</ele>
        <time>2015-09-03T16:59:09Z</time>
      </trkpt>
      <trkpt lat="43.68101" lon="7.06954">
        <ele>201</ele>
        <time>2015-09-03T16:59:12Z</time>
      </trkpt>
      <trkpt lat="43.68091" lon="7.06954">
        <ele>201</ele>
        <time>2015-09-03T16:59:15Z</time>
      </trkpt>
      <trkpt lat="43.68081" lon="7.06954">
        <ele>201</ele>
        <time>2015-09-03T16:59:18Z</time>
      </trkpt>
      <trkpt lat="43.6807" lon="7.06954">
        <ele>201</ele>
        <time>2015-09-03T16:59:21Z</time>
      </trkpt>
      <trkpt lat="43.6806" lon="7.06955">
        <ele>201</ele>
        <time>2015-09-03T16:59:24Z</time>
      </trkpt>
      <trkpt lat="43.68051" lon="7.06956">
        <ele>201</ele>
        <time>2015-09-03T16:59:27Z</time>
      </trkpt>
      <trkpt lat="43.6804" lon="7.06958">
        <ele>201</ele>
        <time>2015-09-03T16:59:30Z</time>
      </trkpt>
      <trkpt lat="43.6803" lon="7.06959">
        <ele>201</ele>
        <time>2015-09-03T16:59:33Z</time>
      </trkpt>
      <trkpt lat="43.6802" lon="7.06961">
        <ele>201</ele>
        <time>2015-09-03T16:59:36Z</time>
      </trkpt>
      <trkpt lat="43.68008" lon="7.06961">
        <ele>200.7</ele>
        <time>2015-09-03T16:59:39Z</time>
      </trkpt>
      <trkpt lat="43.67999" lon="7.0696">
        <ele>200.5</ele>
        <time>2015-09-03T16:59:42Z</time>
      </trkpt>
      <trkpt lat="43.6799" lon="7.06959">
        <ele>200.2</ele>
        <time>2015-09-03T16:59:45Z</time>
      </trkpt>
      <trkpt lat="43.67981" lon="7.06957">
        <ele>199.9</ele>
        <time>2015-09-03T16:59:48Z</time>
      </trkpt>
      <trkpt lat="43.67972" lon="7.06957">
        <ele>199.6</ele>
        <time>2015-09-03T16:59:51Z</time>
      </trkpt>
      <trkpt lat="43.67962" lon="7.06956">
        <ele>199.4</ele>
        <time>2015-09-03T16:59:54Z</time>
      </trkpt>
      <trkpt lat="43.67953" lon="7.06955">
        <ele>199.1</ele>
        <time>2015-09-03T16:59:57Z</time>
      </trkpt>
      <trkpt lat="43.67942" lon="7.06953">
        <ele>198.8</ele>
        <time>2015-09-03T17:00:00Z</time>
      </trkpt>
      <trkpt lat="43.67932" lon="7.06952">
        <ele>198.4</ele>
        <time>2015-09-03T17:00:03Z</time>
      </trkpt>
      <trkpt lat="43.67922" lon="7.0695">
        <ele>197.9</ele>
        <time>2015-09-03T17:00:06Z</time>
      </trkpt>
      <trkpt lat="43.67911" lon="7.0695">
        <ele>197.5</ele>
        <time>2015-09-03T17:00:09Z</time>
      </trkpt>
      <trkpt lat="43.67899" lon="7.0695">
        <ele>197.3</ele>
        <time>2015-09-03T17:00:12Z</time>
      </trkpt>
      <trkpt lat="43.67887" lon="7.06949">
        <ele>197.1</ele>
        <time>2015-09-03T17:00:15Z</time>
      </trkpt>
      <trkpt lat="43.67877" lon="7.06948">
        <ele>196.9</ele>
        <time>2015-09-03T17:00:18Z</time>
      </trkpt>
      <trkpt lat="43.67866" lon="7.06946">
        <ele>196.7</ele>
        <time>2015-09-03T17:00:21Z</time>
      </trkpt>
      <trkpt lat="43.67855" lon="7.06943">
        <ele>196.5</ele>
        <time>2015-09-03T17:00:24Z</time>
      </trkpt>
      <trkpt lat="43.67844" lon="7.06941">
        <ele>196.5</ele>
        <time>2015-09-03T17:00:27Z</time>
      </trkpt>
      <trkpt lat="43.67834" lon="7.0694">
        <ele>196.4</ele>
        <time>2015-09-03T17:00:30Z</time>
      </trkpt>
      <trkpt lat="43.67825" lon="7.06939">
        <ele>196.3</ele>
        <time>2015-09-03T17:00:33Z</time>
      </trkpt>
      <trkpt lat="43.67815" lon="7.06937">
        <ele>196.4</ele>
        <time>2015-09-03T17:00:36Z</time>
      </trkpt>
      <trkpt lat="43.67805" lon="7.06935">
        <ele>196.5</ele>
        <time>2015-09-03T17:00:39Z</time>
      </trkpt>
      <trkpt lat="43.67796" lon="7.06933">
        <ele>196.5</ele>
        <time>2015-09-03T17:00:42Z</time>
      </trkpt>
      <trkpt lat="43.67787" lon="7.0693">
        <ele>196.6</ele>
        <time>2015-09-03T17:00:45Z</time>
      </trkpt>
      <trkpt lat="43.67777" lon="7.06928">
        <ele>196.7</ele>
        <time>2015-09-03T17:00:48Z</time>
      </trkpt>
      <trkpt lat="43.67768" lon="7.06924">
        <ele>196.8</ele>
        <time>2015-09-03T17:00:51Z</time>
      </trkpt>
      <trkpt lat="43.67759" lon="7.06919">
        <ele>196.9</ele>
        <time>2015-09-03T17:00:54Z</time>
      </trkpt>
      <trkpt lat="43.6775" lon="7.06913">
        <ele>196.4</ele>
        <time>2015-09-03T17:00:57Z</time>
      </trkpt>
      <trkpt lat="43.67741" lon="7.06906">
        <ele>197.2</ele>
        <time>2015-09-03T17:01:00Z</time>
      </trkpt>
      <trkpt lat="43.67731" lon="7.06901">
        <ele>198</ele>
        <time>2015-09-03T17:01:03Z</time>
      </trkpt>
      <trkpt lat="43.67722" lon="7.06896">
        <ele>198.8</ele>
        <time>2015-09-03T17:01:06Z</time>
      </trkpt>
      <trkpt lat="43.67713" lon="7.0689">
        <ele>199.6</ele>
        <time>2015-09-03T17:01:09Z</time>
      </trkpt>
      <trkpt lat="43.67704" lon="7.06886">
        <ele>200.5</ele>
        <time>2015-09-03T17:01:12Z</time>
      </trkpt>
      <trkpt lat="43.67694" lon="7.06881">
        <ele>201.3</ele>
        <time>2015-09-03T17:01:15Z</time>
      </trkpt>
      <trkpt lat="43.67685" lon="7.06876">
        <ele>202.1</ele>
        <time>2015-09-03T17:01:18Z</time>
      </trkpt>
      <trkpt lat="43.67677" lon="7.06871">
        <ele>202.9</ele>
        <time>2015-09-03T17:01:21Z</time>
      </trkpt>
      <trkpt lat="43.67668" lon="7.06867">
        <ele>203.7</ele>
        <time>2015-09-03T17:01:24Z</time>
      </trkpt>
      <trkpt lat="43.6766" lon="7.06862">
        <ele>203.7</ele>
        <time>2015-09-03T17:01:27Z</time>
      </trkpt>
      <trkpt lat="43.67653" lon="7.06856">
        <ele>204.4</ele>
        <time>2015-09-03T17:01:30Z</time>
      </trkpt>
      <trkpt lat="43.67645" lon="7.06849">
        <ele>203.5</ele>
        <time>2015-09-03T17:01:33Z</time>
      </trkpt>
      <trkpt lat="43.67637" lon="7.06841">
        <ele>202.7</ele>
        <time>2015-09-03T17:01:36Z</time>
      </trkpt>
      <trkpt lat="43.6763" lon="7.06834">
        <ele>202.9</ele>
        <time>2015-09-03T17:01:39Z</time>
      </trkpt>
      <trkpt lat="43.67622" lon="7.06828">
        <ele>203.1</ele>
        <time>2015-09-03T17:01:42Z</time>
      </trkpt>
      <trkpt lat="43.67613" lon="7.0682">
        <ele>203.3</ele>
        <time>2015-09-03T17:01:45Z</time>
      </trkpt>
      <trkpt lat="43.67605" lon="7.06813">
        <ele>203.5</ele>
        <time>2015-09-03T17:01:48Z</time>
      </trkpt>
      <trkpt lat="43.67597" lon="7.06805">
        <ele>203.6</ele>
        <time>2015-09-03T17:01:51Z</time>
      </trkpt>
      <trkpt lat="43.67589" lon="7.06795">
        <ele>203.8</ele>
        <time>2015-09-03T17:01:54Z</time>
      </trkpt>
      <trkpt lat="43.6758" lon="7.06786">
        <ele>202.8</ele>
        <time>2015-09-03T17:01:57Z</time>
      </trkpt>
      <trkpt lat="43.67572" lon="7.06778">
        <ele>202.6</ele>
        <time>2015-09-03T17:02:00Z</time>
      </trkpt>
      <trkpt lat="43.67563" lon="7.06768">
        <ele>202.9</ele>
        <time>2015-09-03T17:02:03Z</time>
      </trkpt>
      <trkpt lat="43.67556" lon="7.0676">
        <ele>203.2</ele>
        <time>2015-09-03T17:02:06Z</time>
      </trkpt>
      <trkpt lat="43.67545" lon="7.06748">
        <ele>203.5</ele>
        <time>2015-09-03T17:02:10Z</time>
      </trkpt>
      <trkpt lat="43.67541" lon="7.06736">
        <ele>202.7</ele>
        <time>2015-09-03T17:02:13Z</time>
      </trkpt>
      <trkpt lat="43.67537" lon="7.06726">
        <ele>202</ele>
        <time>2015-09-03T17:02:15Z</time>
      </trkpt>
      <trkpt lat="43.67534" lon="7.06712">
        <ele>201.3</ele>
        <time>2015-09-03T17:02:18Z</time>
      </trkpt>
      <trkpt lat="43.67534" lon="7.06697">
        <ele>200.9</ele>
        <time>2015-09-03T17:02:21Z</time>
      </trkpt>
      <trkpt lat="43.67535" lon="7.06681">
        <ele>200.5</ele>
        <time>2015-09-03T17:02:24Z</time>
      </trkpt>
      <trkpt lat="43.67535" lon="7.06668">
        <ele>200.2</ele>
        <time>2015-09-03T17:02:27Z</time>
      </trkpt>
      <trkpt lat="43.67535" lon="7.06655">
        <ele>201</ele>
        <time>2015-09-03T17:02:30Z</time>
      </trkpt>
      <trkpt lat="43.67535" lon="7.06641">
        <ele>201.5</ele>
        <time>2015-09-03T17:02:33Z</time>
      </trkpt>
      <trkpt lat="43.67533" lon="7.06631">
        <ele>201.5</ele>
        <time>2015-09-03T17:02:41Z</time>
      </trkpt>
      <trkpt lat="43.67524" lon="7.06623">
        <ele>201.5</ele>
        <time>2015-09-03T17:03:12Z</time>
      </trkpt>
      <trkpt lat="43.67514" lon="7.06624">
        <ele>201.5</ele>
        <time>2015-09-03T17:03:14Z</time>
      </trkpt>
      <trkpt lat="43.67502" lon="7.06631">
        <ele>201.5</ele>
        <time>2015-09-03T17:03:16Z</time>
      </trkpt>
      <trkpt lat="43.67487" lon="7.06639">
        <ele>201.6</ele>
        <time>2015-09-03T17:03:18Z</time>
      </trkpt>
      <trkpt lat="43.6748" lon="7.06643">
        <ele>201.7</ele>
        <time>2015-09-03T17:03:19Z</time>
      </trkpt>
      <trkpt lat="43.67471" lon="7.06647">
        <ele>201.5</ele>
        <time>2015-09-03T17:03:20Z</time>
      </trkpt>
      <trkpt lat="43.67464" lon="7.06652">
        <ele>201.2</ele>
        <time>2015-09-03T17:03:21Z</time>
      </trkpt>
      <trkpt lat="43.67455" lon="7.06659">
        <ele>200.9</ele>
        <time>2015-09-03T17:03:22Z</time>
      </trkpt>
      <trkpt lat="43.67446" lon="7.06665">
        <ele>200.6</ele>
        <time>2015-09-03T17:03:23Z</time>
      </trkpt>
      <trkpt lat="43.67439" lon="7.06671">
        <ele>200.7</ele>
        <time>2015-09-03T17:03:24Z</time>
      </trkpt>
      <trkpt lat="43.67432" lon="7.06679">
        <ele>200.8</ele>
        <time>2015-09-03T17:03:25Z</time>
      </trkpt>
      <trkpt lat="43.67426" lon="7.06687">
        <ele>199.8</ele>
        <time>2015-09-03T17:03:26Z</time>
      </trkpt>
      <trkpt lat="43.67419" lon="7.06694">
        <ele>198.8</ele>
        <time>2015-09-03T17:03:27Z</time>
      </trkpt>
      <trkpt lat="43.67412" lon="7.06701">
        <ele>198</ele>
        <time>2015-09-03T17:03:28Z</time>
      </trkpt>
      <trkpt lat="43.67405" lon="7.06709">
        <ele>197.2</ele>
        <time>2015-09-03T17:03:29Z</time>
      </trkpt>
      <trkpt lat="43.67399" lon="7.06717">
        <ele>196.4</ele>
        <time>2015-09-03T17:03:30Z</time>
      </trkpt>
      <trkpt lat="43.67392" lon="7.06724">
        <ele>195.5</ele>
        <time>2015-09-03T17:03:31Z</time>
      </trkpt>
      <trkpt lat="43.67385" lon="7.0673">
        <ele>194.7</ele>
        <time>2015-09-03T17:03:32Z</time>
      </trkpt>
      <trkpt lat="43.67372" lon="7.06741">
        <ele>193.9</ele>
        <time>2015-09-03T17:03:34Z</time>
      </trkpt>
      <trkpt lat="43.6736" lon="7.06753">
        <ele>192.5</ele>
        <time>2015-09-03T17:03:36Z</time>
      </trkpt>
      <trkpt lat="43.67347" lon="7.06762">
        <ele>191</ele>
        <time>2015-09-03T17:03:38Z</time>
      </trkpt>
      <trkpt lat="43.67333" lon="7.06769">
        <ele>189.5</ele>
        <time>2015-09-03T17:03:40Z</time>
      </trkpt>
      <trkpt lat="43.67321" lon="7.06775">
        <ele>189.2</ele>
        <time>2015-09-03T17:03:42Z</time>
      </trkpt>
      <trkpt lat="43.67308" lon="7.06776">
        <ele>188.8</ele>
        <time>2015-09-03T17:03:44Z</time>
      </trkpt>
      <trkpt lat="43.67294" lon="7.06775">
        <ele>188.2</ele>
        <time>2015-09-03T17:03:46Z</time>
      </trkpt>
      <trkpt lat="43.6728" lon="7.06771">
        <ele>187.5</ele>
        <time>2015-09-03T17:03:48Z</time>
      </trkpt>
      <trkpt lat="43.67267" lon="7.06764">
        <ele>186.9</ele>
        <time>2015-09-03T17:03:50Z</time>
      </trkpt>
      <trkpt lat="43.67256" lon="7.06759">
        <ele>185.3</ele>
        <time>2015-09-03T17:03:52Z</time>
      </trkpt>
      <trkpt lat="43.67245" lon="7.06756">
        <ele>183.6</ele>
        <time>2015-09-03T17:03:54Z</time>
      </trkpt>
      <trkpt lat="43.67236" lon="7.06757">
        <ele>182</ele>
        <time>2015-09-03T17:03:56Z</time>
      </trkpt>
      <trkpt lat="43.67225" lon="7.06757">
        <ele>181</ele>
        <time>2015-09-03T17:03:59Z</time>
      </trkpt>
      <trkpt lat="43.67217" lon="7.06756">
        <ele>180</ele>
        <time>2015-09-03T17:04:01Z</time>
      </trkpt>
      <trkpt lat="43.67206" lon="7.06758">
        <ele>179</ele>
        <time>2015-09-03T17:04:03Z</time>
      </trkpt>
      <trkpt lat="43.67192" lon="7.06762">
        <ele>178</ele>
        <time>2015-09-03T17:04:05Z</time>
      </trkpt>
      <trkpt lat="43.67184" lon="7.06764">
        <ele>177</ele>
        <time>2015-09-03T17:04:06Z</time>
      </trkpt>
      <trkpt lat="43.67175" lon="7.06767">
        <ele>175.8</ele>
        <time>2015-09-03T17:04:07Z</time>
      </trkpt>
      <trkpt lat="43.67167" lon="7.0677">
        <ele>174.6</ele>
        <time>2015-09-03T17:04:08Z</time>
      </trkpt>
      <trkpt lat="43.67159" lon="7.06773">
        <ele>173.5</ele>
        <time>2015-09-03T17:04:09Z</time>
      </trkpt>
      <trkpt lat="43.67151" lon="7.06775">
        <ele>173.3</ele>
        <time>2015-09-03T17:04:10Z</time>
      </trkpt>
      <trkpt lat="43.67135" lon="7.06776">
        <ele>173.1</ele>
        <time>2015-09-03T17:04:12Z</time>
      </trkpt>
      <trkpt lat="43.67122" lon="7.06775">
        <ele>172.9</ele>
        <time>2015-09-03T17:04:14Z</time>
      </trkpt>
      <trkpt lat="43.67111" lon="7.06773">
        <ele>172.7</ele>
        <time>2015-09-03T17:04:16Z</time>
      </trkpt>
      <trkpt lat="43.67102" lon="7.06772">
        <ele>172.5</ele>
        <time>2015-09-03T17:04:18Z</time>
      </trkpt>
      <trkpt lat="43.67093" lon="7.06771">
        <ele>172.4</ele>
        <time>2015-09-03T17:04:21Z</time>
      </trkpt>
      <trkpt lat="43.67083" lon="7.0677">
        <ele>172.3</ele>
        <time>2015-09-03T17:04:25Z</time>
      </trkpt>
      <trkpt lat="43.67074" lon="7.06769">
        <ele>172.2</ele>
        <time>2015-09-03T17:04:28Z</time>
      </trkpt>
      <trkpt lat="43.67065" lon="7.06769">
        <ele>172.3</ele>
        <time>2015-09-03T17:04:32Z</time>
      </trkpt>
      <trkpt lat="43.67056" lon="7.0677">
        <ele>172.4</ele>
        <time>2015-09-03T17:04:35Z</time>
      </trkpt>
      <trkpt lat="43.67046" lon="7.0677">
        <ele>172.5</ele>
        <time>2015-09-03T17:04:39Z</time>
      </trkpt>
      <trkpt lat="43.67037" lon="7.06769">
        <ele>172.5</ele>
        <time>2015-09-03T17:04:42Z</time>
      </trkpt>
      <trkpt lat="43.67028" lon="7.06768">
        <ele>172.6</ele>
        <time>2015-09-03T17:04:46Z</time>
      </trkpt>
      <trkpt lat="43.67019" lon="7.06768">
        <ele>172.7</ele>
        <time>2015-09-03T17:04:49Z</time>
      </trkpt>
      <trkpt lat="43.6701" lon="7.06769">
        <ele>172.7</ele>
        <time>2015-09-03T17:04:52Z</time>
      </trkpt>
      <trkpt lat="43.67001" lon="7.0677">
        <ele>172.7</ele>
        <time>2015-09-03T17:04:55Z</time>
      </trkpt>
      <trkpt lat="43.66991" lon="7.06772">
        <ele>172.7</ele>
        <time>2015-09-03T17:04:59Z</time>
      </trkpt>
      <trkpt lat="43.66986" lon="7.06783">
        <ele>172.6</ele>
        <time>2015-09-03T17:05:04Z</time>
      </trkpt>
      <trkpt lat="43.66986" lon="7.06795">
        <ele>172.5</ele>
        <time>2015-09-03T17:05:08Z</time>
      </trkpt>
      <trkpt lat="43.66988" lon="7.06809">
        <ele>172.5</ele>
        <time>2015-09-03T17:05:49Z</time>
      </trkpt>
      <trkpt lat="43.66991" lon="7.06822">
        <ele>172.5</ele>
        <time>2015-09-03T17:05:52Z</time>
      </trkpt>
      <trkpt lat="43.66993" lon="7.06833">
        <ele>172.5</ele>
        <time>2015-09-03T17:05:54Z</time>
      </trkpt>
      <trkpt lat="43.66996" lon="7.06847">
        <ele>172.5</ele>
        <time>2015-09-03T17:05:57Z</time>
      </trkpt>
      <trkpt lat="43.67" lon="7.06862">
        <ele>172.5</ele>
        <time>2015-09-03T17:06:00Z</time>
      </trkpt>
      <trkpt lat="43.67003" lon="7.06876">
        <ele>172.5</ele>
        <time>2015-09-03T17:06:02Z</time>
      </trkpt>
      <trkpt lat="43.67007" lon="7.06892">
        <ele>172.5</ele>
        <time>2015-09-03T17:06:04Z</time>
      </trkpt>
      <trkpt lat="43.67011" lon="7.0691">
        <ele>172.3</ele>
        <time>2015-09-03T17:06:06Z</time>
      </trkpt>
      <trkpt lat="43.67015" lon="7.06925">
        <ele>172</ele>
        <time>2015-09-03T17:06:08Z</time>
      </trkpt>
      <trkpt lat="43.67018" lon="7.06939">
        <ele>171.7</ele>
        <time>2015-09-03T17:06:10Z</time>
      </trkpt>
      <trkpt lat="43.67022" lon="7.06953">
        <ele>171.5</ele>
        <time>2015-09-03T17:06:12Z</time>
      </trkpt>
      <trkpt lat="43.67025" lon="7.06966">
        <ele>171.2</ele>
        <time>2015-09-03T17:06:14Z</time>
      </trkpt>
      <trkpt lat="43.67129" lon="7.07041">
        <ele>170.8</ele>
        <time>2015-09-03T17:06:49Z</time>
      </trkpt>
      <trkpt lat="43.67128" lon="7.07007">
        <ele>170.5</ele>
        <time>2015-09-03T17:06:50Z</time>
      </trkpt>
      <trkpt lat="43.67139" lon="7.07005">
        <ele>170.1</ele>
        <time>2015-09-03T17:06:52Z</time>
      </trkpt>
      <trkpt lat="43.67149" lon="7.07001">
        <ele>169.7</ele>
        <time>2015-09-03T17:06:54Z</time>
      </trkpt>
      <trkpt lat="43.67159" lon="7.06996">
        <ele>169.4</ele>
        <time>2015-09-03T17:06:57Z</time>
      </trkpt>
      <trkpt lat="43.6717" lon="7.06989">
        <ele>169</ele>
        <time>2015-09-03T17:07:00Z</time>
      </trkpt>
      <trkpt lat="43.67177" lon="7.06984">
        <ele>169</ele>
        <time>2015-09-03T17:07:04Z</time>
      </trkpt>
      <trkpt lat="43.67169" lon="7.06991">
        <ele>169.1</ele>
        <time>2015-09-03T17:07:25Z</time>
      </trkpt>
      <trkpt lat="43.67161" lon="7.06995">
        <ele>169.2</ele>
        <time>2015-09-03T17:07:28Z</time>
      </trkpt>
      <trkpt lat="43.67152" lon="7.07001">
        <ele>169.3</ele>
        <time>2015-09-03T17:07:31Z</time>
      </trkpt>
      <trkpt lat="43.67143" lon="7.07006">
        <ele>169.4</ele>
        <time>2015-09-03T17:07:34Z</time>
      </trkpt>
      <trkpt lat="43.67134" lon="7.07009">
        <ele>169.5</ele>
        <time>2015-09-03T17:07:37Z</time>
      </trkpt>
      <trkpt lat="43.67125" lon="7.07011">
        <ele>169.5</ele>
        <time>2015-09-03T17:07:40Z</time>
      </trkpt>
      <trkpt lat="43.67116" lon="7.07014">
        <ele>169.6</ele>
        <time>2015-09-03T17:07:43Z</time>
      </trkpt>
      <trkpt lat="43.67105" lon="7.07018">
        <ele>169.7</ele>
        <time>2015-09-03T17:07:46Z</time>
      </trkpt>
      <trkpt lat="43.67096" lon="7.07021">
        <ele>169.8</ele>
        <time>2015-09-03T17:07:48Z</time>
      </trkpt>
      <trkpt lat="43.67088" lon="7.07025">
        <ele>170.2</ele>
        <time>2015-09-03T17:07:50Z</time>
      </trkpt>
      <trkpt lat="43.67078" lon="7.07029">
        <ele>170.5</ele>
        <time>2015-09-03T17:07:52Z</time>
      </trkpt>
      <trkpt lat="43.67068" lon="7.07031">
        <ele>169.9</ele>
        <time>2015-09-03T17:07:54Z</time>
      </trkpt>
      <trkpt lat="43.67059" lon="7.07027">
        <ele>169.3</ele>
        <time>2015-09-03T17:07:56Z</time>
      </trkpt>
      <trkpt lat="43.67048" lon="7.07024">
        <ele>168.6</ele>
        <time>2015-09-03T17:08:00Z</time>
      </trkpt>
      <trkpt lat="43.67039" lon="7.07026">
        <ele>168</ele>
        <time>2015-09-03T17:08:17Z</time>
      </trkpt>
      <trkpt lat="43.67041" lon="7.07044">
        <ele>167.4</ele>
        <time>2015-09-03T17:08:20Z</time>
      </trkpt>
      <trkpt lat="43.67046" lon="7.07062">
        <ele>166.5</ele>
        <time>2015-09-03T17:08:22Z</time>
      </trkpt>
      <trkpt lat="43.67049" lon="7.07073">
        <ele>165.7</ele>
        <time>2015-09-03T17:08:23Z</time>
      </trkpt>
      <trkpt lat="43.67052" lon="7.07088">
        <ele>164.9</ele>
        <time>2015-09-03T17:08:24Z</time>
      </trkpt>
      <trkpt lat="43.67055" lon="7.07103">
        <ele>164.1</ele>
        <time>2015-09-03T17:08:25Z</time>
      </trkpt>
      <trkpt lat="43.67058" lon="7.07118">
        <ele>163</ele>
        <time>2015-09-03T17:08:26Z</time>
      </trkpt>
      <trkpt lat="43.67061" lon="7.07133">
        <ele>161.9</ele>
        <time>2015-09-03T17:08:27Z</time>
      </trkpt>
      <trkpt lat="43.67063" lon="7.07148">
        <ele>163.1</ele>
        <time>2015-09-03T17:08:28Z</time>
      </trkpt>
      <trkpt lat="43.67064" lon="7.07161">
        <ele>164.3</ele>
        <time>2015-09-03T17:08:29Z</time>
      </trkpt>
      <trkpt lat="43.67065" lon="7.07176">
        <ele>165.5</ele>
        <time>2015-09-03T17:08:30Z</time>
      </trkpt>
      <trkpt lat="43.67065" lon="7.07187">
        <ele>166.6</ele>
        <time>2015-09-03T17:08:31Z</time>
      </trkpt>
      <trkpt lat="43.67064" lon="7.07201">
        <ele>167.8</ele>
        <time>2015-09-03T17:08:33Z</time>
      </trkpt>
      <trkpt lat="43.67067" lon="7.07214">
        <ele>169.2</ele>
        <time>2015-09-03T17:08:37Z</time>
      </trkpt>
      <trkpt lat="43.67076" lon="7.0722">
        <ele>170.5</ele>
        <time>2015-09-03T17:08:43Z</time>
      </trkpt>
      <trkpt lat="43.67084" lon="7.07221">
        <ele>171.9</ele>
        <time>2015-09-03T17:08:49Z</time>
      </trkpt>
      <trkpt lat="43.67092" lon="7.07227">
        <ele>172.1</ele>
        <time>2015-09-03T17:08:55Z</time>
      </trkpt>
      <trkpt lat="43.671" lon="7.07231">
        <ele>172.3</ele>
        <time>2015-09-03T17:08:59Z</time>
      </trkpt>
      <trkpt lat="43.67109" lon="7.07233">
        <ele>172.5</ele>
        <time>2015-09-03T17:09:01Z</time>
      </trkpt>
      <trkpt lat="43.67118" lon="7.07236">
        <ele>171.3</ele>
        <time>2015-09-03T17:09:03Z</time>
      </trkpt>
      <trkpt lat="43.67127" lon="7.07242">
        <ele>170.1</ele>
        <time>2015-09-03T17:09:05Z</time>
      </trkpt>
      <trkpt lat="43.67136" lon="7.07248">
        <ele>168.9</ele>
        <time>2015-09-03T17:09:07Z</time>
      </trkpt>
      <trkpt lat="43.67145" lon="7.07252">
        <ele>167.7</ele>
        <time>2015-09-03T17:09:09Z</time>
      </trkpt>
      <trkpt lat="43.67155" lon="7.07257">
        <ele>166.5</ele>
        <time>2015-09-03T17:09:11Z</time>
      </trkpt>
      <trkpt lat="43.67163" lon="7.07265">
        <ele>166.5</ele>
        <time>2015-09-03T17:09:13Z</time>
      </trkpt>
      <trkpt lat="43.67173" lon="7.07272">
        <ele>164.7</ele>
        <time>2015-09-03T17:09:15Z</time>
      </trkpt>
      <trkpt lat="43.6718" lon="7.0728">
        <ele>162.9</ele>
        <time>2015-09-03T17:09:17Z</time>
      </trkpt>
      <trkpt lat="43.67189" lon="7.07287">
        <ele>162.3</ele>
        <time>2015-09-03T17:09:19Z</time>
      </trkpt>
      <trkpt lat="43.67195" lon="7.07294">
        <ele>161.6</ele>
        <time>2015-09-03T17:09:21Z</time>
      </trkpt>
      <trkpt lat="43.67203" lon="7.07302">
        <ele>161</ele>
        <time>2015-09-03T17:09:24Z</time>
      </trkpt>
      <trkpt lat="43.67211" lon="7.07311">
        <ele>160.4</ele>
        <time>2015-09-03T17:09:26Z</time>
      </trkpt>
      <trkpt lat="43.6722" lon="7.0732">
        <ele>159.7</ele>
        <time>2015-09-03T17:09:29Z</time>
      </trkpt>
      <trkpt lat="43.67227" lon="7.07329">
        <ele>159.9</ele>
        <time>2015-09-03T17:09:31Z</time>
      </trkpt>
      <trkpt lat="43.67236" lon="7.07342">
        <ele>160.1</ele>
        <time>2015-09-03T17:09:33Z</time>
      </trkpt>
      <trkpt lat="43.67245" lon="7.07354">
        <ele>160.3</ele>
        <time>2015-09-03T17:09:35Z</time>
      </trkpt>
      <trkpt lat="43.67257" lon="7.07365">
        <ele>159.3</ele>
        <time>2015-09-03T17:09:37Z</time>
      </trkpt>
      <trkpt lat="43.67268" lon="7.07377">
        <ele>158.6</ele>
        <time>2015-09-03T17:09:39Z</time>
      </trkpt>
      <trkpt lat="43.67278" lon="7.07391">
        <ele>158.2</ele>
        <time>2015-09-03T17:09:41Z</time>
      </trkpt>
      <trkpt lat="43.67283" lon="7.074">
        <ele>157.7</ele>
        <time>2015-09-03T17:09:42Z</time>
      </trkpt>
      <trkpt lat="43.67292" lon="7.07419">
        <ele>157.3</ele>
        <time>2015-09-03T17:09:44Z</time>
      </trkpt>
      <trkpt lat="43.67297" lon="7.07439">
        <ele>156.8</ele>
        <time>2015-09-03T17:09:46Z</time>
      </trkpt>
      <trkpt lat="43.673" lon="7.07451">
        <ele>156.4</ele>
        <time>2015-09-03T17:09:47Z</time>
      </trkpt>
      <trkpt lat="43.67303" lon="7.07464">
        <ele>156.3</ele>
        <time>2015-09-03T17:09:48Z</time>
      </trkpt>
      <trkpt lat="43.67305" lon="7.07476">
        <ele>155.4</ele>
        <time>2015-09-03T17:09:49Z</time>
      </trkpt>
      <trkpt lat="43.67309" lon="7.07499">
        <ele>154.5</ele>
        <time>2015-09-03T17:09:51Z</time>
      </trkpt>
      <trkpt lat="43.67314" lon="7.07519">
        <ele>153.5</ele>
        <time>2015-09-03T17:09:53Z</time>
      </trkpt>
      <trkpt lat="43.67317" lon="7.0753">
        <ele>152.6</ele>
        <time>2015-09-03T17:09:54Z</time>
      </trkpt>
      <trkpt lat="43.67322" lon="7.07548">
        <ele>153.2</ele>
        <time>2015-09-03T17:09:56Z</time>
      </trkpt>
      <trkpt lat="43.67327" lon="7.07566">
        <ele>153.4</ele>
        <time>2015-09-03T17:09:58Z</time>
      </trkpt>
      <trkpt lat="43.67333" lon="7.07582">
        <ele>153.5</ele>
        <time>2015-09-03T17:10:00Z</time>
      </trkpt>
      <trkpt lat="43.67339" lon="7.076">
        <ele>153.7</ele>
        <time>2015-09-03T17:10:02Z</time>
      </trkpt>
      <trkpt lat="43.67345" lon="7.07618">
        <ele>153.9</ele>
        <time>2015-09-03T17:10:04Z</time>
      </trkpt>
      <trkpt lat="43.67351" lon="7.07637">
        <ele>154.1</ele>
        <time>2015-09-03T17:10:06Z</time>
      </trkpt>
      <trkpt lat="43.67356" lon="7.07649">
        <ele>153.9</ele>
        <time>2015-09-03T17:10:07Z</time>
      </trkpt>
      <trkpt lat="43.67361" lon="7.07661">
        <ele>153.6</ele>
        <time>2015-09-03T17:10:08Z</time>
      </trkpt>
      <trkpt lat="43.67364" lon="7.07671">
        <ele>153.4</ele>
        <time>2015-09-03T17:10:09Z</time>
      </trkpt>
      <trkpt lat="43.67369" lon="7.07684">
        <ele>153.1</ele>
        <time>2015-09-03T17:10:10Z</time>
      </trkpt>
      <trkpt lat="43.67373" lon="7.07694">
        <ele>152.8</ele>
        <time>2015-09-03T17:10:11Z</time>
      </trkpt>
      <trkpt lat="43.67378" lon="7.07711">
        <ele>152.5</ele>
        <time>2015-09-03T17:10:13Z</time>
      </trkpt>
      <trkpt lat="43.67384" lon="7.07722">
        <ele>152.5</ele>
        <time>2015-09-03T17:10:15Z</time>
      </trkpt>
      <trkpt lat="43.67392" lon="7.07726">
        <ele>152.4</ele>
        <time>2015-09-03T17:10:17Z</time>
      </trkpt>
      <trkpt lat="43.67401" lon="7.07727">
        <ele>152.3</ele>
        <time>2015-09-03T17:10:19Z</time>
      </trkpt>
      <trkpt lat="43.67411" lon="7.07729">
        <ele>152.2</ele>
        <time>2015-09-03T17:10:21Z</time>
      </trkpt>
      <trkpt lat="43.67421" lon="7.07731">
        <ele>152.1</ele>
        <time>2015-09-03T17:10:23Z</time>
      </trkpt>
      <trkpt lat="43.67433" lon="7.07734">
        <ele>152</ele>
        <time>2015-09-03T17:10:25Z</time>
      </trkpt>
      <trkpt lat="43.67446" lon="7.07734">
        <ele>152</ele>
        <time>2015-09-03T17:10:27Z</time>
      </trkpt>
      <trkpt lat="43.67457" lon="7.07735">
        <ele>152</ele>
        <time>2015-09-03T17:10:29Z</time>
      </trkpt>
      <trkpt lat="43.6747" lon="7.07735">
        <ele>152</ele>
        <time>2015-09-03T17:10:31Z</time>
      </trkpt>
      <trkpt lat="43.67479" lon="7.07737">
        <ele>152</ele>
        <time>2015-09-03T17:10:33Z</time>
      </trkpt>
      <trkpt lat="43.67489" lon="7.07737">
        <ele>152</ele>
        <time>2015-09-03T17:10:36Z</time>
      </trkpt>
      <trkpt lat="43.67501" lon="7.07738">
        <ele>152</ele>
        <time>2015-09-03T17:10:39Z</time>
      </trkpt>
      <trkpt lat="43.67511" lon="7.07741">
        <ele>151.5</ele>
        <time>2015-09-03T17:10:43Z</time>
      </trkpt>
      <trkpt lat="43.6752" lon="7.07743">
        <ele>150.9</ele>
        <time>2015-09-03T17:10:47Z</time>
      </trkpt>
      <trkpt lat="43.67528" lon="7.0775">
        <ele>150.4</ele>
        <time>2015-09-03T17:10:51Z</time>
      </trkpt>
      <trkpt lat="43.67536" lon="7.07757">
        <ele>149.8</ele>
        <time>2015-09-03T17:10:55Z</time>
      </trkpt>
      <trkpt lat="43.67544" lon="7.07761">
        <ele>149.3</ele>
        <time>2015-09-03T17:11:00Z</time>
      </trkpt>
      <trkpt lat="43.67553" lon="7.07764">
        <ele>148.7</ele>
        <time>2015-09-03T17:11:06Z</time>
      </trkpt>
      <trkpt lat="43.67562" lon="7.07769">
        <ele>148.2</ele>
        <time>2015-09-03T17:11:12Z</time>
      </trkpt>
      <trkpt lat="43.67571" lon="7.07776">
        <ele>147.6</ele>
        <time>2015-09-03T17:11:17Z</time>
      </trkpt>
      <trkpt lat="43.67579" lon="7.07781">
        <ele>147.1</ele>
        <time>2015-09-03T17:11:21Z</time>
      </trkpt>
      <trkpt lat="43.67588" lon="7.07784">
        <ele>146.5</ele>
        <time>2015-09-03T17:11:25Z</time>
      </trkpt>
      <trkpt lat="43.67598" lon="7.07782">
        <ele>146.6</ele>
        <time>2015-09-03T17:11:29Z</time>
      </trkpt>
      <trkpt lat="43.67608" lon="7.07784">
        <ele>147.3</ele>
        <time>2015-09-03T17:11:33Z</time>
      </trkpt>
      <trkpt lat="43.6762" lon="7.07789">
        <ele>147.9</ele>
        <time>2015-09-03T17:11:36Z</time>
      </trkpt>
      <trkpt lat="43.67628" lon="7.07793">
        <ele>148.5</ele>
        <time>2015-09-03T17:11:38Z</time>
      </trkpt>
      <trkpt lat="43.67638" lon="7.07801">
        <ele>149.2</ele>
        <time>2015-09-03T17:11:41Z</time>
      </trkpt>
      <trkpt lat="43.67647" lon="7.07803">
        <ele>149.8</ele>
        <time>2015-09-03T17:11:43Z</time>
      </trkpt>
      <trkpt lat="43.67657" lon="7.07806">
        <ele>150.5</ele>
        <time>2015-09-03T17:11:46Z</time>
      </trkpt>
      <trkpt lat="43.67668" lon="7.07811">
        <ele>151.1</ele>
        <time>2015-09-03T17:11:49Z</time>
      </trkpt>
      <trkpt lat="43.67678" lon="7.0782">
        <ele>151.7</ele>
        <time>2015-09-03T17:11:52Z</time>
      </trkpt>
      <trkpt lat="43.67684" lon="7.07829">
        <ele>151.3</ele>
        <time>2015-09-03T17:11:54Z</time>
      </trkpt>
      <trkpt lat="43.67691" lon="7.07843">
        <ele>150.8</ele>
        <time>2015-09-03T17:11:57Z</time>
      </trkpt>
      <trkpt lat="43.67695" lon="7.07853">
        <ele>149.7</ele>
        <time>2015-09-03T17:11:59Z</time>
      </trkpt>
      <trkpt lat="43.67702" lon="7.07868">
        <ele>148.6</ele>
        <time>2015-09-03T17:12:02Z</time>
      </trkpt>
      <trkpt lat="43.67708" lon="7.07881">
        <ele>147.5</ele>
        <time>2015-09-03T17:12:04Z</time>
      </trkpt>
      <trkpt lat="43.67714" lon="7.07894">
        <ele>146.5</ele>
        <time>2015-09-03T17:12:06Z</time>
      </trkpt>
      <trkpt lat="43.67717" lon="7.07906">
        <ele>144.8</ele>
        <time>2015-09-03T17:12:08Z</time>
      </trkpt>
      <trkpt lat="43.67719" lon="7.07918">
        <ele>143.2</ele>
        <time>2015-09-03T17:12:10Z</time>
      </trkpt>
      <trkpt lat="43.67717" lon="7.0793">
        <ele>141.5</ele>
        <time>2015-09-03T17:12:20Z</time>
      </trkpt>
      <trkpt lat="43.67718" lon="7.07946">
        <ele>139.9</ele>
        <time>2015-09-03T17:12:41Z</time>
      </trkpt>
      <trkpt lat="43.67718" lon="7.0796">
        <ele>138.3</ele>
        <time>2015-09-03T17:12:43Z</time>
      </trkpt>
      <trkpt lat="43.67718" lon="7.07973">
        <ele>137.7</ele>
        <time>2015-09-03T17:12:45Z</time>
      </trkpt>
      <trkpt lat="43.6772" lon="7.07985">
        <ele>137.2</ele>
        <time>2015-09-03T17:12:47Z</time>
      </trkpt>
      <trkpt lat="43.67722" lon="7.07997">
        <ele>136.8</ele>
        <time>2015-09-03T17:12:49Z</time>
      </trkpt>
      <trkpt lat="43.67726" lon="7.08008">
        <ele>136.5</ele>
        <time>2015-09-03T17:12:51Z</time>
      </trkpt>
      <trkpt lat="43.67732" lon="7.08022">
        <ele>136.1</ele>
        <time>2015-09-03T17:12:54Z</time>
      </trkpt>
      <trkpt lat="43.67735" lon="7.08033">
        <ele>135.7</ele>
        <time>2015-09-03T17:12:57Z</time>
      </trkpt>
      <trkpt lat="43.6774" lon="7.08043">
        <ele>135.9</ele>
        <time>2015-09-03T17:13:00Z</time>
      </trkpt>
      <trkpt lat="43.67747" lon="7.08056">
        <ele>136.1</ele>
        <time>2015-09-03T17:13:04Z</time>
      </trkpt>
      <trkpt lat="43.67753" lon="7.08066">
        <ele>136.3</ele>
        <time>2015-09-03T17:13:07Z</time>
      </trkpt>
      <trkpt lat="43.6776" lon="7.08074">
        <ele>136.5</ele>
        <time>2015-09-03T17:13:10Z</time>
      </trkpt>
      <trkpt lat="43.67766" lon="7.08086">
        <ele>137.5</ele>
        <time>2015-09-03T17:13:13Z</time>
      </trkpt>
      <trkpt lat="43.67771" lon="7.08095">
        <ele>134.7</ele>
        <time>2015-09-03T17:13:16Z</time>
      </trkpt>
      <trkpt lat="43.67777" lon="7.08104">
        <ele>131.9</ele>
        <time>2015-09-03T17:13:18Z</time>
      </trkpt>
      <trkpt lat="43.67784" lon="7.08116">
        <ele>128.9</ele>
        <time>2015-09-03T17:13:21Z</time>
      </trkpt>
      <trkpt lat="43.67789" lon="7.08127">
        <ele>125.9</ele>
        <time>2015-09-03T17:13:24Z</time>
      </trkpt>
      <trkpt lat="43.67797" lon="7.08137">
        <ele>122.9</ele>
        <time>2015-09-03T17:13:27Z</time>
      </trkpt>
      <trkpt lat="43.67801" lon="7.08147">
        <ele>119.9</ele>
        <time>2015-09-03T17:13:29Z</time>
      </trkpt>
      <trkpt lat="43.67805" lon="7.08158">
        <ele>116.9</ele>
        <time>2015-09-03T17:13:32Z</time>
      </trkpt>
      <trkpt lat="43.67809" lon="7.08169">
        <ele>114.2</ele>
        <time>2015-09-03T17:13:36Z</time>
      </trkpt>
      <trkpt lat="43.67816" lon="7.08177">
        <ele>111.5</ele>
        <time>2015-09-03T17:13:43Z</time>
      </trkpt>
      <trkpt lat="43.67824" lon="7.08183">
        <ele>108.7</ele>
        <time>2015-09-03T17:13:48Z</time>
      </trkpt>
      <trkpt lat="43.6783" lon="7.08194">
        <ele>105.1</ele>
        <time>2015-09-03T17:13:53Z</time>
      </trkpt>
      <trkpt lat="43.67835" lon="7.08204">
        <ele>105.4</ele>
        <time>2015-09-03T17:13:56Z</time>
      </trkpt>
      <trkpt lat="43.67842" lon="7.08214">
        <ele>105.6</ele>
        <time>2015-09-03T17:13:59Z</time>
      </trkpt>
      <trkpt lat="43.67847" lon="7.08226">
        <ele>105.9</ele>
        <time>2015-09-03T17:14:03Z</time>
      </trkpt>
      <trkpt lat="43.67852" lon="7.08239">
        <ele>106.3</ele>
        <time>2015-09-03T17:14:06Z</time>
      </trkpt>
      <trkpt lat="43.67857" lon="7.08253">
        <ele>106.6</ele>
        <time>2015-09-03T17:14:09Z</time>
      </trkpt>
      <trkpt lat="43.6786" lon="7.08264">
        <ele>107</ele>
        <time>2015-09-03T17:14:11Z</time>
      </trkpt>
      <trkpt lat="43.67864" lon="7.08275">
        <ele>104.4</ele>
        <time>2015-09-03T17:14:14Z</time>
      </trkpt>
      <trkpt lat="43.67866" lon="7.08286">
        <ele>101.5</ele>
        <time>2015-09-03T17:14:17Z</time>
      </trkpt>
      <trkpt lat="43.6787" lon="7.083">
        <ele>98.5</ele>
        <time>2015-09-03T17:14:22Z</time>
      </trkpt>
      <trkpt lat="43.67872" lon="7.08312">
        <ele>95.6</ele>
        <time>2015-09-03T17:14:25Z</time>
      </trkpt>
      <trkpt lat="43.67874" lon="7.08322">
        <ele>93.8</ele>
        <time>2015-09-03T17:14:48Z</time>
      </trkpt>
      <trkpt lat="43.6788" lon="7.08334">
        <ele>92</ele>
        <time>2015-09-03T17:18:00Z</time>
      </trkpt>
      <trkpt lat="43.67882" lon="7.08348">
        <ele>90.2</ele>
        <time>2015-09-03T17:18:03Z</time>
      </trkpt>
      <trkpt lat="43.67885" lon="7.08359">
        <ele>88.4</ele>
        <time>2015-09-03T17:18:07Z</time>
      </trkpt>
      <trkpt lat="43.67891" lon="7.08375">
        <ele>86.5</ele>
        <time>2015-09-03T17:18:11Z</time>
      </trkpt>
      <trkpt lat="43.67896" lon="7.08386">
        <ele>84.5</ele>
        <time>2015-09-03T17:18:13Z</time>
      </trkpt>
      <trkpt lat="43.67899" lon="7.084">
        <ele>82.6</ele>
        <time>2015-09-03T17:18:16Z</time>
      </trkpt>
      <trkpt lat="43.679" lon="7.08413">
        <ele>83.7</ele>
        <time>2015-09-03T17:18:18Z</time>
      </trkpt>
      <trkpt lat="43.679" lon="7.08424">
        <ele>84.8</ele>
        <time>2015-09-03T17:18:21Z</time>
      </trkpt>
      <trkpt lat="43.67906" lon="7.08434">
        <ele>85.9</ele>
        <time>2015-09-03T17:18:26Z</time>
      </trkpt>
      <trkpt lat="43.67911" lon="7.08445">
        <ele>87</ele>
        <time>2015-09-03T17:18:34Z</time>
      </trkpt>
      <trkpt lat="43.67919" lon="7.08446">
        <ele>87</ele>
        <time>2015-09-03T17:18:37Z</time>
      </trkpt>
      <trkpt lat="43.67928" lon="7.08445">
        <ele>86.1</ele>
        <time>2015-09-03T17:18:40Z</time>
      </trkpt>
      <trkpt lat="43.67937" lon="7.08447">
        <ele>85.2</ele>
        <time>2015-09-03T17:18:44Z</time>
      </trkpt>
      <trkpt lat="43.67942" lon="7.08456">
        <ele>84.3</ele>
        <time>2015-09-03T17:25:52Z</time>
      </trkpt>
      <trkpt lat="43.67952" lon="7.08456">
        <ele>83.4</ele>
        <time>2015-09-03T17:25:57Z</time>
      </trkpt>
      <trkpt lat="43.6796" lon="7.0846">
        <ele>82.5</ele>
        <time>2015-09-03T17:26:02Z</time>
      </trkpt>
      <trkpt lat="43.67963" lon="7.08471">
        <ele>81.5</ele>
        <time>2015-09-03T17:26:17Z</time>
      </trkpt>
      <trkpt lat="43.67968" lon="7.08481">
        <ele>81.5</ele>
        <time>2015-09-03T17:26:23Z</time>
      </trkpt>
      <trkpt lat="43.67976" lon="7.08485">
        <ele>81.4</ele>
        <time>2015-09-03T17:26:32Z</time>
      </trkpt>
      <trkpt lat="43.67979" lon="7.08496">
        <ele>81.3</ele>
        <time>2015-09-03T17:26:46Z</time>
      </trkpt>
      <trkpt lat="43.67971" lon="7.085">
        <ele>81.2</ele>
        <time>2015-09-03T17:27:00Z</time>
      </trkpt>
      <trkpt lat="43.67964" lon="7.08506">
        <ele>81.1</ele>
        <time>2015-09-03T17:27:03Z</time>
      </trkpt>
      <trkpt lat="43.67959" lon="7.08516">
        <ele>81.9</ele>
        <time>2015-09-03T17:27:06Z</time>
      </trkpt>
      <trkpt lat="43.67952" lon="7.08524">
        <ele>82.7</ele>
        <time>2015-09-03T17:27:10Z</time>
      </trkpt>
      <trkpt lat="43.67946" lon="7.08532">
        <ele>83.5</ele>
        <time>2015-09-03T17:27:16Z</time>
      </trkpt>
      <trkpt lat="43.67937" lon="7.08535">
        <ele>84.4</ele>
        <time>2015-09-03T17:27:19Z</time>
      </trkpt>
      <trkpt lat="43.67929" lon="7.0853">
        <ele>85.2</ele>
        <time>2015-09-03T17:27:22Z</time>
      </trkpt>
      <trkpt lat="43.6792" lon="7.08526">
        <ele>86.2</ele>
        <time>2015-09-03T17:27:26Z</time>
      </trkpt>
      <trkpt lat="43.67911" lon="7.08524">
        <ele>86.4</ele>
        <time>2015-09-03T17:27:29Z</time>
      </trkpt>
      <trkpt lat="43.67903" lon="7.0852">
        <ele>86.5</ele>
        <time>2015-09-03T17:27:32Z</time>
      </trkpt>
      <trkpt lat="43.67893" lon="7.08516">
        <ele>86.7</ele>
        <time>2015-09-03T17:27:35Z</time>
      </trkpt>
      <trkpt lat="43.67882" lon="7.08515">
        <ele>86.9</ele>
        <time>2015-09-03T17:27:38Z</time>
      </trkpt>
      <trkpt lat="43.67873" lon="7.08522">
        <ele>87.1</ele>
        <time>2015-09-03T17:27:43Z</time>
      </trkpt>
      <trkpt lat="43.67865" lon="7.08522">
        <ele>87.3</ele>
        <time>2015-09-03T17:27:45Z</time>
      </trkpt>
      <trkpt lat="43.67852" lon="7.0852">
        <ele>87.5</ele>
        <time>2015-09-03T17:27:48Z</time>
      </trkpt>
      <trkpt lat="43.67843" lon="7.08519">
        <ele>88.8</ele>
        <time>2015-09-03T17:27:50Z</time>
      </trkpt>
      <trkpt lat="43.67834" lon="7.08517">
        <ele>90.2</ele>
        <time>2015-09-03T17:27:53Z</time>
      </trkpt>
      <trkpt lat="43.67825" lon="7.08514">
        <ele>91.5</ele>
        <time>2015-09-03T17:27:55Z</time>
      </trkpt>
      <trkpt lat="43.67816" lon="7.08516">
        <ele>92.7</ele>
        <time>2015-09-03T17:27:58Z</time>
      </trkpt>
      <trkpt lat="43.67808" lon="7.0852">
        <ele>93.9</ele>
        <time>2015-09-03T17:28:01Z</time>
      </trkpt>
      <trkpt lat="43.67795" lon="7.08518">
        <ele>93.9</ele>
        <time>2015-09-03T17:28:06Z</time>
      </trkpt>
      <trkpt lat="43.67783" lon="7.08523">
        <ele>93.9</ele>
        <time>2015-09-03T17:28:11Z</time>
      </trkpt>
      <trkpt lat="43.67775" lon="7.08525">
        <ele>93.9</ele>
        <time>2015-09-03T17:28:14Z</time>
      </trkpt>
      <trkpt lat="43.67765" lon="7.08526">
        <ele>93.9</ele>
        <time>2015-09-03T17:28:17Z</time>
      </trkpt>
      <trkpt lat="43.67757" lon="7.08535">
        <ele>93.9</ele>
        <time>2015-09-03T17:28:22Z</time>
      </trkpt>
      <trkpt lat="43.67746" lon="7.08543">
        <ele>93.9</ele>
        <time>2015-09-03T17:28:26Z</time>
      </trkpt>
      <trkpt lat="43.67738" lon="7.0855">
        <ele>93.5</ele>
        <time>2015-09-03T17:28:30Z</time>
      </trkpt>
      <trkpt lat="43.67731" lon="7.08557">
        <ele>93.2</ele>
        <time>2015-09-03T17:28:33Z</time>
      </trkpt>
      <trkpt lat="43.67725" lon="7.08565">
        <ele>92.8</ele>
        <time>2015-09-03T17:28:43Z</time>
      </trkpt>
      <trkpt lat="43.67717" lon="7.08569">
        <ele>92.5</ele>
        <time>2015-09-03T17:28:57Z</time>
      </trkpt>
      <trkpt lat="43.67709" lon="7.08577">
        <ele>92.1</ele>
        <time>2015-09-03T17:29:11Z</time>
      </trkpt>
      <trkpt lat="43.67699" lon="7.08582">
        <ele>92.9</ele>
        <time>2015-09-03T17:29:15Z</time>
      </trkpt>
      <trkpt lat="43.6769" lon="7.08581">
        <ele>93.7</ele>
        <time>2015-09-03T17:29:18Z</time>
      </trkpt>
      <trkpt lat="43.67682" lon="7.08586">
        <ele>94.5</ele>
        <time>2015-09-03T17:29:22Z</time>
      </trkpt>
      <trkpt lat="43.67673" lon="7.08589">
        <ele>95.4</ele>
        <time>2015-09-03T17:29:26Z</time>
      </trkpt>
      <trkpt lat="43.67664" lon="7.08589">
        <ele>96.2</ele>
        <time>2015-09-03T17:29:30Z</time>
      </trkpt>
      <trkpt lat="43.67656" lon="7.08589">
        <ele>97</ele>
        <time>2015-09-03T17:29:41Z</time>
      </trkpt>
      <trkpt lat="43.67652" lon="7.08599">
        <ele>98</ele>
        <time>2015-09-03T17:30:50Z</time>
      </trkpt>
      <trkpt lat="43.67652" lon="7.08612">
        <ele>99</ele>
        <time>2015-09-03T17:30:54Z</time>
      </trkpt>
      <trkpt lat="43.67645" lon="7.08617">
        <ele>100</ele>
        <time>2015-09-03T17:31:02Z</time>
      </trkpt>
      <trkpt lat="43.67637" lon="7.0862">
        <ele>101</ele>
        <time>2015-09-03T17:31:07Z</time>
      </trkpt>
      <trkpt lat="43.67628" lon="7.08621">
        <ele>102</ele>
        <time>2015-09-03T17:31:34Z</time>
      </trkpt>
      <trkpt lat="43.67619" lon="7.08616">
        <ele>103</ele>
        <time>2015-09-03T17:31:40Z</time>
      </trkpt>
      <trkpt lat="43.67612" lon="7.08608">
        <ele>104</ele>
        <time>2015-09-03T17:31:45Z</time>
      </trkpt>
      <trkpt lat="43.67603" lon="7.08607">
        <ele>105</ele>
        <time>2015-09-03T17:32:07Z</time>
      </trkpt>
      <trkpt lat="43.67595" lon="7.08606">
        <ele>106</ele>
        <time>2015-09-03T17:32:29Z</time>
      </trkpt>
      <trkpt lat="43.67585" lon="7.08603">
        <ele>107.5</ele>
        <time>2015-09-03T17:32:49Z</time>
      </trkpt>
      <trkpt lat="43.67577" lon="7.08606">
        <ele>109.1</ele>
        <time>2015-09-03T17:33:00Z</time>
      </trkpt>
      <trkpt lat="43.67566" lon="7.08609">
        <ele>109.6</ele>
        <time>2015-09-03T17:33:12Z</time>
      </trkpt>
      <trkpt lat="43.67558" lon="7.0861">
        <ele>109.6</ele>
        <time>2015-09-03T17:33:19Z</time>
      </trkpt>
      <trkpt lat="43.6755" lon="7.08613">
        <ele>109.6</ele>
        <time>2015-09-03T17:33:25Z</time>
      </trkpt>
      <trkpt lat="43.67541" lon="7.08616">
        <ele>109.6</ele>
        <time>2015-09-03T17:33:39Z</time>
      </trkpt>
      <trkpt lat="43.67537" lon="7.08627">
        <ele>109.6</ele>
        <time>2015-09-03T17:33:56Z</time>
      </trkpt>
      <trkpt lat="43.67531" lon="7.08636">
        <ele>109.6</ele>
        <time>2015-09-03T17:34:06Z</time>
      </trkpt>
      <trkpt lat="43.6753" lon="7.08647">
        <ele>109.6</ele>
        <time>2015-09-03T17:34:19Z</time>
      </trkpt>
      <trkpt lat="43.67537" lon="7.08653">
        <ele>109.6</ele>
        <time>2015-09-03T17:34:32Z</time>
      </trkpt>
      <trkpt lat="43.67546" lon="7.0866">
        <ele>109.6</ele>
        <time>2015-09-03T17:35:22Z</time>
      </trkpt>
      <trkpt lat="43.67553" lon="7.08666">
        <ele>109.4</ele>
        <time>2015-09-03T17:35:27Z</time>
      </trkpt>
      <trkpt lat="43.67556" lon="7.08678">
        <ele>109.1</ele>
        <time>2015-09-03T17:35:32Z</time>
      </trkpt>
      <trkpt lat="43.67558" lon="7.08691">
        <ele>108.9</ele>
        <time>2015-09-03T17:35:35Z</time>
      </trkpt>
      <trkpt lat="43.67558" lon="7.08702">
        <ele>109.3</ele>
        <time>2015-09-03T17:35:38Z</time>
      </trkpt>
      <trkpt lat="43.67557" lon="7.08716">
        <ele>109.6</ele>
        <time>2015-09-03T17:35:43Z</time>
      </trkpt>
      <trkpt lat="43.67555" lon="7.08726">
        <ele>110</ele>
        <time>2015-09-03T17:35:48Z</time>
      </trkpt>
      <trkpt lat="43.67547" lon="7.08723">
        <ele>110.4</ele>
        <time>2015-09-03T17:35:52Z</time>
      </trkpt>
      <trkpt lat="43.6754" lon="7.08729">
        <ele>110.7</ele>
        <time>2015-09-03T17:35:56Z</time>
      </trkpt>
      <trkpt lat="43.67537" lon="7.08741">
        <ele>111.1</ele>
        <time>2015-09-03T17:36:02Z</time>
      </trkpt>
      <trkpt lat="43.67537" lon="7.08753">
        <ele>111.5</ele>
        <time>2015-09-03T17:36:13Z</time>
      </trkpt>
      <trkpt lat="43.67535" lon="7.08765">
        <ele>111.8</ele>
        <time>2015-09-03T17:36:25Z</time>
      </trkpt>
      <trkpt lat="43.67529" lon="7.08773">
        <ele>111.9</ele>
        <time>2015-09-03T17:36:30Z</time>
      </trkpt>
      <trkpt lat="43.67521" lon="7.0878">
        <ele>112.7</ele>
        <time>2015-09-03T17:37:06Z</time>
      </trkpt>
      <trkpt lat="43.67513" lon="7.0878">
        <ele>113.5</ele>
        <time>2015-09-03T17:37:10Z</time>
      </trkpt>
      <trkpt lat="43.67504" lon="7.08781">
        <ele>114.2</ele>
        <time>2015-09-03T17:37:16Z</time>
      </trkpt>
      <trkpt lat="43.67496" lon="7.08787">
        <ele>114.9</ele>
        <time>2015-09-03T17:37:20Z</time>
      </trkpt>
      <trkpt lat="43.67491" lon="7.08798">
        <ele>115.8</ele>
        <time>2015-09-03T17:37:28Z</time>
      </trkpt>
      <trkpt lat="43.67485" lon="7.08805">
        <ele>116.7</ele>
        <time>2015-09-03T17:37:35Z</time>
      </trkpt>
      <trkpt lat="43.67477" lon="7.0881">
        <ele>117.6</ele>
        <time>2015-09-03T17:37:41Z</time>
      </trkpt>
      <trkpt lat="43.6747" lon="7.0882">
        <ele>118.5</ele>
        <time>2015-09-03T17:37:45Z</time>
      </trkpt>
      <trkpt lat="43.67465" lon="7.08831">
        <ele>119.5</ele>
        <time>2015-09-03T17:37:50Z</time>
      </trkpt>
      <trkpt lat="43.6746" lon="7.08842">
        <ele>120.4</ele>
        <time>2015-09-03T17:37:55Z</time>
      </trkpt>
      <trkpt lat="43.67457" lon="7.08852">
        <ele>121.3</ele>
        <time>2015-09-03T17:38:11Z</time>
      </trkpt>
      <trkpt lat="43.67454" lon="7.08866">
        <ele>121.5</ele>
        <time>2015-09-03T17:38:28Z</time>
      </trkpt>
      <trkpt lat="43.67452" lon="7.0888">
        <ele>121.6</ele>
        <time>2015-09-03T17:38:32Z</time>
      </trkpt>
      <trkpt lat="43.67449" lon="7.08891">
        <ele>121.8</ele>
        <time>2015-09-03T17:38:36Z</time>
      </trkpt>
      <trkpt lat="43.67447" lon="7.08904">
        <ele>122</ele>
        <time>2015-09-03T17:38:40Z</time>
      </trkpt>
      <trkpt lat="43.67448" lon="7.08917">
        <ele>122</ele>
        <time>2015-09-03T17:38:44Z</time>
      </trkpt>
      <trkpt lat="43.67448" lon="7.08928">
        <ele>122</ele>
        <time>2015-09-03T17:38:47Z</time>
      </trkpt>
      <trkpt lat="43.67447" lon="7.08941">
        <ele>122</ele>
        <time>2015-09-03T17:38:50Z</time>
      </trkpt>
      <trkpt lat="43.67447" lon="7.08952">
        <ele>122</ele>
        <time>2015-09-03T17:38:53Z</time>
      </trkpt>
      <trkpt lat="43.67442" lon="7.08963">
        <ele>122</ele>
        <time>2015-09-03T17:40:19Z</time>
      </trkpt>
      <trkpt lat="43.67439" lon="7.08974">
        <ele>122</ele>
        <time>2015-09-03T17:40:25Z</time>
      </trkpt>
      <trkpt lat="43.67437" lon="7.08986">
        <ele>122</ele>
        <time>2015-09-03T17:40:35Z</time>
      </trkpt>
      <trkpt lat="43.6743" lon="7.08992">
        <ele>122</ele>
        <time>2015-09-03T17:41:38Z</time>
      </trkpt>
      <trkpt lat="43.67422" lon="7.0899">
        <ele>123</ele>
        <time>2015-09-03T17:41:42Z</time>
      </trkpt>
      <trkpt lat="43.67413" lon="7.08986">
        <ele>124</ele>
        <time>2015-09-03T17:41:46Z</time>
      </trkpt>
      <trkpt lat="43.67404" lon="7.08981">
        <ele>125</ele>
        <time>2015-09-03T17:41:49Z</time>
      </trkpt>
      <trkpt lat="43.67396" lon="7.08975">
        <ele>126</ele>
        <time>2015-09-03T17:41:55Z</time>
      </trkpt>
      <trkpt lat="43.67388" lon="7.0897">
        <ele>127</ele>
        <time>2015-09-03T17:42:00Z</time>
      </trkpt>
      <trkpt lat="43.6738" lon="7.08964">
        <ele>128</ele>
        <time>2015-09-03T17:42:04Z</time>
      </trkpt>
      <trkpt lat="43.67371" lon="7.08959">
        <ele>129</ele>
        <time>2015-09-03T17:42:10Z</time>
      </trkpt>
      <trkpt lat="43.67363" lon="7.08954">
        <ele>130</ele>
        <time>2015-09-03T17:42:15Z</time>
      </trkpt>
      <trkpt lat="43.67357" lon="7.08946">
        <ele>131</ele>
        <time>2015-09-03T17:42:20Z</time>
      </trkpt>
      <trkpt lat="43.67352" lon="7.08937">
        <ele>132</ele>
        <time>2015-09-03T17:42:36Z</time>
      </trkpt>
      <trkpt lat="43.67346" lon="7.08928">
        <ele>133</ele>
        <time>2015-09-03T17:42:50Z</time>
      </trkpt>
      <trkpt lat="43.67338" lon="7.08923">
        <ele>133</ele>
        <time>2015-09-03T17:42:58Z</time>
      </trkpt>
      <trkpt lat="43.6733" lon="7.08918">
        <ele>134.8</ele>
        <time>2015-09-03T17:43:07Z</time>
      </trkpt>
      <trkpt lat="43.67322" lon="7.08919">
        <ele>136.6</ele>
        <time>2015-09-03T17:43:28Z</time>
      </trkpt>
      <trkpt lat="43.67314" lon="7.08916">
        <ele>138.5</ele>
        <time>2015-09-03T17:43:45Z</time>
      </trkpt>
      <trkpt lat="43.67306" lon="7.0891">
        <ele>140.3</ele>
        <time>2015-09-03T17:44:02Z</time>
      </trkpt>
      <trkpt lat="43.67299" lon="7.08904">
        <ele>142.1</ele>
        <time>2015-09-03T17:44:14Z</time>
      </trkpt>
      <trkpt lat="43.67292" lon="7.08899">
        <ele>143.9</ele>
        <time>2015-09-03T17:44:29Z</time>
      </trkpt>
      <trkpt lat="43.67287" lon="7.0891">
        <ele>145.7</ele>
        <time>2015-09-03T17:44:41Z</time>
      </trkpt>
      <trkpt lat="43.67283" lon="7.08921">
        <ele>147.5</ele>
        <time>2015-09-03T17:44:47Z</time>
      </trkpt>
      <trkpt lat="43.67279" lon="7.08931">
        <ele>148.3</ele>
        <time>2015-09-03T17:44:52Z</time>
      </trkpt>
      <trkpt lat="43.67274" lon="7.08941">
        <ele>149</ele>
        <time>2015-09-03T17:44:55Z</time>
      </trkpt>
      <trkpt lat="43.67266" lon="7.08948">
        <ele>149.7</ele>
        <time>2015-09-03T17:45:00Z</time>
      </trkpt>
      <trkpt lat="43.6726" lon="7.08957">
        <ele>148.6</ele>
        <time>2015-09-03T17:45:04Z</time>
      </trkpt>
      <trkpt lat="43.67254" lon="7.08967">
        <ele>147.5</ele>
        <time>2015-09-03T17:45:08Z</time>
      </trkpt>
      <trkpt lat="43.67247" lon="7.08976">
        <ele>147.5</ele>
        <time>2015-09-03T17:45:13Z</time>
      </trkpt>
      <trkpt lat="43.67239" lon="7.08979">
        <ele>147.4</ele>
        <time>2015-09-03T17:45:18Z</time>
      </trkpt>
      <trkpt lat="43.67231" lon="7.08984">
        <ele>147.2</ele>
        <time>2015-09-03T17:45:24Z</time>
      </trkpt>
      <trkpt lat="43.67223" lon="7.08981">
        <ele>147</ele>
        <time>2015-09-03T17:45:37Z</time>
      </trkpt>
      <trkpt lat="43.67217" lon="7.08973">
        <ele>146.8</ele>
        <time>2015-09-03T17:46:39Z</time>
      </trkpt>
      <trkpt lat="43.67211" lon="7.08965">
        <ele>146.6</ele>
        <time>2015-09-03T17:46:47Z</time>
      </trkpt>
      <trkpt lat="43.67204" lon="7.08958">
        <ele>147.5</ele>
        <time>2015-09-03T17:47:00Z</time>
      </trkpt>
      <trkpt lat="43.672" lon="7.08948">
        <ele>148.5</ele>
        <time>2015-09-03T17:48:16Z</time>
      </trkpt>
      <trkpt lat="43.67193" lon="7.08942">
        <ele>149.4</ele>
        <time>2015-09-03T17:48:20Z</time>
      </trkpt>
      <trkpt lat="43.67187" lon="7.08933">
        <ele>150.7</ele>
        <time>2015-09-03T17:48:23Z</time>
      </trkpt>
      <trkpt lat="43.67184" lon="7.08923">
        <ele>152.1</ele>
        <time>2015-09-03T17:48:26Z</time>
      </trkpt>
      <trkpt lat="43.67181" lon="7.0891">
        <ele>152.4</ele>
        <time>2015-09-03T17:48:31Z</time>
      </trkpt>
      <trkpt lat="43.67179" lon="7.08899">
        <ele>152.8</ele>
        <time>2015-09-03T17:48:36Z</time>
      </trkpt>
      <trkpt lat="43.67175" lon="7.08888">
        <ele>153.3</ele>
        <time>2015-09-03T17:48:40Z</time>
      </trkpt>
      <trkpt lat="43.67167" lon="7.08877">
        <ele>153.7</ele>
        <time>2015-09-03T17:48:44Z</time>
      </trkpt>
      <trkpt lat="43.67162" lon="7.08866">
        <ele>154.2</ele>
        <time>2015-09-03T17:48:46Z</time>
      </trkpt>
      <trkpt lat="43.67157" lon="7.08855">
        <ele>154.1</ele>
        <time>2015-09-03T17:48:48Z</time>
      </trkpt>
      <trkpt lat="43.67152" lon="7.08843">
        <ele>154</ele>
        <time>2015-09-03T17:48:50Z</time>
      </trkpt>
      <trkpt lat="43.67143" lon="7.08829">
        <ele>153.9</ele>
        <time>2015-09-03T17:48:53Z</time>
      </trkpt>
      <trkpt lat="43.67138" lon="7.08818">
        <ele>153.8</ele>
        <time>2015-09-03T17:48:55Z</time>
      </trkpt>
      <trkpt lat="43.67131" lon="7.08806">
        <ele>153.3</ele>
        <time>2015-09-03T17:48:58Z</time>
      </trkpt>
      <trkpt lat="43.67125" lon="7.08796">
        <ele>152.7</ele>
        <time>2015-09-03T17:49:01Z</time>
      </trkpt>
      <trkpt lat="43.67116" lon="7.08787">
        <ele>152.2</ele>
        <time>2015-09-03T17:49:04Z</time>
      </trkpt>
      <trkpt lat="43.67107" lon="7.08781">
        <ele>151.6</ele>
        <time>2015-09-03T17:49:07Z</time>
      </trkpt>
      <trkpt lat="43.67097" lon="7.08775">
        <ele>151.1</ele>
        <time>2015-09-03T17:49:11Z</time>
      </trkpt>
      <trkpt lat="43.6709" lon="7.08767">
        <ele>150.5</ele>
        <time>2015-09-03T17:49:14Z</time>
      </trkpt>
      <trkpt lat="43.67081" lon="7.08761">
        <ele>149.8</ele>
        <time>2015-09-03T17:49:17Z</time>
      </trkpt>
      <trkpt lat="43.67072" lon="7.08755">
        <ele>149.7</ele>
        <time>2015-09-03T17:49:21Z</time>
      </trkpt>
      <trkpt lat="43.67061" lon="7.08747">
        <ele>149.6</ele>
        <time>2015-09-03T17:49:24Z</time>
      </trkpt>
      <trkpt lat="43.67053" lon="7.08743">
        <ele>149.5</ele>
        <time>2015-09-03T17:49:26Z</time>
      </trkpt>
      <trkpt lat="43.67044" lon="7.0874">
        <ele>149.5</ele>
        <time>2015-09-03T17:49:28Z</time>
      </trkpt>
      <trkpt lat="43.67036" lon="7.08737">
        <ele>149.4</ele>
        <time>2015-09-03T17:49:30Z</time>
      </trkpt>
      <trkpt lat="43.67029" lon="7.0873">
        <ele>149.3</ele>
        <time>2015-09-03T17:49:33Z</time>
      </trkpt>
      <trkpt lat="43.67021" lon="7.08726">
        <ele>149.2</ele>
        <time>2015-09-03T17:49:36Z</time>
      </trkpt>
      <trkpt lat="43.6701" lon="7.0872">
        <ele>149.1</ele>
        <time>2015-09-03T17:49:39Z</time>
      </trkpt>
      <trkpt lat="43.67001" lon="7.08716">
        <ele>150.4</ele>
        <time>2015-09-03T17:49:42Z</time>
      </trkpt>
      <trkpt lat="43.66993" lon="7.08712">
        <ele>151.7</ele>
        <time>2015-09-03T17:49:45Z</time>
      </trkpt>
      <trkpt lat="43.66985" lon="7.08707">
        <ele>152.6</ele>
        <time>2015-09-03T17:49:49Z</time>
      </trkpt>
      <trkpt lat="43.66975" lon="7.08702">
        <ele>153.5</ele>
        <time>2015-09-03T17:49:53Z</time>
      </trkpt>
      <trkpt lat="43.66966" lon="7.08701">
        <ele>154.5</ele>
        <time>2015-09-03T17:49:57Z</time>
      </trkpt>
      <trkpt lat="43.66957" lon="7.08707">
        <ele>155.4</ele>
        <time>2015-09-03T17:50:01Z</time>
      </trkpt>
      <trkpt lat="43.66951" lon="7.08717">
        <ele>156.3</ele>
        <time>2015-09-03T17:50:05Z</time>
      </trkpt>
      <trkpt lat="43.66949" lon="7.08728">
        <ele>157.2</ele>
        <time>2015-09-03T17:50:10Z</time>
      </trkpt>
      <trkpt lat="43.66945" lon="7.08738">
        <ele>157.4</ele>
        <time>2015-09-03T17:51:16Z</time>
      </trkpt>
      <trkpt lat="43.66946" lon="7.08752">
        <ele>157.5</ele>
        <time>2015-09-03T17:51:20Z</time>
      </trkpt>
      <trkpt lat="43.66942" lon="7.08765">
        <ele>157.7</ele>
        <time>2015-09-03T17:51:23Z</time>
      </trkpt>
      <trkpt lat="43.66944" lon="7.08777">
        <ele>156.5</ele>
        <time>2015-09-03T17:51:26Z</time>
      </trkpt>
      <trkpt lat="43.66944" lon="7.08791">
        <ele>155.4</ele>
        <time>2015-09-03T17:51:31Z</time>
      </trkpt>
      <trkpt lat="43.66942" lon="7.08804">
        <ele>154.6</ele>
        <time>2015-09-03T17:51:35Z</time>
      </trkpt>
      <trkpt lat="43.66937" lon="7.08812">
        <ele>153.9</ele>
        <time>2015-09-03T17:51:47Z</time>
      </trkpt>
      <trkpt lat="43.66932" lon="7.08822">
        <ele>152.5</ele>
        <time>2015-09-03T17:51:54Z</time>
      </trkpt>
      <trkpt lat="43.66934" lon="7.08836">
        <ele>151</ele>
        <time>2015-09-03T17:52:07Z</time>
      </trkpt>
      <trkpt lat="43.66935" lon="7.08849">
        <ele>149.5</ele>
        <time>2015-09-03T17:52:10Z</time>
      </trkpt>
      <trkpt lat="43.6693" lon="7.08862">
        <ele>148.1</ele>
        <time>2015-09-03T17:52:13Z</time>
      </trkpt>
      <trkpt lat="43.66924" lon="7.08872">
        <ele>147.4</ele>
        <time>2015-09-03T17:52:16Z</time>
      </trkpt>
      <trkpt lat="43.66922" lon="7.08887">
        <ele>146.6</ele>
        <time>2015-09-03T17:52:19Z</time>
      </trkpt>
      <trkpt lat="43.66919" lon="7.08898">
        <ele>145.9</ele>
        <time>2015-09-03T17:52:21Z</time>
      </trkpt>
      <trkpt lat="43.66916" lon="7.08911">
        <ele>145.2</ele>
        <time>2015-09-03T17:52:24Z</time>
      </trkpt>
      <trkpt lat="43.66912" lon="7.0892">
        <ele>144.5</ele>
        <time>2015-09-03T17:52:26Z</time>
      </trkpt>
      <trkpt lat="43.6691" lon="7.08932">
        <ele>143.4</ele>
        <time>2015-09-03T17:52:48Z</time>
      </trkpt>
      <trkpt lat="43.66904" lon="7.08942">
        <ele>142.3</ele>
        <time>2015-09-03T17:52:53Z</time>
      </trkpt>
      <trkpt lat="43.66899" lon="7.0895">
        <ele>141.9</ele>
        <time>2015-09-03T17:53:06Z</time>
      </trkpt>
      <trkpt lat="43.6689" lon="7.0895">
        <ele>141.5</ele>
        <time>2015-09-03T17:53:30Z</time>
      </trkpt>
      <trkpt lat="43.66883" lon="7.08944">
        <ele>141.2</ele>
        <time>2015-09-03T17:53:43Z</time>
      </trkpt>
      <trkpt lat="43.66873" lon="7.08945">
        <ele>140.8</ele>
        <time>2015-09-03T17:53:58Z</time>
      </trkpt>
      <trkpt lat="43.66865" lon="7.08946">
        <ele>140.5</ele>
        <time>2015-09-03T17:54:03Z</time>
      </trkpt>
      <trkpt lat="43.66858" lon="7.08953">
        <ele>140.1</ele>
        <time>2015-09-03T17:54:13Z</time>
      </trkpt>
      <trkpt lat="43.66852" lon="7.08962">
        <ele>139.7</ele>
        <time>2015-09-03T17:54:20Z</time>
      </trkpt>
      <trkpt lat="43.66847" lon="7.08974">
        <ele>139.4</ele>
        <time>2015-09-03T17:54:27Z</time>
      </trkpt>
      <trkpt lat="43.66849" lon="7.08986">
        <ele>139</ele>
        <time>2015-09-03T17:54:32Z</time>
      </trkpt>
      <trkpt lat="43.66857" lon="7.08991">
        <ele>139</ele>
        <time>2015-09-03T17:54:37Z</time>
      </trkpt>
      <trkpt lat="43.66856" lon="7.09002">
        <ele>139</ele>
        <time>2015-09-03T17:54:44Z</time>
      </trkpt>
      <trkpt lat="43.66854" lon="7.09013">
        <ele>139</ele>
        <time>2015-09-03T17:55:04Z</time>
      </trkpt>
      <trkpt lat="43.66848" lon="7.09023">
        <ele>139</ele>
        <time>2015-09-03T17:55:12Z</time>
      </trkpt>
      <trkpt lat="43.66841" lon="7.09032">
        <ele>139</ele>
        <time>2015-09-03T17:55:17Z</time>
      </trkpt>
      <trkpt lat="43.66834" lon="7.0904">
        <ele>139</ele>
        <time>2015-09-03T17:55:21Z</time>
      </trkpt>
      <trkpt lat="43.6683" lon="7.09052">
        <ele>139</ele>
        <time>2015-09-03T17:55:28Z</time>
      </trkpt>
      <trkpt lat="43.66828" lon="7.09063">
        <ele>139</ele>
        <time>2015-09-03T17:55:33Z</time>
      </trkpt>
      <trkpt lat="43.66826" lon="7.09075">
        <ele>138.6</ele>
        <time>2015-09-03T17:55:37Z</time>
      </trkpt>
      <trkpt lat="43.6682" lon="7.09084">
        <ele>138.3</ele>
        <time>2015-09-03T17:55:40Z</time>
      </trkpt>
      <trkpt lat="43.66818" lon="7.09098">
        <ele>137.9</ele>
        <time>2015-09-03T17:55:44Z</time>
      </trkpt>
      <trkpt lat="43.66816" lon="7.09109">
        <ele>137.5</ele>
        <time>2015-09-03T17:55:48Z</time>
      </trkpt>
      <trkpt lat="43.66812" lon="7.09121">
        <ele>136.8</ele>
        <time>2015-09-03T17:56:06Z</time>
      </trkpt>
      <trkpt lat="43.66809" lon="7.09131">
        <ele>136.1</ele>
        <time>2015-09-03T17:56:13Z</time>
      </trkpt>
      <trkpt lat="43.66809" lon="7.09143">
        <ele>135.4</ele>
        <time>2015-09-03T17:56:18Z</time>
      </trkpt>
      <trkpt lat="43.66808" lon="7.09154">
        <ele>134.6</ele>
        <time>2015-09-03T17:56:23Z</time>
      </trkpt>
      <trkpt lat="43.66803" lon="7.09165">
        <ele>133.9</ele>
        <time>2015-09-03T17:56:29Z</time>
      </trkpt>
      <trkpt lat="43.66795" lon="7.09172">
        <ele>133.2</ele>
        <time>2015-09-03T17:56:34Z</time>
      </trkpt>
      <trkpt lat="43.66785" lon="7.09175">
        <ele>132.5</ele>
        <time>2015-09-03T17:56:37Z</time>
      </trkpt>
      <trkpt lat="43.66776" lon="7.09179">
        <ele>132.1</ele>
        <time>2015-09-03T17:56:42Z</time>
      </trkpt>
      <trkpt lat="43.66768" lon="7.09177">
        <ele>131.7</ele>
        <time>2015-09-03T17:56:47Z</time>
      </trkpt>
      <trkpt lat="43.66757" lon="7.09174">
        <ele>131.4</ele>
        <time>2015-09-03T17:56:52Z</time>
      </trkpt>
      <trkpt lat="43.66749" lon="7.09177">
        <ele>129.7</ele>
        <time>2015-09-03T17:56:57Z</time>
      </trkpt>
      <trkpt lat="43.66741" lon="7.09184">
        <ele>128</ele>
        <time>2015-09-03T17:57:00Z</time>
      </trkpt>
      <trkpt lat="43.66733" lon="7.09192">
        <ele>126.3</ele>
        <time>2015-09-03T17:57:03Z</time>
      </trkpt>
      <trkpt lat="43.66725" lon="7.092">
        <ele>124.5</ele>
        <time>2015-09-03T17:57:06Z</time>
      </trkpt>
      <trkpt lat="43.66717" lon="7.09198">
        <ele>122.8</ele>
        <time>2015-09-03T17:57:08Z</time>
      </trkpt>
      <trkpt lat="43.66706" lon="7.09206">
        <ele>121.1</ele>
        <time>2015-09-03T17:57:11Z</time>
      </trkpt>
      <trkpt lat="43.667" lon="7.09215">
        <ele>119.4</ele>
        <time>2015-09-03T17:57:13Z</time>
      </trkpt>
      <trkpt lat="43.66693" lon="7.09224">
        <ele>117.6</ele>
        <time>2015-09-03T17:57:16Z</time>
      </trkpt>
      <trkpt lat="43.66688" lon="7.09236">
        <ele>115.9</ele>
        <time>2015-09-03T17:57:19Z</time>
      </trkpt>
      <trkpt lat="43.66683" lon="7.09246">
        <ele>114.2</ele>
        <time>2015-09-03T17:58:52Z</time>
      </trkpt>
      <trkpt lat="43.66682" lon="7.09257">
        <ele>112.5</ele>
        <time>2015-09-03T17:58:55Z</time>
      </trkpt>
      <trkpt lat="43.66682" lon="7.0927">
        <ele>112</ele>
        <time>2015-09-03T17:58:57Z</time>
      </trkpt>
      <trkpt lat="43.66688" lon="7.09282">
        <ele>112</ele>
        <time>2015-09-03T17:59:00Z</time>
      </trkpt>
      <trkpt lat="43.66683" lon="7.09271">
        <ele>112.8</ele>
        <time>2015-09-03T18:00:55Z</time>
      </trkpt>
      <trkpt lat="43.66681" lon="7.0926">
        <ele>113.6</ele>
        <time>2015-09-03T18:01:04Z</time>
      </trkpt>
      <trkpt lat="43.66688" lon="7.09271">
        <ele>114.5</ele>
        <time>2015-09-03T18:02:44Z</time>
      </trkpt>
      <trkpt lat="43.66692" lon="7.09281">
        <ele>114</ele>
        <time>2015-09-03T18:03:09Z</time>
      </trkpt>
      <trkpt lat="43.66702" lon="7.09285">
        <ele>113.5</ele>
        <time>2015-09-03T18:03:48Z</time>
      </trkpt>
      <trkpt lat="43.66712" lon="7.09287">
        <ele>113.1</ele>
        <time>2015-09-03T18:03:52Z</time>
      </trkpt>
      <trkpt lat="43.66721" lon="7.09289">
        <ele>112.6</ele>
        <time>2015-09-03T18:03:56Z</time>
      </trkpt>
      <trkpt lat="43.66731" lon="7.09293">
        <ele>112.2</ele>
        <time>2015-09-03T18:04:00Z</time>
      </trkpt>
      <trkpt lat="43.6674" lon="7.09297">
        <ele>111.7</ele>
        <time>2015-09-03T18:04:03Z</time>
      </trkpt>
      <trkpt lat="43.66751" lon="7.09301">
        <ele>111.7</ele>
        <time>2015-09-03T18:04:06Z</time>
      </trkpt>
      <trkpt lat="43.66762" lon="7.09306">
        <ele>111.7</ele>
        <time>2015-09-03T18:04:09Z</time>
      </trkpt>
      <trkpt lat="43.66773" lon="7.09312">
        <ele>110.9</ele>
        <time>2015-09-03T18:04:12Z</time>
      </trkpt>
      <trkpt lat="43.66783" lon="7.09315">
        <ele>110.1</ele>
        <time>2015-09-03T18:04:14Z</time>
      </trkpt>
      <trkpt lat="43.66791" lon="7.09319">
        <ele>109.3</ele>
        <time>2015-09-03T18:04:16Z</time>
      </trkpt>
      <trkpt lat="43.66799" lon="7.09324">
        <ele>109.7</ele>
        <time>2015-09-03T18:04:18Z</time>
      </trkpt>
      <trkpt lat="43.66807" lon="7.09328">
        <ele>110.2</ele>
        <time>2015-09-03T18:04:20Z</time>
      </trkpt>
      <trkpt lat="43.66815" lon="7.09333">
        <ele>110.6</ele>
        <time>2015-09-03T18:04:22Z</time>
      </trkpt>
      <trkpt lat="43.66823" lon="7.09339">
        <ele>110.6</ele>
        <time>2015-09-03T18:04:24Z</time>
      </trkpt>
      <trkpt lat="43.66831" lon="7.09342">
        <ele>110.6</ele>
        <time>2015-09-03T18:04:26Z</time>
      </trkpt>
      <trkpt lat="43.66839" lon="7.09346">
        <ele>110.6</ele>
        <time>2015-09-03T18:04:29Z</time>
      </trkpt>
      <trkpt lat="43.66841" lon="7.09358">
        <ele>110.2</ele>
        <time>2015-09-03T18:04:32Z</time>
      </trkpt>
      <trkpt lat="43.66837" lon="7.09374">
        <ele>109.7</ele>
        <time>2015-09-03T18:04:35Z</time>
      </trkpt>
      <trkpt lat="43.66834" lon="7.09385">
        <ele>109.3</ele>
        <time>2015-09-03T18:04:37Z</time>
      </trkpt>
      <trkpt lat="43.66833" lon="7.094">
        <ele>108.4</ele>
        <time>2015-09-03T18:04:40Z</time>
      </trkpt>
      <trkpt lat="43.66836" lon="7.09414">
        <ele>107.5</ele>
        <time>2015-09-03T18:04:43Z</time>
      </trkpt>
      <trkpt lat="43.66835" lon="7.09429">
        <ele>106.5</ele>
        <time>2015-09-03T18:04:46Z</time>
      </trkpt>
      <trkpt lat="43.66831" lon="7.09445">
        <ele>105.6</ele>
        <time>2015-09-03T18:04:49Z</time>
      </trkpt>
      <trkpt lat="43.66828" lon="7.09456">
        <ele>104.7</ele>
        <time>2015-09-03T18:04:51Z</time>
      </trkpt>
      <trkpt lat="43.66825" lon="7.09468">
        <ele>104.3</ele>
        <time>2015-09-03T18:04:53Z</time>
      </trkpt>
      <trkpt lat="43.66819" lon="7.09476">
        <ele>103.8</ele>
        <time>2015-09-03T18:04:55Z</time>
      </trkpt>
      <trkpt lat="43.66811" lon="7.09484">
        <ele>103.4</ele>
        <time>2015-09-03T18:04:58Z</time>
      </trkpt>
      <trkpt lat="43.668" lon="7.09489">
        <ele>102.9</ele>
        <time>2015-09-03T18:05:01Z</time>
      </trkpt>
      <trkpt lat="43.66792" lon="7.09494">
        <ele>102.3</ele>
        <time>2015-09-03T18:05:05Z</time>
      </trkpt>
      <trkpt lat="43.66785" lon="7.095">
        <ele>101.6</ele>
        <time>2015-09-03T18:05:08Z</time>
      </trkpt>
      <trkpt lat="43.66778" lon="7.09509">
        <ele>101.5</ele>
        <time>2015-09-03T18:05:38Z</time>
      </trkpt>
      <trkpt lat="43.66776" lon="7.09521">
        <ele>101.3</ele>
        <time>2015-09-03T18:05:41Z</time>
      </trkpt>
      <trkpt lat="43.66775" lon="7.09532">
        <ele>101.1</ele>
        <time>2015-09-03T18:05:44Z</time>
      </trkpt>
      <trkpt lat="43.6677" lon="7.09544">
        <ele>100.9</ele>
        <time>2015-09-03T18:05:47Z</time>
      </trkpt>
      <trkpt lat="43.66764" lon="7.0956">
        <ele>100.7</ele>
        <time>2015-09-03T18:05:49Z</time>
      </trkpt>
      <trkpt lat="43.66757" lon="7.09575">
        <ele>99.9</ele>
        <time>2015-09-03T18:05:51Z</time>
      </trkpt>
      <trkpt lat="43.66753" lon="7.09586">
        <ele>99.1</ele>
        <time>2015-09-03T18:05:53Z</time>
      </trkpt>
      <trkpt lat="43.66752" lon="7.09599">
        <ele>98.3</ele>
        <time>2015-09-03T18:05:55Z</time>
      </trkpt>
      <trkpt lat="43.66747" lon="7.09612">
        <ele>97.5</ele>
        <time>2015-09-03T18:05:57Z</time>
      </trkpt>
      <trkpt lat="43.66741" lon="7.09629">
        <ele>96.8</ele>
        <time>2015-09-03T18:05:59Z</time>
      </trkpt>
      <trkpt lat="43.66737" lon="7.09647">
        <ele>95.7</ele>
        <time>2015-09-03T18:06:01Z</time>
      </trkpt>
      <trkpt lat="43.66733" lon="7.09666">
        <ele>94.6</ele>
        <time>2015-09-03T18:06:03Z</time>
      </trkpt>
      <trkpt lat="43.66728" lon="7.09683">
        <ele>93.5</ele>
        <time>2015-09-03T18:06:05Z</time>
      </trkpt>
      <trkpt lat="43.66724" lon="7.09698">
        <ele>92.3</ele>
        <time>2015-09-03T18:06:07Z</time>
      </trkpt>
      <trkpt lat="43.66723" lon="7.0971">
        <ele>91.1</ele>
        <time>2015-09-03T18:06:09Z</time>
      </trkpt>
      <trkpt lat="43.66718" lon="7.0972">
        <ele>89.9</ele>
        <time>2015-09-03T18:06:14Z</time>
      </trkpt>
      <trkpt lat="43.66711" lon="7.09728">
        <ele>89.4</ele>
        <time>2015-09-03T18:06:17Z</time>
      </trkpt>
      <trkpt lat="43.66703" lon="7.09733">
        <ele>88.7</ele>
        <time>2015-09-03T18:06:30Z</time>
      </trkpt>
      <trkpt lat="43.66699" lon="7.09748">
        <ele>88.1</ele>
        <time>2015-09-03T18:08:18Z</time>
      </trkpt>
      <trkpt lat="43.66697" lon="7.09762">
        <ele>87.5</ele>
        <time>2015-09-03T18:08:20Z</time>
      </trkpt>
      <trkpt lat="43.66695" lon="7.09779">
        <ele>86.8</ele>
        <time>2015-09-03T18:08:22Z</time>
      </trkpt>
      <trkpt lat="43.66694" lon="7.09795">
        <ele>86.6</ele>
        <time>2015-09-03T18:08:24Z</time>
      </trkpt>
      <trkpt lat="43.66693" lon="7.09812">
        <ele>86.1</ele>
        <time>2015-09-03T18:08:26Z</time>
      </trkpt>
      <trkpt lat="43.66686" lon="7.09829">
        <ele>85.6</ele>
        <time>2015-09-03T18:08:28Z</time>
      </trkpt>
      <trkpt lat="43.66676" lon="7.09844">
        <ele>85.2</ele>
        <time>2015-09-03T18:08:30Z</time>
      </trkpt>
      <trkpt lat="43.66672" lon="7.09854">
        <ele>84.7</ele>
        <time>2015-09-03T18:08:31Z</time>
      </trkpt>
      <trkpt lat="43.66666" lon="7.09873">
        <ele>84.3</ele>
        <time>2015-09-03T18:08:33Z</time>
      </trkpt>
      <trkpt lat="43.66666" lon="7.09891">
        <ele>83.8</ele>
        <time>2015-09-03T18:08:35Z</time>
      </trkpt>
      <trkpt lat="43.66661" lon="7.09904">
        <ele>82.6</ele>
        <time>2015-09-03T18:08:37Z</time>
      </trkpt>
      <trkpt lat="43.66657" lon="7.09918">
        <ele>81.5</ele>
        <time>2015-09-03T18:08:39Z</time>
      </trkpt>
      <trkpt lat="43.66652" lon="7.09933">
        <ele>80.3</ele>
        <time>2015-09-03T18:08:41Z</time>
      </trkpt>
      <trkpt lat="43.66649" lon="7.0995">
        <ele>79.1</ele>
        <time>2015-09-03T18:08:43Z</time>
      </trkpt>
      <trkpt lat="43.66649" lon="7.09967">
        <ele>77.9</ele>
        <time>2015-09-03T18:08:45Z</time>
      </trkpt>
      <trkpt lat="43.66647" lon="7.09981">
        <ele>77.1</ele>
        <time>2015-09-03T18:08:47Z</time>
      </trkpt>
      <trkpt lat="43.66642" lon="7.09992">
        <ele>76.3</ele>
        <time>2015-09-03T18:08:49Z</time>
      </trkpt>
      <trkpt lat="43.6664" lon="7.10003">
        <ele>74.5</ele>
        <time>2015-09-03T18:08:51Z</time>
      </trkpt>
      <trkpt lat="43.66634" lon="7.10013">
        <ele>72.6</ele>
        <time>2015-09-03T18:08:54Z</time>
      </trkpt>
      <trkpt lat="43.6663" lon="7.10023">
        <ele>70.8</ele>
        <time>2015-09-03T18:08:56Z</time>
      </trkpt>
      <trkpt lat="43.66629" lon="7.10034">
        <ele>69</ele>
        <time>2015-09-03T18:09:00Z</time>
      </trkpt>
      <trkpt lat="43.66629" lon="7.10046">
        <ele>68</ele>
        <time>2015-09-03T18:09:04Z</time>
      </trkpt>
      <trkpt lat="43.66631" lon="7.1006">
        <ele>67</ele>
        <time>2015-09-03T18:09:08Z</time>
      </trkpt>
      <trkpt lat="43.66637" lon="7.10071">
        <ele>66</ele>
        <time>2015-09-03T18:09:11Z</time>
      </trkpt>
      <trkpt lat="43.66647" lon="7.10081">
        <ele>64.5</ele>
        <time>2015-09-03T18:09:14Z</time>
      </trkpt>
      <trkpt lat="43.66653" lon="7.10092">
        <ele>63.1</ele>
        <time>2015-09-03T18:09:16Z</time>
      </trkpt>
      <trkpt lat="43.66656" lon="7.10104">
        <ele>61.6</ele>
        <time>2015-09-03T18:09:21Z</time>
      </trkpt>
      <trkpt lat="43.66661" lon="7.10114">
        <ele>60.2</ele>
        <time>2015-09-03T18:09:58Z</time>
      </trkpt>
      <trkpt lat="43.6667" lon="7.10124">
        <ele>59.7</ele>
        <time>2015-09-03T18:10:01Z</time>
      </trkpt>
      <trkpt lat="43.66681" lon="7.10135">
        <ele>58.8</ele>
        <time>2015-09-03T18:10:03Z</time>
      </trkpt>
      <trkpt lat="43.66687" lon="7.10148">
        <ele>57.9</ele>
        <time>2015-09-03T18:10:05Z</time>
      </trkpt>
      <trkpt lat="43.66693" lon="7.10164">
        <ele>56.2</ele>
        <time>2015-09-03T18:10:07Z</time>
      </trkpt>
      <trkpt lat="43.66699" lon="7.10178">
        <ele>54.5</ele>
        <time>2015-09-03T18:10:09Z</time>
      </trkpt>
      <trkpt lat="43.66704" lon="7.10188">
        <ele>52.7</ele>
        <time>2015-09-03T18:10:11Z</time>
      </trkpt>
      <trkpt lat="43.66713" lon="7.10198">
        <ele>51</ele>
        <time>2015-09-03T18:10:14Z</time>
      </trkpt>
      <trkpt lat="43.66721" lon="7.10206">
        <ele>49.7</ele>
        <time>2015-09-03T18:10:17Z</time>
      </trkpt>
      <trkpt lat="43.66727" lon="7.10216">
        <ele>48.5</ele>
        <time>2015-09-03T18:10:20Z</time>
      </trkpt>
      <trkpt lat="43.66734" lon="7.10228">
        <ele>47.2</ele>
        <time>2015-09-03T18:10:23Z</time>
      </trkpt>
      <trkpt lat="43.66742" lon="7.1024">
        <ele>45.9</ele>
        <time>2015-09-03T18:10:26Z</time>
      </trkpt>
      <trkpt lat="43.66746" lon="7.10254">
        <ele>44.8</ele>
        <time>2015-09-03T18:10:29Z</time>
      </trkpt>
      <trkpt lat="43.66752" lon="7.10266">
        <ele>44.2</ele>
        <time>2015-09-03T18:10:32Z</time>
      </trkpt>
      <trkpt lat="43.66759" lon="7.10274">
        <ele>42.5</ele>
        <time>2015-09-03T18:10:35Z</time>
      </trkpt>
      <trkpt lat="43.66766" lon="7.10281">
        <ele>41.5</ele>
        <time>2015-09-03T18:11:25Z</time>
      </trkpt>
      <trkpt lat="43.66775" lon="7.10294">
        <ele>40.6</ele>
        <time>2015-09-03T18:11:29Z</time>
      </trkpt>
      <trkpt lat="43.66784" lon="7.10304">
        <ele>39.7</ele>
        <time>2015-09-03T18:11:31Z</time>
      </trkpt>
      <trkpt lat="43.66793" lon="7.10315">
        <ele>38.8</ele>
        <time>2015-09-03T18:11:33Z</time>
      </trkpt>
      <trkpt lat="43.66799" lon="7.10324">
        <ele>37.5</ele>
        <time>2015-09-03T18:11:35Z</time>
      </trkpt>
      <trkpt lat="43.66806" lon="7.1033">
        <ele>36.3</ele>
        <time>2015-09-03T18:11:37Z</time>
      </trkpt>
      <trkpt lat="43.66811" lon="7.10345">
        <ele>35</ele>
        <time>2015-09-03T18:11:40Z</time>
      </trkpt>
      <trkpt lat="43.66815" lon="7.10354">
        <ele>33.7</ele>
        <time>2015-09-03T18:11:42Z</time>
      </trkpt>
      <trkpt lat="43.66816" lon="7.10367">
        <ele>32.3</ele>
        <time>2015-09-03T18:11:46Z</time>
      </trkpt>
      <trkpt lat="43.66815" lon="7.10379">
        <ele>30.8</ele>
        <time>2015-09-03T18:11:49Z</time>
      </trkpt>
      <trkpt lat="43.66818" lon="7.10391">
        <ele>30.5</ele>
        <time>2015-09-03T18:11:51Z</time>
      </trkpt>
      <trkpt lat="43.66823" lon="7.10401">
        <ele>30.1</ele>
        <time>2015-09-03T18:11:53Z</time>
      </trkpt>
      <trkpt lat="43.66819" lon="7.10413">
        <ele>29.7</ele>
        <time>2015-09-03T18:11:58Z</time>
      </trkpt>
      <trkpt lat="43.66829" lon="7.10415">
        <ele>29.4</ele>
        <time>2015-09-03T18:12:02Z</time>
      </trkpt>
      <trkpt lat="43.66839" lon="7.10414">
        <ele>28.8</ele>
        <time>2015-09-03T18:13:21Z</time>
      </trkpt>
      <trkpt lat="43.66848" lon="7.10411">
        <ele>28.6</ele>
        <time>2015-09-03T18:13:24Z</time>
      </trkpt>
      <trkpt lat="43.66857" lon="7.10409">
        <ele>28.5</ele>
        <time>2015-09-03T18:13:27Z</time>
      </trkpt>
      <trkpt lat="43.66867" lon="7.10406">
        <ele>28.3</ele>
        <time>2015-09-03T18:13:30Z</time>
      </trkpt>
      <trkpt lat="43.66877" lon="7.10405">
        <ele>28.1</ele>
        <time>2015-09-03T18:13:33Z</time>
      </trkpt>
      <trkpt lat="43.66888" lon="7.10405">
        <ele>27.9</ele>
        <time>2015-09-03T18:13:36Z</time>
      </trkpt>
      <trkpt lat="43.66899" lon="7.1041">
        <ele>27.7</ele>
        <time>2015-09-03T18:13:39Z</time>
      </trkpt>
      <trkpt lat="43.66909" lon="7.10418">
        <ele>27.5</ele>
        <time>2015-09-03T18:13:42Z</time>
      </trkpt>
      <trkpt lat="43.66919" lon="7.10426">
        <ele>26.9</ele>
        <time>2015-09-03T18:13:45Z</time>
      </trkpt>
      <trkpt lat="43.66929" lon="7.1043">
        <ele>26.3</ele>
        <time>2015-09-03T18:13:48Z</time>
      </trkpt>
      <trkpt lat="43.66938" lon="7.10433">
        <ele>25.6</ele>
        <time>2015-09-03T18:13:51Z</time>
      </trkpt>
      <trkpt lat="43.66943" lon="7.10444">
        <ele>25.2</ele>
        <time>2015-09-03T18:13:54Z</time>
      </trkpt>
      <trkpt lat="43.66944" lon="7.10457">
        <ele>24.7</ele>
        <time>2015-09-03T18:13:57Z</time>
      </trkpt>
      <trkpt lat="43.66943" lon="7.1047">
        <ele>24.3</ele>
        <time>2015-09-03T18:14:00Z</time>
      </trkpt>
      <trkpt lat="43.66939" lon="7.1048">
        <ele>23.8</ele>
        <time>2015-09-03T18:14:03Z</time>
      </trkpt>
      <trkpt lat="43.66935" lon="7.10491">
        <ele>23.4</ele>
        <time>2015-09-03T18:14:06Z</time>
      </trkpt>
      <trkpt lat="43.66928" lon="7.10504">
        <ele>22.9</ele>
        <time>2015-09-03T18:14:20Z</time>
      </trkpt>
      <trkpt lat="43.66924" lon="7.10515">
        <ele>22.5</ele>
        <time>2015-09-03T18:14:22Z</time>
      </trkpt>
      <trkpt lat="43.66919" lon="7.10527">
        <ele>22</ele>
        <time>2015-09-03T18:14:24Z</time>
      </trkpt>
      <trkpt lat="43.66915" lon="7.10541">
        <ele>22</ele>
        <time>2015-09-03T18:14:26Z</time>
      </trkpt>
      <trkpt lat="43.66909" lon="7.10556">
        <ele>22</ele>
        <time>2015-09-03T18:14:28Z</time>
      </trkpt>
      <trkpt lat="43.66904" lon="7.10571">
        <ele>22</ele>
        <time>2015-09-03T18:14:30Z</time>
      </trkpt>
      <trkpt lat="43.669" lon="7.10587">
        <ele>21.7</ele>
        <time>2015-09-03T18:14:32Z</time>
      </trkpt>
      <trkpt lat="43.66898" lon="7.10601">
        <ele>21.5</ele>
        <time>2015-09-03T18:14:34Z</time>
      </trkpt>
      <trkpt lat="43.66896" lon="7.10614">
        <ele>21.4</ele>
        <time>2015-09-03T18:14:36Z</time>
      </trkpt>
      <trkpt lat="43.66893" lon="7.10625">
        <ele>21.3</ele>
        <time>2015-09-03T18:14:39Z</time>
      </trkpt>
      <trkpt lat="43.66889" lon="7.10637">
        <ele>21.2</ele>
        <time>2015-09-03T18:14:45Z</time>
      </trkpt>
      <trkpt lat="43.66887" lon="7.10648">
        <ele>21.1</ele>
        <time>2015-09-03T18:14:50Z</time>
      </trkpt>
      <trkpt lat="43.66884" lon="7.1066">
        <ele>21</ele>
        <time>2015-09-03T18:15:02Z</time>
      </trkpt>
      <trkpt lat="43.66879" lon="7.10671">
        <ele>20.9</ele>
        <time>2015-09-03T18:15:06Z</time>
      </trkpt>
      <trkpt lat="43.66875" lon="7.10685">
        <ele>20.8</ele>
        <time>2015-09-03T18:15:10Z</time>
      </trkpt>
      <trkpt lat="43.66874" lon="7.10697">
        <ele>20.7</ele>
        <time>2015-09-03T18:15:12Z</time>
      </trkpt>
      <trkpt lat="43.6687" lon="7.10708">
        <ele>20.6</ele>
        <time>2015-09-03T18:15:14Z</time>
      </trkpt>
      <trkpt lat="43.66866" lon="7.10718">
        <ele>20.8</ele>
        <time>2015-09-03T18:15:16Z</time>
      </trkpt>
      <trkpt lat="43.66862" lon="7.10728">
        <ele>21</ele>
        <time>2015-09-03T18:15:18Z</time>
      </trkpt>
      <trkpt lat="43.66859" lon="7.10745">
        <ele>21</ele>
        <time>2015-09-03T18:15:21Z</time>
      </trkpt>
      <trkpt lat="43.66857" lon="7.10758">
        <ele>21</ele>
        <time>2015-09-03T18:15:23Z</time>
      </trkpt>
      <trkpt lat="43.66854" lon="7.10771">
        <ele>21</ele>
        <time>2015-09-03T18:15:25Z</time>
      </trkpt>
      <trkpt lat="43.66851" lon="7.10784">
        <ele>21</ele>
        <time>2015-09-03T18:15:27Z</time>
      </trkpt>
      <trkpt lat="43.66849" lon="7.10797">
        <ele>21</ele>
        <time>2015-09-03T18:15:29Z</time>
      </trkpt>
      <trkpt lat="43.66846" lon="7.10809">
        <ele>21</ele>
        <time>2015-09-03T18:15:31Z</time>
      </trkpt>
      <trkpt lat="43.66845" lon="7.10823">
        <ele>21.1</ele>
        <time>2015-09-03T18:15:33Z</time>
      </trkpt>
      <trkpt lat="43.66844" lon="7.10837">
        <ele>21.2</ele>
        <time>2015-09-03T18:15:35Z</time>
      </trkpt>
      <trkpt lat="43.66841" lon="7.1085">
        <ele>21.3</ele>
        <time>2015-09-03T18:15:37Z</time>
      </trkpt>
      <trkpt lat="43.66837" lon="7.10862">
        <ele>21.4</ele>
        <time>2015-09-03T18:15:39Z</time>
      </trkpt>
      <trkpt lat="43.66832" lon="7.10874">
        <ele>21.5</ele>
        <time>2015-09-03T18:15:41Z</time>
      </trkpt>
      <trkpt lat="43.66828" lon="7.10886">
        <ele>21.5</ele>
        <time>2015-09-03T18:15:43Z</time>
      </trkpt>
      <trkpt lat="43.66824" lon="7.10899">
        <ele>21.6</ele>
        <time>2015-09-03T18:15:45Z</time>
      </trkpt>
      <trkpt lat="43.66821" lon="7.10912">
        <ele>21.7</ele>
        <time>2015-09-03T18:15:47Z</time>
      </trkpt>
      <trkpt lat="43.66819" lon="7.10927">
        <ele>22.6</ele>
        <time>2015-09-03T18:15:49Z</time>
      </trkpt>
      <trkpt lat="43.66817" lon="7.10941">
        <ele>23.5</ele>
        <time>2015-09-03T18:15:51Z</time>
      </trkpt>
      <trkpt lat="43.66816" lon="7.10955">
        <ele>24.5</ele>
        <time>2015-09-03T18:15:53Z</time>
      </trkpt>
      <trkpt lat="43.66813" lon="7.1097">
        <ele>25.3</ele>
        <time>2015-09-03T18:15:55Z</time>
      </trkpt>
      <trkpt lat="43.66804" lon="7.10979">
        <ele>26.1</ele>
        <time>2015-09-03T18:15:57Z</time>
      </trkpt>
      <trkpt lat="43.66797" lon="7.1099">
        <ele>26.9</ele>
        <time>2015-09-03T18:15:59Z</time>
      </trkpt>
      <trkpt lat="43.66791" lon="7.11">
        <ele>26.8</ele>
        <time>2015-09-03T18:16:01Z</time>
      </trkpt>
      <trkpt lat="43.66786" lon="7.1101">
        <ele>26.7</ele>
        <time>2015-09-03T18:16:03Z</time>
      </trkpt>
      <trkpt lat="43.66781" lon="7.1102">
        <ele>26.6</ele>
        <time>2015-09-03T18:16:05Z</time>
      </trkpt>
      <trkpt lat="43.66776" lon="7.1103">
        <ele>26.5</ele>
        <time>2015-09-03T18:16:07Z</time>
      </trkpt>
      <trkpt lat="43.6677" lon="7.1104">
        <ele>26.5</ele>
        <time>2015-09-03T18:16:09Z</time>
      </trkpt>
      <trkpt lat="43.66763" lon="7.1105">
        <ele>25.5</ele>
        <time>2015-09-03T18:16:11Z</time>
      </trkpt>
      <trkpt lat="43.66755" lon="7.1106">
        <ele>24.6</ele>
        <time>2015-09-03T18:16:13Z</time>
      </trkpt>
      <trkpt lat="43.66748" lon="7.11069">
        <ele>23.7</ele>
        <time>2015-09-03T18:16:15Z</time>
      </trkpt>
      <trkpt lat="43.66741" lon="7.11078">
        <ele>23.5</ele>
        <time>2015-09-03T18:16:17Z</time>
      </trkpt>
      <trkpt lat="43.66733" lon="7.11085">
        <ele>23.2</ele>
        <time>2015-09-03T18:16:19Z</time>
      </trkpt>
      <trkpt lat="43.66725" lon="7.1109">
        <ele>22.3</ele>
        <time>2015-09-03T18:16:21Z</time>
      </trkpt>
      <trkpt lat="43.66716" lon="7.11098">
        <ele>22.3</ele>
        <time>2015-09-03T18:16:23Z</time>
      </trkpt>
      <trkpt lat="43.66709" lon="7.11105">
        <ele>22.3</ele>
        <time>2015-09-03T18:16:25Z</time>
      </trkpt>
      <trkpt lat="43.66703" lon="7.11114">
        <ele>22.3</ele>
        <time>2015-09-03T18:16:27Z</time>
      </trkpt>
      <trkpt lat="43.66692" lon="7.11125">
        <ele>22.3</ele>
        <time>2015-09-03T18:16:30Z</time>
      </trkpt>
      <trkpt lat="43.66682" lon="7.11133">
        <ele>22.3</ele>
        <time>2015-09-03T18:16:32Z</time>
      </trkpt>
      <trkpt lat="43.66673" lon="7.11139">
        <ele>22.9</ele>
        <time>2015-09-03T18:16:34Z</time>
      </trkpt>
      <trkpt lat="43.66663" lon="7.11144">
        <ele>23.5</ele>
        <time>2015-09-03T18:16:36Z</time>
      </trkpt>
      <trkpt lat="43.66653" lon="7.1115">
        <ele>24.2</ele>
        <time>2015-09-03T18:16:38Z</time>
      </trkpt>
      <trkpt lat="43.66644" lon="7.11154">
        <ele>24.2</ele>
        <time>2015-09-03T18:16:40Z</time>
      </trkpt>
      <trkpt lat="43.66635" lon="7.1116">
        <ele>24.2</ele>
        <time>2015-09-03T18:16:42Z</time>
      </trkpt>
      <trkpt lat="43.66625" lon="7.11166">
        <ele>24.8</ele>
        <time>2015-09-03T18:16:44Z</time>
      </trkpt>
      <trkpt lat="43.66616" lon="7.11171">
        <ele>25.5</ele>
        <time>2015-09-03T18:16:46Z</time>
      </trkpt>
      <trkpt lat="43.66607" lon="7.11176">
        <ele>26.1</ele>
        <time>2015-09-03T18:16:48Z</time>
      </trkpt>
      <trkpt lat="43.66598" lon="7.11178">
        <ele>26.7</ele>
        <time>2015-09-03T18:16:50Z</time>
      </trkpt>
      <trkpt lat="43.66588" lon="7.11178">
        <ele>28</ele>
        <time>2015-09-03T18:16:52Z</time>
      </trkpt>
      <trkpt lat="43.66578" lon="7.11179">
        <ele>29.3</ele>
        <time>2015-09-03T18:16:54Z</time>
      </trkpt>
      <trkpt lat="43.66566" lon="7.11182">
        <ele>29.9</ele>
        <time>2015-09-03T18:16:57Z</time>
      </trkpt>
      <trkpt lat="43.66558" lon="7.11183">
        <ele>30.5</ele>
        <time>2015-09-03T18:16:59Z</time>
      </trkpt>
      <trkpt lat="43.66549" lon="7.11184">
        <ele>30.7</ele>
        <time>2015-09-03T18:17:01Z</time>
      </trkpt>
      <trkpt lat="43.66539" lon="7.11192">
        <ele>30.9</ele>
        <time>2015-09-03T18:17:04Z</time>
      </trkpt>
      <trkpt lat="43.6653" lon="7.112">
        <ele>31.1</ele>
        <time>2015-09-03T18:17:07Z</time>
      </trkpt>
      <trkpt lat="43.6652" lon="7.11204">
        <ele>31.3</ele>
        <time>2015-09-03T18:17:09Z</time>
      </trkpt>
      <trkpt lat="43.6651" lon="7.11208">
        <ele>31.6</ele>
        <time>2015-09-03T18:17:11Z</time>
      </trkpt>
      <trkpt lat="43.66499" lon="7.11215">
        <ele>32</ele>
        <time>2015-09-03T18:17:13Z</time>
      </trkpt>
      <trkpt lat="43.66488" lon="7.11221">
        <ele>32.4</ele>
        <time>2015-09-03T18:17:15Z</time>
      </trkpt>
      <trkpt lat="43.66477" lon="7.11231">
        <ele>32.1</ele>
        <time>2015-09-03T18:17:18Z</time>
      </trkpt>
      <trkpt lat="43.6647" lon="7.1124">
        <ele>31.8</ele>
        <time>2015-09-03T18:17:20Z</time>
      </trkpt>
      <trkpt lat="43.66461" lon="7.11249">
        <ele>31.5</ele>
        <time>2015-09-03T18:17:22Z</time>
      </trkpt>
      <trkpt lat="43.66452" lon="7.11259">
        <ele>31.3</ele>
        <time>2015-09-03T18:17:24Z</time>
      </trkpt>
      <trkpt lat="43.66445" lon="7.11269">
        <ele>31.5</ele>
        <time>2015-09-03T18:17:26Z</time>
      </trkpt>
      <trkpt lat="43.66438" lon="7.11275">
        <ele>31</ele>
        <time>2015-09-03T18:17:28Z</time>
      </trkpt>
      <trkpt lat="43.66429" lon="7.11276">
        <ele>30.5</ele>
        <time>2015-09-03T18:17:32Z</time>
      </trkpt>
      <trkpt lat="43.66421" lon="7.11281">
        <ele>30.1</ele>
        <time>2015-09-03T18:17:34Z</time>
      </trkpt>
      <trkpt lat="43.66413" lon="7.11286">
        <ele>29.7</ele>
        <time>2015-09-03T18:17:36Z</time>
      </trkpt>
      <trkpt lat="43.66408" lon="7.11294">
        <ele>29.4</ele>
        <time>2015-09-03T18:17:38Z</time>
      </trkpt>
      <trkpt lat="43.66399" lon="7.11302">
        <ele>29</ele>
        <time>2015-09-03T18:17:41Z</time>
      </trkpt>
      <trkpt lat="43.66391" lon="7.11311">
        <ele>28.6</ele>
        <time>2015-09-03T18:17:43Z</time>
      </trkpt>
      <trkpt lat="43.66382" lon="7.11318">
        <ele>28.3</ele>
        <time>2015-09-03T18:17:45Z</time>
      </trkpt>
      <trkpt lat="43.6637" lon="7.11323">
        <ele>27.9</ele>
        <time>2015-09-03T18:17:48Z</time>
      </trkpt>
      <trkpt lat="43.66362" lon="7.11325">
        <ele>27.5</ele>
        <time>2015-09-03T18:17:50Z</time>
      </trkpt>
      <trkpt lat="43.66352" lon="7.11328">
        <ele>27.2</ele>
        <time>2015-09-03T18:17:52Z</time>
      </trkpt>
      <trkpt lat="43.66343" lon="7.11332">
        <ele>27.8</ele>
        <time>2015-09-03T18:17:54Z</time>
      </trkpt>
      <trkpt lat="43.66333" lon="7.11338">
        <ele>28.5</ele>
        <time>2015-09-03T18:17:56Z</time>
      </trkpt>
      <trkpt lat="43.66322" lon="7.11343">
        <ele>29.1</ele>
        <time>2015-09-03T18:17:58Z</time>
      </trkpt>
      <trkpt lat="43.66313" lon="7.11346">
        <ele>29.5</ele>
        <time>2015-09-03T18:18:00Z</time>
      </trkpt>
      <trkpt lat="43.66304" lon="7.11347">
        <ele>29.8</ele>
        <time>2015-09-03T18:18:02Z</time>
      </trkpt>
      <trkpt lat="43.66293" lon="7.11346">
        <ele>30.2</ele>
        <time>2015-09-03T18:18:04Z</time>
      </trkpt>
      <trkpt lat="43.66282" lon="7.1135">
        <ele>30.5</ele>
        <time>2015-09-03T18:18:06Z</time>
      </trkpt>
      <trkpt lat="43.6627" lon="7.11351">
        <ele>30.9</ele>
        <time>2015-09-03T18:18:08Z</time>
      </trkpt>
      <trkpt lat="43.66259" lon="7.11355">
        <ele>30.7</ele>
        <time>2015-09-03T18:18:10Z</time>
      </trkpt>
      <trkpt lat="43.66247" lon="7.11358">
        <ele>30.5</ele>
        <time>2015-09-03T18:18:12Z</time>
      </trkpt>
      <trkpt lat="43.66236" lon="7.11363">
        <ele>30.4</ele>
        <time>2015-09-03T18:18:14Z</time>
      </trkpt>
      <trkpt lat="43.66223" lon="7.11368">
        <ele>29.8</ele>
        <time>2015-09-03T18:18:16Z</time>
      </trkpt>
      <trkpt lat="43.66213" lon="7.11377">
        <ele>29.3</ele>
        <time>2015-09-03T18:18:18Z</time>
      </trkpt>
      <trkpt lat="43.66202" lon="7.11385">
        <ele>28.7</ele>
        <time>2015-09-03T18:18:20Z</time>
      </trkpt>
      <trkpt lat="43.66195" lon="7.11392">
        <ele>28.2</ele>
        <time>2015-09-03T18:18:22Z</time>
      </trkpt>
      <trkpt lat="43.66188" lon="7.11399">
        <ele>27.6</ele>
        <time>2015-09-03T18:18:24Z</time>
      </trkpt>
      <trkpt lat="43.66176" lon="7.11405">
        <ele>27.1</ele>
        <time>2015-09-03T18:18:26Z</time>
      </trkpt>
      <trkpt lat="43.66165" lon="7.11412">
        <ele>27.7</ele>
        <time>2015-09-03T18:18:28Z</time>
      </trkpt>
      <trkpt lat="43.66157" lon="7.11419">
        <ele>28.4</ele>
        <time>2015-09-03T18:18:30Z</time>
      </trkpt>
      <trkpt lat="43.66148" lon="7.11426">
        <ele>28.4</ele>
        <time>2015-09-03T18:18:32Z</time>
      </trkpt>
      <trkpt lat="43.66139" lon="7.11433">
        <ele>28.4</ele>
        <time>2015-09-03T18:18:34Z</time>
      </trkpt>
      <trkpt lat="43.66132" lon="7.11442">
        <ele>28.4</ele>
        <time>2015-09-03T18:18:36Z</time>
      </trkpt>
      <trkpt lat="43.66122" lon="7.11452">
        <ele>28.4</ele>
        <time>2015-09-03T18:18:38Z</time>
      </trkpt>
      <trkpt lat="43.66115" lon="7.11458">
        <ele>28.4</ele>
        <time>2015-09-03T18:18:39Z</time>
      </trkpt>
      <trkpt lat="43.66105" lon="7.11469">
        <ele>28.4</ele>
        <time>2015-09-03T18:18:41Z</time>
      </trkpt>
      <trkpt lat="43.66095" lon="7.11481">
        <ele>27.5</ele>
        <time>2015-09-03T18:18:43Z</time>
      </trkpt>
      <trkpt lat="43.66086" lon="7.11493">
        <ele>26.5</ele>
        <time>2015-09-03T18:18:45Z</time>
      </trkpt>
      <trkpt lat="43.66079" lon="7.11506">
        <ele>25.6</ele>
        <time>2015-09-03T18:18:47Z</time>
      </trkpt>
      <trkpt lat="43.66074" lon="7.11521">
        <ele>23.5</ele>
        <time>2015-09-03T18:18:49Z</time>
      </trkpt>
      <trkpt lat="43.6607" lon="7.11536">
        <ele>24</ele>
        <time>2015-09-03T18:18:51Z</time>
      </trkpt>
      <trkpt lat="43.66065" lon="7.11551">
        <ele>25.6</ele>
        <time>2015-09-03T18:18:53Z</time>
      </trkpt>
      <trkpt lat="43.66059" lon="7.11566">
        <ele>25.6</ele>
        <time>2015-09-03T18:18:55Z</time>
      </trkpt>
      <trkpt lat="43.66053" lon="7.11581">
        <ele>25.6</ele>
        <time>2015-09-03T18:18:57Z</time>
      </trkpt>
      <trkpt lat="43.66046" lon="7.11597">
        <ele>25.6</ele>
        <time>2015-09-03T18:18:59Z</time>
      </trkpt>
      <trkpt lat="43.66043" lon="7.11614">
        <ele>25.6</ele>
        <time>2015-09-03T18:19:01Z</time>
      </trkpt>
      <trkpt lat="43.66038" lon="7.1163">
        <ele>25.6</ele>
        <time>2015-09-03T18:19:03Z</time>
      </trkpt>
      <trkpt lat="43.66032" lon="7.11644">
        <ele>26.5</ele>
        <time>2015-09-03T18:19:05Z</time>
      </trkpt>
      <trkpt lat="43.66027" lon="7.11657">
        <ele>26.7</ele>
        <time>2015-09-03T18:19:07Z</time>
      </trkpt>
      <trkpt lat="43.6602" lon="7.11672">
        <ele>26.9</ele>
        <time>2015-09-03T18:19:09Z</time>
      </trkpt>
      <trkpt lat="43.66013" lon="7.11685">
        <ele>27.1</ele>
        <time>2015-09-03T18:19:11Z</time>
      </trkpt>
      <trkpt lat="43.66006" lon="7.11699">
        <ele>24.7</ele>
        <time>2015-09-03T18:19:13Z</time>
      </trkpt>
      <trkpt lat="43.66" lon="7.11713">
        <ele>22.4</ele>
        <time>2015-09-03T18:19:15Z</time>
      </trkpt>
      <trkpt lat="43.65993" lon="7.11726">
        <ele>22</ele>
        <time>2015-09-03T18:19:17Z</time>
      </trkpt>
      <trkpt lat="43.65987" lon="7.11739">
        <ele>20.8</ele>
        <time>2015-09-03T18:19:19Z</time>
      </trkpt>
      <trkpt lat="43.65981" lon="7.1175">
        <ele>19.6</ele>
        <time>2015-09-03T18:19:21Z</time>
      </trkpt>
      <trkpt lat="43.65973" lon="7.11763">
        <ele>18.5</ele>
        <time>2015-09-03T18:19:23Z</time>
      </trkpt>
      <trkpt lat="43.65967" lon="7.11777">
        <ele>17.3</ele>
        <time>2015-09-03T18:19:25Z</time>
      </trkpt>
      <trkpt lat="43.65962" lon="7.1179">
        <ele>16.1</ele>
        <time>2015-09-03T18:19:27Z</time>
      </trkpt>
      <trkpt lat="43.65955" lon="7.11805">
        <ele>15.6</ele>
        <time>2015-09-03T18:19:29Z</time>
      </trkpt>
      <trkpt lat="43.65945" lon="7.11817">
        <ele>15.2</ele>
        <time>2015-09-03T18:19:32Z</time>
      </trkpt>
      <trkpt lat="43.65939" lon="7.1183">
        <ele>14.7</ele>
        <time>2015-09-03T18:19:34Z</time>
      </trkpt>
      <trkpt lat="43.65934" lon="7.11844">
        <ele>14.3</ele>
        <time>2015-09-03T18:19:36Z</time>
      </trkpt>
      <trkpt lat="43.6593" lon="7.11857">
        <ele>13.8</ele>
        <time>2015-09-03T18:19:38Z</time>
      </trkpt>
      <trkpt lat="43.65926" lon="7.11869">
        <ele>13</ele>
        <time>2015-09-03T18:19:40Z</time>
      </trkpt>
      <trkpt lat="43.65918" lon="7.11878">
        <ele>13</ele>
        <time>2015-09-03T18:19:42Z</time>
      </trkpt>
      <trkpt lat="43.65912" lon="7.11888">
        <ele>13</ele>
        <time>2015-09-03T18:19:44Z</time>
      </trkpt>
      <trkpt lat="43.65905" lon="7.11897">
        <ele>13</ele>
        <time>2015-09-03T18:19:46Z</time>
      </trkpt>
      <trkpt lat="43.65896" lon="7.1191">
        <ele>13</ele>
        <time>2015-09-03T18:19:49Z</time>
      </trkpt>
      <trkpt lat="43.65888" lon="7.11919">
        <ele>13.1</ele>
        <time>2015-09-03T18:19:51Z</time>
      </trkpt>
      <trkpt lat="43.65881" lon="7.11929">
        <ele>13.2</ele>
        <time>2015-09-03T18:19:53Z</time>
      </trkpt>
      <trkpt lat="43.65873" lon="7.11939">
        <ele>13.3</ele>
        <time>2015-09-03T18:19:55Z</time>
      </trkpt>
      <trkpt lat="43.65866" lon="7.1195">
        <ele>13.4</ele>
        <time>2015-09-03T18:19:57Z</time>
      </trkpt>
      <trkpt lat="43.65859" lon="7.1196">
        <ele>13.5</ele>
        <time>2015-09-03T18:19:59Z</time>
      </trkpt>
      <trkpt lat="43.65852" lon="7.11971">
        <ele>13.5</ele>
        <time>2015-09-03T18:20:01Z</time>
      </trkpt>
      <trkpt lat="43.65845" lon="7.11983">
        <ele>13.6</ele>
        <time>2015-09-03T18:20:03Z</time>
      </trkpt>
      <trkpt lat="43.65836" lon="7.11992">
        <ele>14.2</ele>
        <time>2015-09-03T18:20:05Z</time>
      </trkpt>
      <trkpt lat="43.65831" lon="7.12001">
        <ele>14.7</ele>
        <time>2015-09-03T18:20:07Z</time>
      </trkpt>
      <trkpt lat="43.65821" lon="7.12007">
        <ele>15.3</ele>
        <time>2015-09-03T18:20:09Z</time>
      </trkpt>
      <trkpt lat="43.6581" lon="7.12013">
        <ele>15.8</ele>
        <time>2015-09-03T18:20:11Z</time>
      </trkpt>
      <trkpt lat="43.65799" lon="7.1202">
        <ele>16.3</ele>
        <time>2015-09-03T18:20:13Z</time>
      </trkpt>
      <trkpt lat="43.65791" lon="7.12026">
        <ele>16.7</ele>
        <time>2015-09-03T18:20:15Z</time>
      </trkpt>
      <trkpt lat="43.6578" lon="7.12031">
        <ele>17.2</ele>
        <time>2015-09-03T18:20:17Z</time>
      </trkpt>
      <trkpt lat="43.6577" lon="7.12034">
        <ele>17.6</ele>
        <time>2015-09-03T18:20:19Z</time>
      </trkpt>
      <trkpt lat="43.65759" lon="7.12035">
        <ele>18.1</ele>
        <time>2015-09-03T18:20:21Z</time>
      </trkpt>
      <trkpt lat="43.65751" lon="7.12035">
        <ele>18.2</ele>
        <time>2015-09-03T18:20:23Z</time>
      </trkpt>
      <trkpt lat="43.65742" lon="7.12032">
        <ele>18.3</ele>
        <time>2015-09-03T18:20:25Z</time>
      </trkpt>
      <trkpt lat="43.65732" lon="7.12027">
        <ele>17.9</ele>
        <time>2015-09-03T18:20:27Z</time>
      </trkpt>
      <trkpt lat="43.65723" lon="7.12023">
        <ele>17.5</ele>
        <time>2015-09-03T18:20:29Z</time>
      </trkpt>
      <trkpt lat="43.65713" lon="7.12021">
        <ele>17</ele>
        <time>2015-09-03T18:20:31Z</time>
      </trkpt>
      <trkpt lat="43.65705" lon="7.12024">
        <ele>16.8</ele>
        <time>2015-09-03T18:20:34Z</time>
      </trkpt>
      <trkpt lat="43.65697" lon="7.1203">
        <ele>16.6</ele>
        <time>2015-09-03T18:21:27Z</time>
      </trkpt>
      <trkpt lat="43.65699" lon="7.12044">
        <ele>16.5</ele>
        <time>2015-09-03T18:21:32Z</time>
      </trkpt>
      <trkpt lat="43.65703" lon="7.12056">
        <ele>16.3</ele>
        <time>2015-09-03T18:21:35Z</time>
      </trkpt>
      <trkpt lat="43.65707" lon="7.12069">
        <ele>15.9</ele>
        <time>2015-09-03T18:21:38Z</time>
      </trkpt>
      <trkpt lat="43.65711" lon="7.12083">
        <ele>15.5</ele>
        <time>2015-09-03T18:21:41Z</time>
      </trkpt>
      <trkpt lat="43.65716" lon="7.12097">
        <ele>15.5</ele>
        <time>2015-09-03T18:21:44Z</time>
      </trkpt>
      <trkpt lat="43.6572" lon="7.12111">
        <ele>15.5</ele>
        <time>2015-09-03T18:21:47Z</time>
      </trkpt>
    </trkseg>
  </trk>
</gpx>